Provisional Data: Hunts Run near Cameron, PA


Please select a monitoring station.
Please select start date.
Please select start date.

Toggle Unit: C/F Toggle Unit: C/F
Sample Time Temperature (C) Temperature (F) Specific Conductivity (mS/cm) pH   Turbidity (NTU+) DO (mg/L)
5/4/2021 12:00:00 AM 10.86 51.548 0.03 6.47 2.7 10.6
5/4/2021 12:15:00 AM 10.84 51.512 0.03 6.47 2.75 10.61
5/4/2021 12:30:00 AM 10.82 51.476 0.03 6.46 2.7 10.61
5/4/2021 12:45:00 AM 10.81 51.458 0.03 6.46 2.55 10.61
5/4/2021 1:00:00 AM 10.79 51.422 0.03 6.46 2.61 10.62
5/4/2021 1:15:00 AM 10.78 51.404 0.03 6.45 2.61 10.62
5/4/2021 1:30:00 AM 10.76 51.368 0.03 6.45 2.77 10.62
5/4/2021 1:45:00 AM 10.75 51.35 0.03 6.46 2.47 10.62
5/4/2021 2:00:00 AM 10.74 51.332 0.03 6.44 2.55 10.62
5/4/2021 2:15:00 AM 10.73 51.314 0.03 6.44 2.56 10.63
5/4/2021 2:30:00 AM 10.72 51.296 0.03 6.44 2.52 10.62
5/4/2021 2:45:00 AM 10.71 51.278 0.03 6.43 2.59 10.62
5/4/2021 3:00:00 AM 10.7 51.26 0.03 6.43 2.63 10.62
5/4/2021 3:15:00 AM 10.7 51.26 0.03 6.43 2.73 10.62
5/4/2021 3:30:00 AM 10.69 51.242 0.03 6.43 2.7 10.63
5/4/2021 3:45:00 AM 10.68 51.224 0.03 6.43 2.54 10.63
5/4/2021 4:00:00 AM 10.67 51.206 0.03 6.44 2.5 10.64
5/4/2021 4:15:00 AM 10.66 51.188 0.03 6.44 2.6 10.64
5/4/2021 4:30:00 AM 10.65 51.17 0.03 6.44 2.56 10.65
5/4/2021 4:45:00 AM 10.64 51.152 0.03 6.43 2.51 10.65
5/4/2021 5:00:00 AM 10.63 51.134 0.03 6.42 2.72 10.65
5/4/2021 5:15:00 AM 10.62 51.116 0.03 6.43 2.58 10.65
5/4/2021 5:30:00 AM 10.61 51.098 0.03 6.42 2.77 10.65
5/4/2021 5:45:00 AM 10.6 51.08 0.03 6.42 2.73 10.65
5/4/2021 6:00:00 AM 10.59 51.062 0.03 6.42 2.57 10.66
5/4/2021 6:15:00 AM 10.59 51.062 0.03 6.41 2.67 10.67
5/4/2021 6:30:00 AM 10.58 51.044 0.03 6.42 2.79 10.68
5/4/2021 6:45:00 AM 10.58 51.044 0.03 6.42 2.49 10.69
5/4/2021 7:00:00 AM 10.57 51.026 0.03 6.42 2.47 10.72
5/4/2021 7:15:00 AM 10.57 51.026 0.03 6.44 2.42 10.73
5/4/2021 7:30:00 AM 10.58 51.044 0.03 6.44 2.37 10.75
5/4/2021 7:45:00 AM 10.6 51.08 0.03 6.45 2.39 10.8
5/4/2021 8:00:00 AM 10.62 51.116 0.03 6.47 2.35 10.83
5/4/2021 8:15:00 AM 10.62 51.116 0.03 6.47 2.34 10.81
5/4/2021 8:30:00 AM 10.63 51.134 0.03 6.48 2.28 10.81
5/4/2021 8:45:00 AM 10.67 51.206 0.03 6.5 2.41 10.85
5/4/2021 9:00:00 AM 10.74 51.332 0.03 6.52 2.36 10.9
5/4/2021 9:15:00 AM 10.79 51.422 0.03 6.55 2.28 10.89
5/4/2021 9:30:00 AM 10.88 51.584 0.03 6.57 2.2 10.89
5/4/2021 9:45:00 AM 10.99 51.782 0.03 6.6 2.12 10.9
5/4/2021 10:00:00 AM 11.07 51.926 0.03 6.63 2.16 10.89
5/4/2021 10:15:00 AM 11.1 51.98 0.03 6.66 2.21 10.84
5/4/2021 10:30:00 AM 11.13 52.034 0.03 6.65 2.19 10.8
5/4/2021 10:45:00 AM 11.28 52.304 0.03 6.67 2.46 10.82
5/4/2021 11:00:00 AM 11.46 52.628 0.029 6.69 2.65 10.81
5/4/2021 11:15:00 AM 11.45 52.61 0.029 6.68 2.55 10.78
5/4/2021 11:30:00 AM 11.44 52.592 0.029 6.67 2.24 10.75
5/4/2021 11:45:00 AM 11.5 52.7 0.029 6.68 2.28 10.74
5/4/2021 12:00:00 PM 11.63 52.934 0.029 6.69 2.23 10.74
5/4/2021 12:15:00 PM 11.74 53.132 0.029 6.7 2.24 10.74
5/4/2021 12:30:00 PM 11.85 53.33 0.029 6.7 2.26 10.72
5/4/2021 12:45:00 PM 11.94 53.492 0.029 6.69 2.39 10.7
5/4/2021 1:00:00 PM 11.96 53.528 0.029 6.69 2.48 10.66
5/4/2021 1:15:00 PM 12.04 53.672 0.029 6.69 2.31 10.66
5/4/2021 1:30:00 PM 12.1 53.78 0.029 6.7 2.53 10.63
5/4/2021 1:45:00 PM 12.16 53.888 0.029 6.71 2.33 10.62
5/4/2021 2:00:00 PM 12.28 54.104 0.029 6.7 2.23 10.6
5/4/2021 2:15:00 PM 12.27 54.086 0.029 6.66 2.26 10.51
5/4/2021 2:30:00 PM 12.27 54.086 0.029 6.67 2.34 10.5
5/4/2021 2:45:00 PM 12.27 54.086 0.029 6.66 2.57 10.48
5/4/2021 3:00:00 PM 12.23 54.014 0.029 6.64 3.54 10.44
5/4/2021 3:15:00 PM 12.21 53.978 0.029 6.62 2.6 10.43
5/4/2021 3:30:00 PM 12.18 53.924 0.029 6.61 2.68 10.43
5/4/2021 3:45:00 PM 12.16 53.888 0.029 6.6 2.82 10.41
5/4/2021 4:00:00 PM 12.23 54.014 0.029 6.57 3.36 10.36
5/4/2021 4:15:00 PM 12.23 54.014 0.029 6.58 4.04 10.35
5/4/2021 4:30:00 PM 12.19 53.942 0.03 6.6 10.36 10.38
5/4/2021 4:45:00 PM 12.18 53.924 0.03 6.61 7.05 10.42
5/4/2021 5:00:00 PM 12.2 53.96 0.03 6.63 7.32 10.46
5/4/2021 5:15:00 PM 12.18 53.924 0.03 6.63 8.78 10.46
5/4/2021 5:30:00 PM 12.17 53.906 0.03 6.63 7.05 10.47
5/4/2021 5:45:00 PM 12.16 53.888 0.03 6.62 6.75 10.45
5/4/2021 6:00:00 PM 12.13 53.834 0.03 6.62 8.1 10.43
5/4/2021 6:15:00 PM 12.12 53.816 0.03 6.6 7.19 10.42
5/4/2021 6:30:00 PM 12.12 53.816 0.03 6.6 6.17 10.42
5/4/2021 6:45:00 PM 12.1 53.78 0.03 6.6 5.22 10.43
5/4/2021 7:00:00 PM 12.06 53.708 0.03 6.59 5.3 10.39
5/4/2021 7:15:00 PM 12.04 53.672 0.03 6.56 4.8 10.39
5/4/2021 7:30:00 PM 12.01 53.618 0.03 6.55 4.68 10.36
5/4/2021 7:45:00 PM 12 53.6 0.03 6.54 4.36 10.34
5/4/2021 8:00:00 PM 11.99 53.582 0.03 6.55 4.13 10.33
5/4/2021 8:15:00 PM 11.97 53.546 0.03 6.55 3.83 10.33
5/4/2021 8:30:00 PM 11.94 53.492 0.03 6.55 3.65 10.33
5/4/2021 8:45:00 PM 11.91 53.438 0.03 6.55 3.63 10.34
5/4/2021 9:00:00 PM 11.88 53.384 0.03 6.54 3.46 10.34
5/4/2021 9:15:00 PM 11.84 53.312 0.03 6.53 3.55 10.34
5/4/2021 9:30:00 PM 11.81 53.258 0.03 6.52 3.43 10.36
5/4/2021 9:45:00 PM 11.77 53.186 0.03 6.51 3.34 10.36
5/4/2021 10:00:00 PM 11.74 53.132 0.03 6.5 3.23 10.37
5/4/2021 10:15:00 PM 11.72 53.096 0.03 6.5 3.05 10.37
5/4/2021 10:30:00 PM 11.69 53.042 0.03 6.5 2.99 10.38
5/4/2021 10:45:00 PM 11.66 52.988 0.03 6.5 3.02 10.39
5/4/2021 11:00:00 PM 11.66 52.988 0.03 6.49 2.96 10.39
5/4/2021 11:15:00 PM 11.63 52.934 0.03 6.49 2.92 10.4
5/4/2021 11:30:00 PM 11.61 52.898 0.03 6.49 2.97 10.4
5/4/2021 11:45:00 PM 11.59 52.862 0.03 6.49 2.9 10.41
5/5/2021 12:00:00 AM 11.57 52.826 0.03 6.49 3.05 10.42
5/5/2021 12:15:00 AM 11.55 52.79 0.03 6.47 3.2 10.41
5/5/2021 12:30:00 AM 11.53 52.754 0.03 6.47 3.13 10.43
5/5/2021 12:45:00 AM 11.51 52.718 0.03 6.47 3.33 10.43
5/5/2021 1:00:00 AM 11.49 52.682 0.03 6.46 3.16 10.44
5/5/2021 1:15:00 AM 11.47 52.646 0.03 6.46 3.04 10.43
5/5/2021 1:30:00 AM 11.45 52.61 0.03 6.46 3.09 10.44
5/5/2021 1:45:00 AM 11.44 52.592 0.03 6.46 2.92 10.45
5/5/2021 2:00:00 AM 11.41 52.538 0.03 6.45 2.8 10.45
5/5/2021 2:15:00 AM 11.39 52.502 0.03 6.45 2.78 10.45
5/5/2021 2:30:00 AM 11.37 52.466 0.03 6.45 2.65 10.46
5/5/2021 2:45:00 AM 11.36 52.448 0.03 6.44 2.69 10.46
5/5/2021 3:00:00 AM 11.34 52.412 0.03 6.44 2.7 10.47
5/5/2021 3:15:00 AM 11.33 52.394 0.03 6.44 2.6 10.48
5/5/2021 3:30:00 AM 11.31 52.358 0.03 6.43 2.6 10.48
5/5/2021 3:45:00 AM 11.29 52.322 0.03 6.44 2.66 10.48
5/5/2021 4:00:00 AM 11.27 52.286 0.03 6.44 2.69 10.49
5/5/2021 4:15:00 AM 11.26 52.268 0.03 6.45 2.57 10.49
5/5/2021 4:30:00 AM 11.24 52.232 0.03 6.44 2.66 10.5
5/5/2021 4:45:00 AM 11.22 52.196 0.03 6.45 2.52 10.51
5/5/2021 5:00:00 AM 11.2 52.16 0.03 6.46 2.65 10.5
5/5/2021 5:15:00 AM 11.19 52.142 0.03 6.45 2.59 10.51
5/5/2021 5:30:00 AM 11.17 52.106 0.03 6.45 2.53 10.51
5/5/2021 5:45:00 AM 11.16 52.088 0.03 6.46 2.48 10.51
5/5/2021 6:00:00 AM 11.15 52.07 0.03 6.49 2.5 10.52
5/5/2021 6:15:00 AM 11.13 52.034 0.03 6.51 2.49 10.53
5/5/2021 6:30:00 AM 11.12 52.016 0.03 6.53 2.49 10.54
5/5/2021 6:45:00 AM 11.1 51.98 0.03 6.54 2.47 10.55
5/5/2021 7:00:00 AM 11.09 51.962 0.03 6.55 2.46 10.58
5/5/2021 7:15:00 AM 11.07 51.926 0.03 6.55 2.45 10.59
5/5/2021 7:30:00 AM 11.06 51.908 0.03 6.55 2.33 10.6
5/5/2021 7:45:00 AM 11.05 51.89 0.03 6.57 2.29 10.62
5/5/2021 8:00:00 AM 11.04 51.872 0.03 6.57 2.36 10.62
5/5/2021 8:15:00 AM 11.02 51.836 0.03 6.57 2.45 10.63
5/5/2021 8:30:00 AM 11.01 51.818 0.03 6.58 2.26 10.64
5/5/2021 8:45:00 AM 11 51.8 0.03 6.58 2.25 10.66
5/5/2021 9:00:00 AM 10.99 51.782 0.03 6.59 2.32 10.68
5/5/2021 9:15:00 AM 10.99 51.782 0.03 6.59 2.34 10.71
5/5/2021 9:30:00 AM 10.99 51.782 0.03 6.61 2.34 10.74
5/5/2021 9:45:00 AM 11 51.8 0.03 6.62 2.4 10.76
5/5/2021 10:00:00 AM 11.01 51.818 0.03 6.63 2.43 10.78
5/5/2021 10:15:00 AM 11.04 51.872 0.03 6.63 2.42 10.8
5/5/2021 10:30:00 AM 11.06 51.908 0.03 6.65 2.41 10.81
5/5/2021 10:45:00 AM 11.08 51.944 0.03 6.65 2.47 10.81
5/5/2021 11:00:00 AM 11.07 51.926 0.03 6.64 2.5 10.76
5/5/2021 11:15:00 AM 11.07 51.926 0.03 6.64 2.58 10.77
5/5/2021 11:30:00 AM 11.09 51.962 0.03 6.65 2.6 10.8
5/5/2021 11:45:00 AM 11.1 51.98 0.03 6.67 2.41 10.82
5/5/2021 12:00:00 PM 11.09 51.962 0.03 6.68 2.55 10.83
5/5/2021 12:15:00 PM 11.1 51.98 0.03 6.67 2.5 10.83
5/5/2021 12:30:00 PM 11.1 51.98 0.03 6.67 2.33 10.85
5/5/2021 12:45:00 PM 11.1 51.98 0.03 6.68 2.37 10.85
5/5/2021 1:00:00 PM 11.11 51.998 0.029 6.68 2.44 10.85
5/5/2021 1:15:00 PM 11.11 51.998 0.029 6.68 2.41 10.85
5/5/2021 1:30:00 PM 11.12 52.016 0.029 6.69 2.42 10.85
5/5/2021 1:45:00 PM 11.13 52.034 0.029 6.68 2.49 10.85
5/5/2021 2:00:00 PM 11.14 52.052 0.029 6.69 2.36 10.85
5/5/2021 2:15:00 PM 11.13 52.034 0.029 6.69 2.38 10.84
5/5/2021 2:30:00 PM 11.12 52.016 0.029 6.68 2.44 10.84
5/5/2021 2:45:00 PM 11.12 52.016 0.029 6.68 2.33 10.85
5/5/2021 3:00:00 PM 11.1 51.98 0.029 6.68 2.43 10.84
5/5/2021 3:15:00 PM 11.14 52.052 0.029 6.7 2.43 10.88
5/5/2021 3:30:00 PM 11.24 52.232 0.029 6.7 2.32 10.88
5/5/2021 3:45:00 PM 11.28 52.304 0.029 6.7 2.38 10.88
5/5/2021 4:00:00 PM 11.25 52.25 0.029 6.71 2.33 10.87
5/5/2021 4:15:00 PM 11.43 52.574 0.029 6.71 2.41 10.85
5/5/2021 4:30:00 PM 11.46 52.628 0.029 6.7 2.35 10.83
5/5/2021 4:45:00 PM 11.41 52.538 0.029 6.7 2.48 10.81
5/5/2021 5:00:00 PM 11.36 52.448 0.029 6.69 2.39 10.8
5/5/2021 5:15:00 PM 11.32 52.376 0.029 6.68 2.56 10.8
5/5/2021 5:30:00 PM 11.26 52.268 0.029 6.69 2.52 10.82
5/5/2021 5:45:00 PM 11.2 52.16 0.029 6.68 2.39 10.81
5/5/2021 6:00:00 PM 11.13 52.034 0.029 6.67 2.39 10.79
5/5/2021 6:15:00 PM 11.09 51.962 0.029 6.65 2.44 10.78
5/5/2021 6:30:00 PM 11.05 51.89 0.03 6.65 2.57 10.75
5/5/2021 6:45:00 PM 10.99 51.782 0.03 6.64 2.56 10.76
5/5/2021 7:00:00 PM 10.94 51.692 0.03 6.62 2.54 10.75
5/5/2021 7:15:00 PM 10.89 51.602 0.03 6.62 2.43 10.75
5/5/2021 7:30:00 PM 10.83 51.494 0.03 6.61 2.45 10.74
5/5/2021 7:45:00 PM 10.76 51.368 0.03 6.61 2.81 10.75
5/5/2021 8:00:00 PM 10.71 51.278 0.03 6.6 2.38 10.75
5/5/2021 8:15:00 PM 10.66 51.188 0.03 6.59 2.43 10.74
5/5/2021 8:30:00 PM 10.6 51.08 0.03 6.59 2.47 10.75
5/5/2021 8:45:00 PM 10.54 50.972 0.03 6.59 2.54 10.76
5/5/2021 9:00:00 PM 10.5 50.9 0.03 6.59 2.44 10.77
5/5/2021 9:15:00 PM 10.45 50.81 0.03 6.59 2.47 10.79
5/5/2021 9:30:00 PM 10.4 50.72 0.03 6.58 2.63 10.8
5/5/2021 9:45:00 PM 10.35 50.63 0.03 6.59 2.45 10.82
5/5/2021 10:00:00 PM 10.3 50.54 0.03 6.58 2.51 10.83
5/5/2021 10:15:00 PM 10.24 50.432 0.03 6.59 2.44 10.85
5/5/2021 10:30:00 PM 10.19 50.342 0.03 6.58 2.44 10.86
5/5/2021 10:45:00 PM 10.15 50.27 0.03 6.59 2.45 10.88
5/5/2021 11:00:00 PM 10.1 50.18 0.03 6.58 2.44 10.89
5/5/2021 11:15:00 PM 10.06 50.108 0.03 6.58 2.4 10.9
5/5/2021 11:30:00 PM 10.03 50.054 0.03 6.57 2.41 10.91
5/5/2021 11:45:00 PM 9.99 49.982 0.03 6.58 2.27 10.92
5/6/2021 12:00:00 AM 9.94 49.892 0.03 6.58 2.35 10.93
5/6/2021 12:15:00 AM 9.89 49.802 0.03 6.58 2.31 10.95
5/6/2021 12:30:00 AM 9.85 49.73 0.03 6.58 2.29 10.96
5/6/2021 12:45:00 AM 9.81 49.658 0.03 6.59 2.35 10.97
5/6/2021 1:00:00 AM 9.77 49.586 0.03 6.59 2.46 10.99
5/6/2021 1:15:00 AM 9.73 49.514 0.03 6.59 2.41 11
5/6/2021 1:30:00 AM 9.69 49.442 0.03 6.59 2.42 11.01
5/6/2021 1:45:00 AM 9.65 49.37 0.03 6.58 2.34 11.01
5/6/2021 2:00:00 AM 9.62 49.316 0.03 6.58 2.46 11.02
5/6/2021 2:15:00 AM 9.58 49.244 0.03 6.59 2.29 11.03
5/6/2021 2:30:00 AM 9.55 49.19 0.03 6.58 2.31 11.04
5/6/2021 2:45:00 AM 9.51 49.118 0.03 6.59 2.51 11.06
5/6/2021 3:00:00 AM 9.48 49.064 0.03 6.58 2.46 11.07
5/6/2021 3:15:00 AM 9.44 48.992 0.03 6.58 2.33 11.07
5/6/2021 3:30:00 AM 9.41 48.938 0.03 6.58 2.36 11.08
5/6/2021 3:45:00 AM 9.37 48.866 0.03 6.58 2.25 11.09
5/6/2021 4:00:00 AM 9.34 48.812 0.03 6.58 2.41 11.11
5/6/2021 4:15:00 AM 9.3 48.74 0.03 6.58 2.33 11.12
5/6/2021 4:30:00 AM 9.27 48.686 0.03 6.58 2.44 11.13
5/6/2021 4:45:00 AM 9.23 48.614 0.03 6.58 2.34 11.15
5/6/2021 5:00:00 AM 9.2 48.56 0.03 6.57 2.29 11.15
5/6/2021 5:15:00 AM 9.17 48.506 0.03 6.57 2.3 11.16
5/6/2021 5:30:00 AM 9.14 48.452 0.03 6.58 2.39 11.18
5/6/2021 5:45:00 AM 9.09 48.362 0.03 6.57 2.38 11.18
5/6/2021 6:00:00 AM 9.04 48.272 0.03 6.58 2.39 11.2
5/6/2021 6:15:00 AM 8.99 48.182 0.03 6.57 2.39 11.22
5/6/2021 6:30:00 AM 8.94 48.092 0.03 6.58 2.11 11.24
5/6/2021 6:45:00 AM 8.89 48.002 0.03 6.59 2.44 11.28
5/6/2021 7:00:00 AM -99999.99 -179968 -99999.99 -99999.99 -99999.99 -99999.99
5/6/2021 7:15:00 AM 8.8 47.84 0.03 6.6 2.19 11.34
5/6/2021 7:30:00 AM 8.76 47.768 0.03 6.61 2.17 11.37
5/6/2021 7:45:00 AM 8.74 47.732 0.03 6.61 2.18 11.4
5/6/2021 8:00:00 AM 8.72 47.696 0.03 6.63 2.21 11.43
5/6/2021 8:15:00 AM 8.72 47.696 0.03 6.64 2.15 11.45
5/6/2021 8:30:00 AM 8.74 47.732 0.03 6.64 2.09 11.47
5/6/2021 8:45:00 AM 8.75 47.75 0.03 6.65 2.05 11.48
5/6/2021 9:00:00 AM 8.78 47.804 0.03 6.66 2.19 11.5
5/6/2021 9:15:00 AM 8.8 47.84 0.03 6.66 2.04 11.5
5/6/2021 9:30:00 AM 8.81 47.858 0.03 6.67 2.17 11.5
5/6/2021 9:45:00 AM 8.84 47.912 0.03 6.67 2.03 11.51
5/6/2021 10:00:00 AM 8.95 48.11 0.03 6.68 1.98 11.52
5/6/2021 10:15:00 AM 9.12 48.416 0.03 6.69 2.24 11.51
5/6/2021 10:30:00 AM 9.26 48.668 0.03 6.69 2.09 11.46
5/6/2021 10:45:00 AM 9.32 48.776 0.03 6.7 2.15 11.45
5/6/2021 11:00:00 AM 9.34 48.812 0.03 6.69 2.32 11.42
5/6/2021 11:15:00 AM 9.48 49.064 0.03 6.7 2.27 11.39
5/6/2021 11:30:00 AM 9.74 49.532 0.03 6.7 2.18 11.37
5/6/2021 11:45:00 AM 9.94 49.892 0.03 6.7 2.23 11.32
5/6/2021 12:00:00 PM 10.17 50.306 0.03 6.69 2.33 11.28
5/6/2021 12:15:00 PM 10.2 50.36 0.03 6.7 2.22 11.24
5/6/2021 12:30:00 PM 10.41 50.738 0.03 6.7 2.02 11.2
5/6/2021 12:45:00 PM 10.53 50.954 0.03 6.72 2.1 11.16
5/6/2021 1:00:00 PM 10.5 50.9 0.03 6.71 2.29 11.13
5/6/2021 1:15:00 PM 10.52 50.936 0.03 6.7 2.37 11.13
5/6/2021 1:30:00 PM 10.56 51.008 0.03 6.71 2.26 11.11
5/6/2021 1:45:00 PM 10.64 51.152 0.03 6.71 2.33 11.1
5/6/2021 2:00:00 PM 10.69 51.242 0.03 6.72 2.36 11.07
5/6/2021 2:15:00 PM 10.71 51.278 0.03 6.72 2.01 11.06
5/6/2021 2:30:00 PM 10.73 51.314 0.03 6.72 2.1 11.06
5/6/2021 2:45:00 PM 10.77 51.386 0.03 6.72 2.11 11.05
5/6/2021 3:00:00 PM 10.81 51.458 0.03 6.73 2.12 11.05
5/6/2021 3:15:00 PM 10.81 51.458 0.03 6.73 2.16 11.05
5/6/2021 3:30:00 PM 10.82 51.476 0.03 6.73 2.14 11.04
5/6/2021 3:45:00 PM 10.81 51.458 0.03 6.72 2.15 11.03
5/6/2021 4:00:00 PM 10.83 51.494 0.03 6.74 2.14 11.03
5/6/2021 4:15:00 PM 10.86 51.548 0.03 6.72 2.09 11.02
5/6/2021 4:30:00 PM 10.87 51.566 0.03 6.73 2.12 11.01
5/6/2021 4:45:00 PM 10.92 51.656 0.03 6.73 2.18 11.01
5/6/2021 5:00:00 PM 10.92 51.656 0.03 6.73 2.12 10.98
5/6/2021 5:15:00 PM 10.89 51.602 0.03 6.71 2.18 10.97
5/6/2021 5:30:00 PM 10.86 51.548 0.03 6.72 2.69 10.95
5/6/2021 5:45:00 PM 10.85 51.53 0.03 6.71 2.21 10.94
5/6/2021 6:00:00 PM 10.84 51.512 0.03 6.71 2.02 10.93
5/6/2021 6:15:00 PM 10.79 51.422 0.03 6.71 2.08 10.93
5/6/2021 6:30:00 PM 10.72 51.296 0.03 6.69 2.04 10.91
5/6/2021 6:45:00 PM 10.66 51.188 0.031 6.68 2.07 10.9
5/6/2021 7:00:00 PM 10.59 51.062 0.031 6.67 2.16 10.89
5/6/2021 7:15:00 PM 10.52 50.936 0.031 6.66 2.1 10.88
5/6/2021 7:30:00 PM 10.44 50.792 0.031 6.65 2.08 10.86
5/6/2021 7:45:00 PM 10.37 50.666 0.031 6.63 2.31 10.86
5/6/2021 8:00:00 PM 10.29 50.522 0.031 6.63 2.14 10.87
5/6/2021 8:15:00 PM 10.21 50.378 0.031 6.63 2.06 10.87
5/6/2021 8:30:00 PM 10.14 50.252 0.031 6.61 4.53 10.87
5/6/2021 8:45:00 PM 10.06 50.108 0.031 6.6 2.06 10.87
5/6/2021 9:00:00 PM 9.99 49.982 0.031 6.6 2.02 10.89
5/6/2021 9:15:00 PM 9.91 49.838 0.031 6.61 2.25 10.91
5/6/2021 9:30:00 PM 9.84 49.712 0.031 6.6 2.2 10.93
5/6/2021 9:45:00 PM 9.76 49.568 0.031 6.6 2.18 10.95
5/6/2021 10:00:00 PM 9.69 49.442 0.031 6.6 2.52 10.98
5/6/2021 10:15:00 PM 9.61 49.298 0.031 6.6 2.34 10.99
5/6/2021 10:30:00 PM 9.54 49.172 0.031 6.59 2.63 11.01
5/6/2021 10:45:00 PM 9.46 49.028 0.031 6.6 2.2 11.03
5/6/2021 11:00:00 PM 9.39 48.902 0.031 6.59 2.23 11.05
5/6/2021 11:15:00 PM 9.31 48.758 0.031 6.6 2.26 11.07
5/6/2021 11:30:00 PM 9.23 48.614 0.031 6.59 2.12 11.1
5/6/2021 11:45:00 PM 9.16 48.488 0.031 6.6 2.3 11.12
5/7/2021 12:00:00 AM 9.09 48.362 0.031 6.59 2.19 11.14
5/7/2021 12:15:00 AM 9.02 48.236 0.031 6.59 2.2 11.16
5/7/2021 12:30:00 AM 8.95 48.11 0.031 6.59 2.24 11.18
5/7/2021 12:45:00 AM 8.88 47.984 0.031 6.58 2.25 11.2
5/7/2021 1:00:00 AM 8.81 47.858 0.031 6.6 2.16 11.22
5/7/2021 1:15:00 AM 8.74 47.732 0.031 6.58 2.38 11.24
5/7/2021 1:30:00 AM 8.68 47.624 0.031 6.59 2.25 11.26
5/7/2021 1:45:00 AM 8.61 47.498 0.031 6.59 2.25 11.27
5/7/2021 2:00:00 AM 8.55 47.39 0.031 6.59 2.19 11.29
5/7/2021 2:15:00 AM 8.49 47.282 0.031 6.59 2.22 11.31
5/7/2021 2:30:00 AM 8.43 47.174 0.031 6.58 2.16 11.33
5/7/2021 2:45:00 AM 8.37 47.066 0.031 6.58 2.21 11.34
5/7/2021 3:00:00 AM 8.31 46.958 0.031 6.6 2.25 11.35
5/7/2021 3:15:00 AM 8.25 46.85 0.031 6.59 2.12 11.37
5/7/2021 3:30:00 AM 8.19 46.742 0.031 6.6 2.2 11.39
5/7/2021 3:45:00 AM 8.12 46.616 0.031 6.59 2.26 11.41
5/7/2021 4:00:00 AM 8.06 46.508 0.031 6.58 2.26 11.42
5/7/2021 4:15:00 AM 8 46.4 0.031 6.59 2.23 11.44
5/7/2021 4:30:00 AM 7.94 46.292 0.031 6.59 2.23 11.46
5/7/2021 4:45:00 AM 7.88 46.184 0.031 6.59 2.24 11.47
5/7/2021 5:00:00 AM 7.82 46.076 0.031 6.59 2.13 11.49
5/7/2021 5:15:00 AM 7.76 45.968 0.031 6.59 2.19 11.5
5/7/2021 5:30:00 AM 7.7 45.86 0.031 6.59 2.17 11.52
5/7/2021 5:45:00 AM 7.64 45.752 0.031 6.59 2.15 11.54
5/7/2021 6:00:00 AM 7.58 45.644 0.031 6.59 2.25 11.55
5/7/2021 6:15:00 AM 7.53 45.554 0.031 6.59 2.26 11.58
5/7/2021 6:30:00 AM 7.48 45.464 0.031 6.6 2.09 11.62
5/7/2021 6:45:00 AM 7.44 45.392 0.031 6.61 2.16 11.65
5/7/2021 7:00:00 AM 7.41 45.338 0.031 6.62 2.05 11.69
5/7/2021 7:15:00 AM 7.4 45.32 0.031 6.6 2.05 11.71
5/7/2021 7:30:00 AM 7.38 45.284 0.031 6.62 2 11.74
5/7/2021 7:45:00 AM 7.38 45.284 0.031 6.63 2.01 11.77
5/7/2021 8:00:00 AM 7.39 45.302 0.031 6.64 2.09 11.79
5/7/2021 8:15:00 AM 7.41 45.338 0.031 6.65 2.06 11.82
5/7/2021 8:30:00 AM 7.44 45.392 0.031 6.67 2.05 11.83
5/7/2021 8:45:00 AM 7.47 45.446 0.031 6.66 3.15 11.84
5/7/2021 9:00:00 AM 7.51 45.518 0.031 6.67 2.91 11.83
5/7/2021 9:15:00 AM 7.56 45.608 0.031 6.66 2.21 11.83
5/7/2021 9:30:00 AM 7.64 45.752 0.031 6.68 1.93 11.82
5/7/2021 9:45:00 AM 7.75 45.95 0.031 6.68 2.03 11.81
5/7/2021 10:00:00 AM 7.86 46.148 0.031 6.69 2.12 11.78
5/7/2021 10:15:00 AM 7.94 46.292 0.031 6.69 2.06 11.76
5/7/2021 10:30:00 AM 8.02 46.436 0.031 6.7 2.01 11.74
5/7/2021 10:45:00 AM 8.11 46.598 0.031 6.7 2.38 11.7
5/7/2021 11:00:00 AM 8.2 46.76 0.031 6.71 2.34 11.67
5/7/2021 11:15:00 AM 8.27 46.886 0.031 6.7 2.11 11.65
5/7/2021 11:30:00 AM 8.37 47.066 0.031 6.72 2.06 11.63
5/7/2021 11:45:00 AM 8.52 47.336 0.031 6.72 1.97 11.62
5/7/2021 12:00:00 PM 8.63 47.534 0.031 6.73 1.98 11.58
5/7/2021 12:15:00 PM 8.71 47.678 0.031 6.73 2.07 11.56
5/7/2021 12:30:00 PM 8.79 47.822 0.031 6.72 2.03 11.54
5/7/2021 12:45:00 PM 8.91 48.038 0.031 6.72 1.98 11.51
5/7/2021 1:00:00 PM 9 48.2 0.031 6.73 2.74 11.47
5/7/2021 1:15:00 PM 9.01 48.218 0.031 6.71 2.44 11.42
5/7/2021 1:30:00 PM 9.01 48.218 0.031 6.71 2.24 11.38
5/7/2021 1:45:00 PM 9.04 48.272 0.031 6.7 2.02 11.35
5/7/2021 2:00:00 PM 9.07 48.326 0.031 6.7 2.04 11.34
5/7/2021 2:15:00 PM 9.07 48.326 0.031 6.7 2.06 11.33
5/7/2021 2:30:00 PM 9.07 48.326 0.031 6.69 2.41 11.33
5/7/2021 2:45:00 PM 9.07 48.326 0.031 6.71 3.38 11.32
5/7/2021 3:00:00 PM 9.07 48.326 0.031 6.69 2.83 11.31
5/7/2021 3:15:00 PM 9.07 48.326 0.031 6.69 2.64 11.32
5/7/2021 3:30:00 PM 9.07 48.326 0.031 6.69 2.42 11.32
5/7/2021 3:45:00 PM 9.08 48.344 0.031 6.69 2.18 11.32
5/7/2021 4:00:00 PM 9.07 48.326 0.031 6.71 2.3 11.32
5/7/2021 4:15:00 PM 9.06 48.308 0.031 6.69 2.33 11.31
5/7/2021 4:30:00 PM 9.04 48.272 0.031 6.67 2.3 11.3
5/7/2021 4:45:00 PM 9.03 48.254 0.031 6.67 2.32 11.29
5/7/2021 5:00:00 PM 9.02 48.236 0.031 6.68 2.5 11.29
5/7/2021 5:15:00 PM 9 48.2 0.031 6.67 2.64 11.27
5/7/2021 5:30:00 PM 8.98 48.164 0.031 6.66 2.97 11.28
5/7/2021 5:45:00 PM 8.96 48.128 0.031 6.67 3.43 11.27
5/7/2021 6:00:00 PM 8.95 48.11 0.031 6.66 3.97 11.27
5/7/2021 6:15:00 PM 8.94 48.092 0.031 6.66 4.25 11.27
5/7/2021 6:30:00 PM 8.93 48.074 0.031 6.66 4.31 11.26
5/7/2021 6:45:00 PM 8.93 48.074 0.031 6.67 4.27 11.29
5/7/2021 7:00:00 PM 8.93 48.074 0.031 6.67 4.19 11.29
5/7/2021 7:15:00 PM 8.91 48.038 0.031 6.66 4.08 11.27
5/7/2021 7:30:00 PM 8.9 48.02 0.031 6.65 4 11.26
5/7/2021 7:45:00 PM 8.89 48.002 0.031 6.65 3.72 11.25
5/7/2021 8:00:00 PM 8.87 47.966 0.031 6.64 3.45 11.23
5/7/2021 8:15:00 PM 8.85 47.93 0.031 6.63 3.19 11.22
5/7/2021 8:30:00 PM 8.83 47.894 0.031 6.63 3.22 11.21
5/7/2021 8:45:00 PM 8.81 47.858 0.031 6.62 3.11 11.22
5/7/2021 9:00:00 PM 8.79 47.822 0.031 6.62 3.18 11.21
5/7/2021 9:15:00 PM 8.77 47.786 0.031 6.62 2.99 11.22
5/7/2021 9:30:00 PM 8.75 47.75 0.031 6.61 2.89 11.21
5/7/2021 9:45:00 PM 8.74 47.732 0.031 6.62 2.95 11.23
5/7/2021 10:00:00 PM 8.72 47.696 0.031 6.62 3.05 11.24
5/7/2021 10:15:00 PM 8.69 47.642 0.031 6.61 2.97 11.25
5/7/2021 10:30:00 PM 8.67 47.606 0.031 6.61 3.13 11.24
5/7/2021 10:45:00 PM 8.65 47.57 0.031 6.6 3.22 11.26
5/7/2021 11:00:00 PM 8.62 47.516 0.031 6.61 3.13 11.27
5/7/2021 11:15:00 PM 8.6 47.48 0.031 6.61 3.08 11.27
5/7/2021 11:30:00 PM 8.58 47.444 0.031 6.62 2.91 11.27
5/7/2021 11:45:00 PM 8.56 47.408 0.031 6.61 2.79 11.26
5/8/2021 12:00:00 AM 8.54 47.372 0.031 6.61 2.73 11.28
5/8/2021 12:15:00 AM 8.52 47.336 0.031 6.61 2.75 11.29
5/8/2021 12:30:00 AM 8.5 47.3 0.031 6.61 2.67 11.28
5/8/2021 12:45:00 AM 8.48 47.264 0.031 6.61 2.62 11.29
5/8/2021 1:00:00 AM 8.45 47.21 0.031 6.61 2.6 11.31
5/8/2021 1:15:00 AM 8.42 47.156 0.031 6.6 2.53 11.31
5/8/2021 1:30:00 AM 8.4 47.12 0.031 6.61 2.47 11.31
5/8/2021 1:45:00 AM 8.37 47.066 0.031 6.61 2.48 11.33
5/8/2021 2:00:00 AM 8.35 47.03 0.031 6.6 2.44 11.32
5/8/2021 2:15:00 AM 8.32 46.976 0.031 6.61 2.53 11.34
5/8/2021 2:30:00 AM 8.29 46.922 0.031 6.61 2.39 11.34
5/8/2021 2:45:00 AM 8.26 46.868 0.031 6.61 2.4 11.35
5/8/2021 3:00:00 AM 8.23 46.814 0.031 6.6 2.41 11.36
5/8/2021 3:15:00 AM 8.22 46.796 0.031 6.61 2.65 11.36
5/8/2021 3:30:00 AM 8.19 46.742 0.031 6.6 2.45 11.37
5/8/2021 3:45:00 AM 8.15 46.67 0.031 6.61 2.45 11.38
5/8/2021 4:00:00 AM 8.12 46.616 0.031 6.61 2.47 11.39
5/8/2021 4:15:00 AM 8.09 46.562 0.031 6.6 2.41 11.4
5/8/2021 4:30:00 AM 8.06 46.508 0.031 6.61 2.34 11.41
5/8/2021 4:45:00 AM 8.03 46.454 0.031 6.61 2.33 11.43
5/8/2021 5:00:00 AM 8 46.4 0.031 6.6 2.29 11.42
5/8/2021 5:15:00 AM 7.98 46.364 0.031 6.59 2.48 11.43
5/8/2021 5:30:00 AM 7.95 46.31 0.031 6.61 2.32 11.45
5/8/2021 5:45:00 AM 7.93 46.274 0.031 6.6 2.45 11.44
5/8/2021 6:00:00 AM 7.91 46.238 0.031 6.6 2.36 11.45
5/8/2021 6:15:00 AM 7.89 46.202 0.031 6.61 2.31 11.46
5/8/2021 6:30:00 AM 7.87 46.166 0.031 6.6 2.23 11.48
5/8/2021 6:45:00 AM 7.85 46.13 0.031 6.61 2.27 11.51
5/8/2021 7:00:00 AM -99999.99 -179968 -99999.99 -99999.99 -99999.99 -99999.99
5/8/2021 7:15:00 AM -99999.99 -179968 -99999.99 -99999.99 -99999.99 -99999.99
5/8/2021 7:30:00 AM -99999.99 -179968 -99999.99 -99999.99 -99999.99 -99999.99
5/8/2021 7:45:00 AM -99999.99 -179968 -99999.99 -99999.99 -99999.99 -99999.99
5/8/2021 8:00:00 AM -99999.99 -179968 -99999.99 -99999.99 -99999.99 -99999.99
5/8/2021 8:15:00 AM -99999.99 -179968 -99999.99 -99999.99 -99999.99 -99999.99
5/8/2021 8:30:00 AM -99999.99 -179968 -99999.99 -99999.99 -99999.99 -99999.99
5/8/2021 8:45:00 AM -99999.99 -179968 -99999.99 -99999.99 -99999.99 -99999.99
5/8/2021 9:00:00 AM -99999.99 -179968 -99999.99 -99999.99 -99999.99 -99999.99
5/8/2021 9:15:00 AM -99999.99 -179968 -99999.99 -99999.99 -99999.99 -99999.99
5/8/2021 9:30:00 AM -99999.99 -179968 -99999.99 -99999.99 -99999.99 -99999.99
5/8/2021 9:45:00 AM -99999.99 -179968 -99999.99 -99999.99 -99999.99 -99999.99
5/8/2021 10:00:00 AM -99999.99 -179968 -99999.99 -99999.99 -99999.99 -99999.99
5/8/2021 10:15:00 AM -99999.99 -179968 -99999.99 -99999.99 -99999.99 -99999.99
5/8/2021 10:30:00 AM -99999.99 -179968 -99999.99 -99999.99 -99999.99 -99999.99
5/8/2021 10:45:00 AM -99999.99 -179968 -99999.99 -99999.99 -99999.99 -99999.99
5/8/2021 11:00:00 AM -99999.99 -179968 -99999.99 -99999.99 -99999.99 -99999.99
5/8/2021 11:15:00 AM -99999.99 -179968 -99999.99 -99999.99 -99999.99 -99999.99
5/8/2021 11:30:00 AM -99999.99 -179968 -99999.99 -99999.99 -99999.99 -99999.99
5/8/2021 11:45:00 AM -99999.99 -179968 -99999.99 -99999.99 -99999.99 -99999.99
5/8/2021 12:00:00 PM -99999.99 -179968 -99999.99 -99999.99 -99999.99 -99999.99
5/8/2021 12:15:00 PM -99999.99 -179968 -99999.99 -99999.99 -99999.99 -99999.99
5/8/2021 12:30:00 PM -99999.99 -179968 -99999.99 -99999.99 -99999.99 -99999.99
5/8/2021 12:45:00 PM -99999.99 -179968 -99999.99 -99999.99 -99999.99 -99999.99
5/8/2021 1:00:00 PM -99999.99 -179968 -99999.99 -99999.99 -99999.99 -99999.99
5/8/2021 1:15:00 PM -99999.99 -179968 -99999.99 -99999.99 -99999.99 -99999.99
5/8/2021 1:30:00 PM -99999.99 -179968 -99999.99 -99999.99 -99999.99 -99999.99
5/8/2021 1:45:00 PM -99999.99 -179968 -99999.99 -99999.99 -99999.99 -99999.99
5/8/2021 2:00:00 PM -99999.99 -179968 -99999.99 -99999.99 -99999.99 -99999.99
5/8/2021 2:15:00 PM -99999.99 -179968 -99999.99 -99999.99 -99999.99 -99999.99
5/8/2021 2:30:00 PM -99999.99 -179968 -99999.99 -99999.99 -99999.99 -99999.99
5/8/2021 2:45:00 PM -99999.99 -179968 -99999.99 -99999.99 -99999.99 -99999.99
5/8/2021 3:00:00 PM -99999.99 -179968 -99999.99 -99999.99 -99999.99 -99999.99
5/8/2021 3:15:00 PM -99999.99 -179968 -99999.99 -99999.99 -99999.99 -99999.99
5/8/2021 3:30:00 PM -99999.99 -179968 -99999.99 -99999.99 -99999.99 -99999.99
5/8/2021 3:45:00 PM -99999.99 -179968 -99999.99 -99999.99 -99999.99 -99999.99
5/8/2021 4:00:00 PM -99999.99 -179968 -99999.99 -99999.99 -99999.99 -99999.99
5/8/2021 4:15:00 PM -99999.99 -179968 -99999.99 -99999.99 -99999.99 -99999.99
5/8/2021 4:30:00 PM -99999.99 -179968 -99999.99 -99999.99 -99999.99 -99999.99
5/8/2021 4:45:00 PM -99999.99 -179968 -99999.99 -99999.99 -99999.99 -99999.99
5/8/2021 5:00:00 PM -99999.99 -179968 -99999.99 -99999.99 -99999.99 -99999.99
5/8/2021 5:15:00 PM 9.33 48.794 0.03 6.7 2.36 11.4
5/8/2021 5:30:00 PM 9.36 48.848 0.03 6.7 2.33 11.37
5/8/2021 5:45:00 PM 9.35 48.83 0.03 6.7 2.27 11.34
5/8/2021 6:00:00 PM 9.39 48.902 0.03 6.7 2.31 11.34
5/8/2021 6:15:00 PM 9.38 48.884 0.03 6.69 2.13 11.32
5/8/2021 6:30:00 PM 9.33 48.794 0.03 6.69 2.32 11.29
5/8/2021 6:45:00 PM 9.28 48.704 0.03 6.68 2.33 11.29
5/8/2021 7:00:00 PM 9.21 48.578 0.03 6.66 2.21 11.28
5/8/2021 7:15:00 PM 9.18 48.524 0.03 6.65 2.3 11.25
5/8/2021 7:30:00 PM 9.14 48.452 0.03 6.65 2.31 11.25
5/8/2021 7:45:00 PM 9.09 48.362 0.03 6.64 2.25 11.24
5/8/2021 8:00:00 PM 9.03 48.254 0.031 6.63 2.21 11.24
5/8/2021 8:15:00 PM 8.97 48.146 0.031 6.62 2.38 11.24
5/8/2021 8:30:00 PM 8.91 48.038 0.031 6.61 2.31 11.23
5/8/2021 8:45:00 PM 8.86 47.948 0.031 6.61 2.3 11.24
5/8/2021 9:00:00 PM 8.8 47.84 0.031 6.6 2.4 11.25
5/8/2021 9:15:00 PM 8.74 47.732 0.031 6.59 2.31 11.26
5/8/2021 9:30:00 PM 8.7 47.66 0.031 6.59 2.3 11.28
5/8/2021 9:45:00 PM 8.65 47.57 0.031 6.59 2.28 11.3
5/8/2021 10:00:00 PM 8.6 47.48 0.031 6.59 2.27 11.31
5/8/2021 10:15:00 PM 8.56 47.408 0.031 6.59 2.2 11.33
5/8/2021 10:30:00 PM 8.5 47.3 0.031 6.58 2.23 11.35
5/8/2021 10:45:00 PM 8.44 47.192 0.031 6.58 2.53 11.36
5/8/2021 11:00:00 PM 8.39 47.102 0.031 6.6 2.27 11.38
5/8/2021 11:15:00 PM 8.34 47.012 0.031 6.59 2.23 11.39
5/8/2021 11:30:00 PM 8.3 46.94 0.031 6.59 2.21 11.4
5/8/2021 11:45:00 PM 8.25 46.85 0.031 6.58 2.25 11.43
5/9/2021 12:00:00 AM 8.19 46.742 0.031 6.59 2.33 11.44
5/9/2021 12:15:00 AM 8.14 46.652 0.031 6.58 2.18 11.46
5/9/2021 12:30:00 AM 8.08 46.544 0.031 6.59 2.23 11.46
5/9/2021 12:45:00 AM 8.03 46.454 0.031 6.57 2.31 11.47
5/9/2021 1:00:00 AM 7.97 46.346 0.031 6.57 2.22 11.5
5/9/2021 1:15:00 AM 7.92 46.256 0.031 6.58 2.1 11.52
5/9/2021 1:30:00 AM 7.87 46.166 0.031 6.59 2.22 11.53
5/9/2021 1:45:00 AM 7.82 46.076 0.031 6.58 2.18 11.54
5/9/2021 2:00:00 AM 7.77 45.986 0.031 6.58 2.19 11.56
5/9/2021 2:15:00 AM 7.72 45.896 0.031 6.58 2.17 11.57
5/9/2021 2:30:00 AM 7.67 45.806 0.031 6.58 2.09 11.59
5/9/2021 2:45:00 AM 7.63 45.734 0.031 6.59 2.2 11.6
5/9/2021 3:00:00 AM 7.59 45.662 0.031 6.59 2.2 11.61
5/9/2021 3:15:00 AM 7.55 45.59 0.031 6.58 2.1 11.63
5/9/2021 3:30:00 AM 7.51 45.518 0.031 6.59 3.36 11.64
5/9/2021 3:45:00 AM 7.47 45.446 0.031 6.58 2.21 11.66
5/9/2021 4:00:00 AM 7.44 45.392 0.031 6.58 2.17 11.67
5/9/2021 4:15:00 AM 7.4 45.32 0.031 6.58 2.16 11.68
5/9/2021 4:30:00 AM 7.37 45.266 0.031 6.59 2.2 11.69
5/9/2021 4:45:00 AM 7.34 45.212 0.031 6.58 2.27 11.7
5/9/2021 5:00:00 AM 7.3 45.14 0.031 6.57 2.22 11.7
5/9/2021 5:15:00 AM 7.27 45.086 0.031 6.58 2.22 11.73
5/9/2021 5:30:00 AM 7.24 45.032 0.031 6.58 2.2 11.74
5/9/2021 5:45:00 AM 7.21 44.978 0.031 6.57 2.51 11.74
5/9/2021 6:00:00 AM 7.18 44.924 0.031 6.57 2.14 11.76
5/9/2021 6:15:00 AM 7.16 44.888 0.031 6.58 2.06 11.76
5/9/2021 6:30:00 AM 7.13 44.834 0.031 6.59 2.15 11.8
5/9/2021 6:45:00 AM 7.11 44.798 0.031 6.59 2.11 11.82
5/9/2021 7:00:00 AM 7.09 44.762 0.031 6.6 3.49 11.85
5/9/2021 7:15:00 AM 7.08 44.744 0.031 6.59 2.12 11.87
5/9/2021 7:30:00 AM 7.07 44.726 0.031 6.61 2.25 11.91
5/9/2021 7:45:00 AM 7.07 44.726 0.031 6.62 2.1 11.93
5/9/2021 8:00:00 AM 7.09 44.762 0.031 6.63 2.16 11.98
5/9/2021 8:15:00 AM 7.11 44.798 0.031 6.64 2.12 11.99
5/9/2021 8:30:00 AM 7.15 44.87 0.031 6.64 2.07 12
5/9/2021 8:45:00 AM 7.18 44.924 0.031 6.67 2.11 12.01
5/9/2021 9:00:00 AM 7.22 44.996 0.031 6.65 2.08 12.01
5/9/2021 9:15:00 AM 7.28 45.104 0.031 6.66 2.21 12
5/9/2021 9:30:00 AM 7.33 45.194 0.031 6.66 2.07 11.98
5/9/2021 9:45:00 AM 7.37 45.266 0.031 6.67 1.98 11.96
5/9/2021 10:00:00 AM 7.4 45.32 0.031 6.67 4.68 11.95
5/9/2021 10:15:00 AM 7.43 45.374 0.031 6.66 2 11.93
5/9/2021 10:30:00 AM 7.47 45.446 0.031 6.67 2.08 11.92
5/9/2021 10:45:00 AM 7.51 45.518 0.031 6.66 2.35 11.91
5/9/2021 11:00:00 AM 7.56 45.608 0.031 6.68 2.25 11.89
5/9/2021 11:15:00 AM 7.6 45.68 0.031 6.68 3.95 11.88
5/9/2021 11:30:00 AM 7.63 45.734 0.03 6.68 2.65 11.86
5/9/2021 11:45:00 AM 7.64 45.752 0.03 6.68 1.99 11.83
5/9/2021 12:00:00 PM 7.65 45.77 0.03 6.67 1.9 11.81
5/9/2021 12:15:00 PM 7.65 45.77 0.03 6.66 2.07 11.8
5/9/2021 12:30:00 PM 7.65 45.77 0.03 6.67 3.87 11.8
5/9/2021 12:45:00 PM 7.63 45.734 0.03 6.65 2.09 11.78
5/9/2021 1:00:00 PM 7.62 45.716 0.03 6.65 2.08 11.77
5/9/2021 1:15:00 PM 7.6 45.68 0.03 6.65 2.2 11.76
5/9/2021 1:30:00 PM 7.57 45.626 0.03 6.64 3.05 11.77
5/9/2021 1:45:00 PM 7.56 45.608 0.03 6.65 2.42 11.77
5/9/2021 2:00:00 PM 7.53 45.554 0.03 6.66 2.74 11.79
5/9/2021 2:15:00 PM 7.5 45.5 0.03 6.65 3.04 11.79
5/9/2021 2:30:00 PM 7.47 45.446 0.03 6.65 7.77 11.79
5/9/2021 2:45:00 PM 7.43 45.374 0.03 6.65 4.46 11.77
5/9/2021 3:00:00 PM 7.31 45.158 0.03 6.65 4.42 11.77
5/9/2021 3:15:00 PM 7.16 44.888 0.03 6.64 4.36 11.78
5/9/2021 3:30:00 PM 7.04 44.672 0.03 6.64 5 11.82
5/9/2021 3:45:00 PM 7.01 44.618 0.03 6.66 5.93 11.86
5/9/2021 4:00:00 PM 6.99 44.582 0.03 6.65 5.2 11.87
5/9/2021 4:15:00 PM 6.94 44.492 0.03 6.65 5.84 11.89
5/9/2021 4:30:00 PM 6.91 44.438 0.03 6.65 7.33 11.88
5/9/2021 4:45:00 PM 6.89 44.402 0.03 6.64 5.93 11.87
5/9/2021 5:00:00 PM 6.87 44.366 0.03 6.63 8.39 11.87
5/9/2021 5:15:00 PM 6.85 44.33 0.03 6.63 7.58 11.87
5/9/2021 5:30:00 PM 6.86 44.348 0.03 6.63 7.77 11.87
5/9/2021 5:45:00 PM 6.86 44.348 0.03 6.62 9.19 11.86
5/9/2021 6:00:00 PM 6.86 44.348 0.03 6.62 10.17 11.85
5/9/2021 6:15:00 PM 6.87 44.366 0.03 6.61 12.55 11.85
5/9/2021 6:30:00 PM 6.88 44.384 0.03 6.61 13.62 11.84
5/9/2021 6:45:00 PM 6.87 44.366 0.03 6.6 14.66 11.83
5/9/2021 7:00:00 PM 6.86 44.348 0.03 6.58 15.05 11.83
5/9/2021 7:15:00 PM 6.86 44.348 0.029 6.58 19.19 11.83
5/9/2021 7:30:00 PM 6.85 44.33 0.029 6.58 22.91 11.84
5/9/2021 7:45:00 PM 6.85 44.33 0.029 6.56 33.35 11.84
5/9/2021 8:00:00 PM 6.85 44.33 0.029 6.55 31.77 11.84
5/9/2021 8:15:00 PM 6.86 44.348 0.028 6.54 34.58 11.84
5/9/2021 8:30:00 PM 6.86 44.348 0.028 6.52 56.97 11.85
5/9/2021 8:45:00 PM 6.87 44.366 0.028 6.51 31.99 11.84
5/9/2021 9:00:00 PM 6.87 44.366 0.028 6.49 40.87 11.85
5/9/2021 9:15:00 PM 6.88 44.384 0.027 6.44 35.9 11.85
5/9/2021 9:30:00 PM 6.89 44.402 0.027 6.44 52.82 11.85
5/9/2021 9:45:00 PM 6.91 44.438 0.027 6.42 40.66 11.85
5/9/2021 10:00:00 PM 6.93 44.474 0.027 6.42 42.25 11.85
5/9/2021 10:15:00 PM 6.94 44.492 0.027 6.4 42.69 11.85
5/9/2021 10:30:00 PM 6.95 44.51 0.026 6.4 36.18 11.85
5/9/2021 10:45:00 PM 6.97 44.546 0.026 6.36 39.44 11.85
5/9/2021 11:00:00 PM 6.98 44.564 0.026 6.37 49.88 11.85
5/9/2021 11:15:00 PM 6.99 44.582 0.026 6.36 38.26 11.84
5/9/2021 11:30:00 PM 7.01 44.618 0.026 6.34 33.67 11.82
5/9/2021 11:45:00 PM 7.02 44.636 0.026 6.34 42.51 11.83
5/10/2021 12:00:00 AM 7.04 44.672 0.025 6.32 33.78 11.83
5/10/2021 12:15:00 AM 7.05 44.69 0.025 6.34 55.9 11.82
5/10/2021 12:30:00 AM 7.07 44.726 0.025 6.32 37.71 11.82
5/10/2021 12:45:00 AM 7.08 44.744 0.025 6.3 45.06 11.81
5/10/2021 1:00:00 AM 7.09 44.762 0.025 6.28 47.93 11.81
5/10/2021 1:15:00 AM 7.11 44.798 0.025 6.32 31.81 11.82
5/10/2021 1:30:00 AM 7.12 44.816 0.025 6.3 31.61 11.82
5/10/2021 1:45:00 AM 7.13 44.834 0.025 6.29 33.65 11.82
5/10/2021 2:00:00 AM 7.14 44.852 0.025 6.29 32.95 11.81
5/10/2021 2:15:00 AM 7.15 44.87 0.025 6.28 31.31 11.81
5/10/2021 2:30:00 AM 7.15 44.87 0.025 6.28 32.68 11.81
5/10/2021 2:45:00 AM 7.16 44.888 0.025 6.27 34.13 11.81
5/10/2021 3:00:00 AM 7.17 44.906 0.025 6.27 20.32 11.81
5/10/2021 3:15:00 AM 7.17 44.906 0.026 6.28 26.98 11.81
5/10/2021 3:30:00 AM 7.18 44.924 0.026 6.28 24.56 11.8
5/10/2021 3:45:00 AM 7.18 44.924 0.026 6.29 24.48 11.81
5/10/2021 4:00:00 AM 7.19 44.942 0.026 6.29 24.48 11.81
5/10/2021 4:15:00 AM 7.19 44.942 0.026 6.3 23.39 11.81
5/10/2021 4:30:00 AM 7.2 44.96 0.026 6.27 21.23 11.81
5/10/2021 4:45:00 AM 7.21 44.978 0.026 6.3 23.28 11.82
5/10/2021 5:00:00 AM 7.21 44.978 0.026 6.29 19.52 11.82
5/10/2021 5:15:00 AM 7.22 44.996 0.026 6.3 19.9 11.82
5/10/2021 5:30:00 AM 7.23 45.014 0.026 6.31 20.02 11.82
5/10/2021 5:45:00 AM 7.23 45.014 0.026 6.29 17.28 11.82
5/10/2021 6:00:00 AM 7.24 45.032 0.026 6.3 17.63 11.82
5/10/2021 6:15:00 AM 7.24 45.032 0.027 6.29 18.22 11.81
5/10/2021 6:30:00 AM 7.25 45.05 0.027 6.32 17.45 11.82
5/10/2021 6:45:00 AM 7.26 45.068 0.027 6.31 16.85 11.81
5/10/2021 7:00:00 AM 7.27 45.086 0.027 6.31 16.85 11.82
5/10/2021 7:15:00 AM 7.28 45.104 0.027 6.32 15.88 11.82
5/10/2021 7:30:00 AM 7.29 45.122 0.027 6.33 15.46 11.83
5/10/2021 7:45:00 AM 7.31 45.158 0.027 6.32 15.11 11.84
5/10/2021 8:00:00 AM 7.35 45.23 0.027 6.35 15.38 11.84
5/10/2021 8:15:00 AM 7.38 45.284 0.027 6.33 14.94 11.84
5/10/2021 8:30:00 AM 7.41 45.338 0.027 6.33 15.76 11.84
5/10/2021 8:45:00 AM 7.45 45.41 0.027 6.34 13.99 11.83
5/10/2021 9:00:00 AM 7.51 45.518 0.027 6.34 13.98 11.82
5/10/2021 9:15:00 AM 7.53 45.554 0.027 6.32 11.9 11.81
5/10/2021 9:30:00 AM 7.61 45.698 0.027 6.35 13.02 11.8
5/10/2021 9:45:00 AM 7.67 45.806 0.027 6.35 14.16 11.79
5/10/2021 10:00:00 AM 7.73 45.914 0.027 6.34 13.89 11.78
5/10/2021 10:15:00 AM 7.8 46.04 0.027 6.36 14 11.77
5/10/2021 10:30:00 AM 7.89 46.202 0.027 6.33 13.36 11.75
5/10/2021 10:45:00 AM 8.01 46.418 0.027 6.35 13.19 11.72
5/10/2021 11:00:00 AM 8.15 46.67 0.027 6.36 13.1 11.69
5/10/2021 11:15:00 AM 8.22 46.796 0.027 6.34 13.04 11.66
5/10/2021 11:30:00 AM 8.3 46.94 0.027 6.36 12.44 11.64
5/10/2021 11:45:00 AM 8.38 47.084 0.027 6.35 12.33 11.62
5/10/2021 12:00:00 PM 8.41 47.138 0.027 6.35 11.81 11.59
5/10/2021 12:15:00 PM 8.45 47.21 0.027 6.35 12.31 11.57
5/10/2021 12:30:00 PM 8.53 47.354 0.027 6.37 11.45 11.56
5/10/2021 12:45:00 PM 8.64 47.552 0.027 6.38 11.55 11.54
5/10/2021 1:00:00 PM 8.77 47.786 0.027 6.38 11.49 11.51
5/10/2021 1:15:00 PM 8.83 47.894 0.027 6.38 11.62 11.48
5/10/2021 1:30:00 PM 8.89 48.002 0.027 6.38 11.07 11.48
5/10/2021 1:45:00 PM 8.84 47.912 0.028 6.36 10.67 11.47
5/10/2021 2:00:00 PM 8.94 48.092 0.028 6.36 10.4 11.46
5/10/2021 2:15:00 PM 9 48.2 0.028 6.38 10.59 11.42
5/10/2021 2:30:00 PM 9.06 48.308 0.028 6.38 10.52 11.41
5/10/2021 2:45:00 PM 9.12 48.416 0.028 6.39 9.89 11.4
5/10/2021 3:00:00 PM 9.09 48.362 0.028 6.38 9.78 11.4
5/10/2021 3:15:00 PM 9.12 48.416 0.028 6.37 9.77 11.39
5/10/2021 3:30:00 PM 9.17 48.506 0.028 6.39 10 11.37
5/10/2021 3:45:00 PM 9.16 48.488 0.028 6.38 9.79 11.36
5/10/2021 4:00:00 PM 9.18 48.524 0.028 6.38 9.54 11.36
5/10/2021 4:15:00 PM 9.2 48.56 0.028 6.4 9.25 11.34
5/10/2021 4:30:00 PM 9.24 48.632 0.028 6.38 9.11 11.35
5/10/2021 4:45:00 PM 9.29 48.722 0.028 6.39 9.83 11.35
5/10/2021 5:00:00 PM 9.29 48.722 0.028 6.39 8.8 11.34
5/10/2021 5:15:00 PM 9.28 48.704 0.028 6.37 8.87 11.33
5/10/2021 5:30:00 PM 9.27 48.686 0.028 6.38 8.52 11.33
5/10/2021 5:45:00 PM 9.23 48.614 0.028 6.39 8.67 11.33
5/10/2021 6:00:00 PM 9.2 48.56 0.028 6.39 8.49 11.34
5/10/2021 6:15:00 PM 9.17 48.506 0.028 6.38 8.21 11.34
5/10/2021 6:30:00 PM 9.14 48.452 0.028 6.39 8.27 11.34
5/10/2021 6:45:00 PM 9.1 48.38 0.028 6.39 8.03 11.34
5/10/2021 7:00:00 PM 9.05 48.29 0.028 6.36 8.04 11.34
5/10/2021 7:15:00 PM 9 48.2 0.028 6.38 7.79 11.35
5/10/2021 7:30:00 PM 8.96 48.128 0.028 6.37 7.55 11.36
5/10/2021 7:45:00 PM 8.91 48.038 0.028 6.38 7.76 11.37
5/10/2021 8:00:00 PM 8.87 47.966 0.028 6.36 7.74 11.37
5/10/2021 8:15:00 PM 8.83 47.894 0.028 6.35 7.53 11.38
5/10/2021 8:30:00 PM 8.78 47.804 0.028 6.36 7.24 11.38
5/10/2021 8:45:00 PM 8.73 47.714 0.028 6.36 7.47 11.4
5/10/2021 9:00:00 PM 8.69 47.642 0.028 6.36 7.3 11.41
5/10/2021 9:15:00 PM 8.64 47.552 0.028 6.35 7.33 11.43
5/10/2021 9:30:00 PM 8.59 47.462 0.028 6.37 7.25 11.45
5/10/2021 9:45:00 PM 8.55 47.39 0.028 6.36 6.95 11.46
5/10/2021 10:00:00 PM 8.5 47.3 0.028 6.35 7.18 11.47
5/10/2021 10:15:00 PM 8.46 47.228 0.028 6.38 7.06 11.49
5/10/2021 10:30:00 PM 8.41 47.138 0.028 6.37 6.97 11.5
5/10/2021 10:45:00 PM 8.37 47.066 0.028 6.36 6.66 11.52
5/10/2021 11:00:00 PM 8.33 46.994 0.028 6.36 6.92 11.53
5/10/2021 11:15:00 PM 8.28 46.904 0.028 6.35 6.66 11.54
5/10/2021 11:30:00 PM 8.24 46.832 0.028 6.34 6.66 11.56
5/10/2021 11:45:00 PM 8.2 46.76 0.028 6.34 6.46 11.56
5/11/2021 12:00:00 AM 8.15 46.67 0.028 6.36 6.73 11.57
5/11/2021 12:15:00 AM 8.11 46.598 0.028 6.35 6.87 11.59
5/11/2021 12:30:00 AM 8.07 46.526 0.028 6.34 6.47 11.6
5/11/2021 12:45:00 AM 8.03 46.454 0.028 6.35 6.43 11.61
5/11/2021 1:00:00 AM 7.99 46.382 0.028 6.34 6.51 11.63
5/11/2021 1:15:00 AM 7.95 46.31 0.028 6.34 6.45 11.64
5/11/2021 1:30:00 AM 7.92 46.256 0.028 6.35 6.1 11.65
5/11/2021 1:45:00 AM 7.88 46.184 0.028 6.35 6.2 11.66
5/11/2021 2:00:00 AM 7.86 46.148 0.028 6.34 5.87 11.67
5/11/2021 2:15:00 AM 7.83 46.094 0.028 6.36 5.92 11.67
5/11/2021 2:30:00 AM 7.8 46.04 0.028 6.35 6.12 11.69
5/11/2021 2:45:00 AM 7.78 46.004 0.028 6.35 5.77 11.69
5/11/2021 3:00:00 AM 7.75 45.95 0.028 6.36 5.74 11.7
5/11/2021 3:15:00 AM 7.73 45.914 0.028 6.35 5.9 11.71
5/11/2021 3:30:00 AM 7.71 45.878 0.028 6.37 5.75 11.71
5/11/2021 3:45:00 AM 7.69 45.842 0.028 6.34 5.89 11.72
5/11/2021 4:00:00 AM 7.67 45.806 0.028 6.35 5.93 11.73
5/11/2021 4:15:00 AM 7.65 45.77 0.028 6.36 5.79 11.74
5/11/2021 4:30:00 AM 7.62 45.716 0.028 6.37 5.57 11.74
5/11/2021 4:45:00 AM 7.59 45.662 0.028 6.36 5.65 11.75
5/11/2021 5:00:00 AM 7.56 45.608 0.028 6.35 5.62 11.76
5/11/2021 5:15:00 AM 7.53 45.554 0.028 6.36 5.48 11.77
5/11/2021 5:30:00 AM 7.5 45.5 0.028 6.36 5.35 11.78
5/11/2021 5:45:00 AM 7.47 45.446 0.028 6.37 5.41 11.79
5/11/2021 6:00:00 AM 7.44 45.392 0.028 6.38 5.4 11.8
5/11/2021 6:15:00 AM 7.41 45.338 0.028 6.35 5.17 11.81
5/11/2021 6:30:00 AM 7.38 45.284 0.028 6.37 5.42 11.83
5/11/2021 6:45:00 AM 7.36 45.248 0.028 6.38 5.09 11.84
5/11/2021 7:00:00 AM 7.35 45.23 0.028 6.37 5.02 11.86
5/11/2021 7:15:00 AM 7.34 45.212 0.028 6.37 5.15 11.87
5/11/2021 7:30:00 AM 7.34 45.212 0.028 6.38 5.04 11.89
5/11/2021 7:45:00 AM 7.34 45.212 0.028 6.4 4.86 11.89
5/11/2021 8:00:00 AM 7.34 45.212 0.028 6.39 4.87 11.9
5/11/2021 8:15:00 AM 7.36 45.248 0.028 6.39 4.8 11.9
5/11/2021 8:30:00 AM 7.39 45.302 0.027 6.4 4.68 11.9
5/11/2021 8:45:00 AM 7.42 45.356 0.027 6.4 4.76 11.89
5/11/2021 9:00:00 AM 7.46 45.428 0.027 6.4 4.57 11.88
5/11/2021 9:15:00 AM 7.52 45.536 0.027 6.41 4.48 11.87
5/11/2021 9:30:00 AM 7.6 45.68 0.027 6.41 4.87 11.86
5/11/2021 9:45:00 AM 7.66 45.788 0.027 6.41 4.66 11.84
5/11/2021 10:00:00 AM 7.74 45.932 0.027 6.41 4.45 11.81
5/11/2021 10:15:00 AM 7.81 46.058 0.027 6.41 4.64 11.8
5/11/2021 10:30:00 AM 7.85 46.13 0.027 6.42 4.38 11.78
5/11/2021 10:45:00 AM 7.88 46.184 0.027 6.41 4.42 11.75
5/11/2021 11:00:00 AM 7.98 46.364 0.027 6.42 4.5 11.74
5/11/2021 11:15:00 AM 8.05 46.49 0.027 6.42 4.45 11.72
5/11/2021 11:30:00 AM 8.14 46.652 0.027 6.43 5.35 11.71
5/11/2021 11:45:00 AM 8.3 46.94 0.027 6.43 4.56 11.69
5/11/2021 12:00:00 PM 8.35 47.03 0.027 6.42 4.39 11.65
5/11/2021 12:15:00 PM 8.39 47.102 0.027 6.41 4.42 11.63
5/11/2021 12:30:00 PM 8.61 47.498 0.027 6.42 4.33 11.6
5/11/2021 12:45:00 PM 8.77 47.786 0.027 6.42 4.42 11.55
5/11/2021 1:00:00 PM 8.88 47.984 0.027 6.41 4.48 11.51
5/11/2021 1:15:00 PM 9.08 48.344 0.027 6.4 4.33 11.48
5/11/2021 1:30:00 PM 9.1 48.38 0.027 6.42 4.37 11.44
5/11/2021 1:45:00 PM 9.29 48.722 0.027 6.43 4.32 11.42
5/11/2021 2:00:00 PM 9.32 48.776 0.027 6.42 4.22 11.37
5/11/2021 2:15:00 PM 9.44 48.992 0.027 6.42 4.25 11.36
5/11/2021 2:30:00 PM 9.44 48.992 0.027 6.44 4.19 11.34
5/11/2021 2:45:00 PM 9.5 49.1 0.027 6.43 4.16 11.31
5/11/2021 3:00:00 PM 9.59 49.262 0.027 6.43 4.34 11.3
5/11/2021 3:15:00 PM 9.65 49.37 0.027 6.43 4.22 11.29
5/11/2021 3:30:00 PM 9.65 49.37 0.027 6.44 4.15 11.29
5/11/2021 3:45:00 PM 9.61 49.298 0.027 6.44 4.4 11.28
5/11/2021 4:00:00 PM 9.59 49.262 0.027 6.45 4.28 11.28
5/11/2021 4:15:00 PM 9.58 49.244 0.027 6.43 4.12 11.27
5/11/2021 4:30:00 PM 9.59 49.262 0.027 6.42 4.78 11.29
5/11/2021 4:45:00 PM 9.54 49.172 0.027 6.43 4.59 11.28
5/11/2021 5:00:00 PM 9.51 49.118 0.027 6.44 4.26 11.29
5/11/2021 5:15:00 PM 9.46 49.028 0.027 6.42 4.38 11.29
5/11/2021 5:30:00 PM 9.44 48.992 0.027 6.43 4.39 11.3
5/11/2021 5:45:00 PM 9.44 48.992 0.027 6.43 4.03 11.31
5/11/2021 6:00:00 PM 9.41 48.938 0.027 6.45 4.07 11.32
5/11/2021 6:15:00 PM 9.35 48.83 0.027 6.43 4.11 11.32
5/11/2021 6:30:00 PM 9.3 48.74 0.027 6.43 4.12 11.34
5/11/2021 6:45:00 PM 9.22 48.596 0.027 6.43 4.04 11.34
5/11/2021 7:00:00 PM 9.15 48.47 0.027 6.43 4.03 11.35
5/11/2021 7:15:00 PM 9.08 48.344 0.027 6.42 3.94 11.37
5/11/2021 7:30:00 PM 9.02 48.236 0.027 6.43 4.15 11.38
5/11/2021 7:45:00 PM 8.97 48.146 0.027 6.44 4.25 11.39
5/11/2021 8:00:00 PM 8.9 48.02 0.027 6.43 4.18 11.4
5/11/2021 8:15:00 PM 8.85 47.93 0.027 6.44 3.9 11.41
5/11/2021 8:30:00 PM 8.79 47.822 0.027 6.43 4.33 11.42
5/11/2021 8:45:00 PM 8.73 47.714 0.027 6.43 4.35 11.43
5/11/2021 9:00:00 PM 8.67 47.606 0.028 6.43 4.19 11.45
5/11/2021 9:15:00 PM 8.61 47.498 0.028 6.42 4.09 11.47
5/11/2021 9:30:00 PM 8.54 47.372 0.028 6.42 4.23 11.49
5/11/2021 9:45:00 PM 8.48 47.264 0.028 6.41 4.09 11.51
5/11/2021 10:00:00 PM 8.42 47.156 0.028 6.43 4.13 11.53
5/11/2021 10:15:00 PM 8.35 47.03 0.028 6.43 3.9 11.55
5/11/2021 10:30:00 PM 8.28 46.904 0.028 6.43 4.07 11.57
5/11/2021 10:45:00 PM 8.21 46.778 0.028 6.43 4.26 11.59
5/11/2021 11:00:00 PM 8.14 46.652 0.028 6.43 4.14 11.61
5/11/2021 11:15:00 PM 8.07 46.526 0.028 6.43 3.95 11.63
5/11/2021 11:30:00 PM 8.01 46.418 0.028 6.42 3.9 11.65
5/11/2021 11:45:00 PM 7.94 46.292 0.028 6.43 3.93 11.67
5/12/2021 12:00:00 AM 7.88 46.184 0.028 6.42 3.98 11.69
5/12/2021 12:15:00 AM 7.82 46.076 0.028 6.43 4.11 11.71
5/12/2021 12:30:00 AM 7.77 45.986 0.028 6.43 3.94 11.73
5/12/2021 12:45:00 AM 7.72 45.896 0.028 6.43 4.02 11.74
5/12/2021 1:00:00 AM 7.68 45.824 0.028 6.41 4.11 11.76
5/12/2021 1:15:00 AM 7.63 45.734 0.028 6.43 3.99 11.77
5/12/2021 1:30:00 AM 7.58 45.644 0.028 6.43 3.85 11.79
5/12/2021 1:45:00 AM 7.52 45.536 0.028 6.43 3.79 11.8
5/12/2021 2:00:00 AM 7.47 45.446 0.028 6.42 3.92 11.82
5/12/2021 2:15:00 AM 7.41 45.338 0.028 6.41 3.95 11.83
5/12/2021 2:30:00 AM 7.36 45.248 0.028 6.42 3.77 11.85
5/12/2021 2:45:00 AM 7.31 45.158 0.028 6.43 3.93 11.87
5/12/2021 3:00:00 AM 7.27 45.086 0.028 6.43 3.75 11.88
5/12/2021 3:15:00 AM 7.24 45.032 0.028 6.43 3.69 11.89
5/12/2021 3:30:00 AM 7.19 44.942 0.028 6.43 3.81 11.9
5/12/2021 3:45:00 AM 7.16 44.888 0.028 6.41 3.74 11.92
5/12/2021 4:00:00 AM 7.12 44.816 0.028 6.43 3.73 11.92
5/12/2021 4:15:00 AM 7.08 44.744 0.028 6.41 3.83 11.93
5/12/2021 4:30:00 AM 7.04 44.672 0.028 6.43 3.67 11.94
5/12/2021 4:45:00 AM 7.01 44.618 0.028 6.42 3.75 11.95
5/12/2021 5:00:00 AM 6.97 44.546 0.028 6.41 3.68 11.96
5/12/2021 5:15:00 AM 6.94 44.492 0.028 6.41 3.69 11.97
5/12/2021 5:30:00 AM 6.91 44.438 0.028 6.43 3.69 11.99
5/12/2021 5:45:00 AM 6.88 44.384 0.028 6.42 3.56 12
5/12/2021 6:00:00 AM 6.85 44.33 0.028 6.41 3.58 12.02
5/12/2021 6:15:00 AM 6.82 44.276 0.028 6.41 3.53 12.03
5/12/2021 6:30:00 AM 6.8 44.24 0.028 6.4 3.6 12.04
5/12/2021 6:45:00 AM 6.78 44.204 0.028 6.41 3.33 12.05
5/12/2021 7:00:00 AM 6.76 44.168 0.028 6.42 3.51 12.06
5/12/2021 7:15:00 AM 6.74 44.132 0.028 6.42 3.31 12.08
5/12/2021 7:30:00 AM 6.74 44.132 0.028 6.43 3.66 12.1
5/12/2021 7:45:00 AM 6.76 44.168 0.028 6.43 3.37 12.11
5/12/2021 8:00:00 AM 6.78 44.204 0.028 6.43 3.39 12.12
5/12/2021 8:15:00 AM 6.82 44.276 0.028 6.45 3.22 12.12
5/12/2021 8:30:00 AM 6.86 44.348 0.028 6.44 4.25 12.13
5/12/2021 8:45:00 AM 6.91 44.438 0.028 6.45 3.35 12.11
5/12/2021 9:00:00 AM 6.97 44.546 0.028 6.46 3.25 12.11
5/12/2021 9:15:00 AM 7.05 44.69 0.028 6.45 3.66 12.09
5/12/2021 9:30:00 AM 7.15 44.87 0.028 6.45 3.11 12.07
5/12/2021 9:45:00 AM 7.26 45.068 0.027 6.44 3.8 12.03
5/12/2021 10:00:00 AM 7.38 45.284 0.027 6.46 4.22 12.01
5/12/2021 10:15:00 AM 7.51 45.518 0.027 6.47 3.2 11.98
5/12/2021 10:30:00 AM 7.63 45.734 0.027 6.46 3.34 11.94
5/12/2021 10:45:00 AM 7.78 46.004 0.027 6.44 3.6 11.91
5/12/2021 11:00:00 AM 7.93 46.274 0.027 6.46 3.09 11.86
5/12/2021 11:15:00 AM 8.11 46.598 0.027 6.46 3.17 11.81
5/12/2021 11:30:00 AM 8.31 46.958 0.027 6.48 3.03 11.77
5/12/2021 11:45:00 AM 8.41 47.138 0.027 6.47 3.11 11.71
5/12/2021 12:00:00 PM 8.57 47.426 0.027 6.47 3.28 11.66
5/12/2021 12:15:00 PM 8.65 47.57 0.027 6.47 3.11 11.64
5/12/2021 12:30:00 PM 8.75 47.75 0.027 6.47 3.3 11.6
5/12/2021 12:45:00 PM 8.94 48.092 0.027 6.48 3.15 11.56
5/12/2021 1:00:00 PM 9.05 48.29 0.027 6.48 3.13 11.53
5/12/2021 1:15:00 PM 9.38 48.884 0.027 6.46 3.16 11.48
5/12/2021 1:30:00 PM 9.4 48.92 0.027 6.48 3.03 11.42
5/12/2021 1:45:00 PM 9.45 49.01 0.027 6.49 3.06 11.39
5/12/2021 2:00:00 PM 9.52 49.136 0.027 6.5 3.04 11.4
5/12/2021 2:15:00 PM 9.58 49.244 0.027 6.5 3.09 11.39
5/12/2021 2:30:00 PM 9.62 49.316 0.027 6.48 3.17 11.36
5/12/2021 2:45:00 PM 9.75 49.55 0.027 6.49 2.94 11.34
5/12/2021 3:00:00 PM 9.76 49.568 0.027 6.5 3.12 11.31
5/12/2021 3:15:00 PM 9.97 49.946 0.027 6.49 3.07 11.29
5/12/2021 3:30:00 PM 9.97 49.946 0.027 6.48 3.15 11.26
5/12/2021 3:45:00 PM 9.87 49.766 0.027 6.48 3.02 11.23
5/12/2021 4:00:00 PM 9.9 49.82 0.027 6.48 3.19 11.24
5/12/2021 4:15:00 PM 9.83 49.694 0.027 6.47 3.09 11.24
5/12/2021 4:30:00 PM 9.84 49.712 0.027 6.48 3.06 11.24
5/12/2021 4:45:00 PM 9.8 49.64 0.027 6.49 3.07 11.25
5/12/2021 5:00:00 PM 9.77 49.586 0.027 6.5 3.16 11.25
5/12/2021 5:15:00 PM 9.79 49.622 0.027 6.48 3 11.26
5/12/2021 5:30:00 PM 9.77 49.586 0.027 6.49 3.29 11.25
5/12/2021 5:45:00 PM 9.75 49.55 0.028 6.48 3.18 11.25
5/12/2021 6:00:00 PM 9.76 49.568 0.028 6.48 3.09 11.25
5/12/2021 6:15:00 PM 9.75 49.55 0.028 6.48 3.04 11.24
5/12/2021 6:30:00 PM 9.74 49.532 0.028 6.47 2.97 11.23
5/12/2021 6:45:00 PM 9.73 49.514 0.028 6.49 3.19 11.24
5/12/2021 7:00:00 PM 9.7 49.46 0.028 6.48 2.89 11.24
5/12/2021 7:15:00 PM 9.65 49.37 0.028 6.48 3.04 11.24
5/12/2021 7:30:00 PM 9.62 49.316 0.028 6.46 3.18 11.23
5/12/2021 7:45:00 PM 9.56 49.208 0.028 6.45 3.09 11.22
5/12/2021 8:00:00 PM 9.5 49.1 0.028 6.45 3.23 11.23
5/12/2021 8:15:00 PM 9.45 49.01 0.028 6.44 3.16 11.24
5/12/2021 8:30:00 PM 9.39 48.902 0.028 6.45 3.21 11.25
5/12/2021 8:45:00 PM 9.34 48.812 0.028 6.44 3.06 11.25
5/12/2021 9:00:00 PM 9.28 48.704 0.028 6.44 3.14 11.27
5/12/2021 9:15:00 PM 9.22 48.596 0.028 6.44 3.04 11.28
5/12/2021 9:30:00 PM 9.15 48.47 0.028 6.45 3.23 11.31
5/12/2021 9:45:00 PM 9.09 48.362 0.028 6.45 3.2 11.33
5/12/2021 10:00:00 PM 9.02 48.236 0.028 6.44 3.35 11.35
5/12/2021 10:15:00 PM 8.95 48.11 0.028 6.43 3.32 11.37
5/12/2021 10:30:00 PM 8.88 47.984 0.028 6.43 3.14 11.39
5/12/2021 10:45:00 PM 8.82 47.876 0.028 6.44 3.26 11.41
5/12/2021 11:00:00 PM 8.75 47.75 0.028 6.45 3.29 11.43
5/12/2021 11:15:00 PM 8.68 47.624 0.028 6.45 3.2 11.45
5/12/2021 11:30:00 PM 8.61 47.498 0.028 6.44 3.2 11.47
5/12/2021 11:45:00 PM 8.54 47.372 0.028 6.44 3.19 11.49
5/13/2021 12:00:00 AM 8.47 47.246 0.028 6.44 3.1 11.51
5/13/2021 12:15:00 AM 8.4 47.12 0.028 6.44 3.03 11.53
5/13/2021 12:30:00 AM 8.33 46.994 0.028 6.44 3.04 11.56
5/13/2021 12:45:00 AM 8.26 46.868 0.028 6.44 3.14 11.57
5/13/2021 1:00:00 AM 8.19 46.742 0.028 6.45 3.25 11.6
5/13/2021 1:15:00 AM 8.12 46.616 0.028 6.45 3.12 11.62
5/13/2021 1:30:00 AM 8.04 46.472 0.028 6.44 3.1 11.64
5/13/2021 1:45:00 AM 7.97 46.346 0.028 6.43 3.18 11.67
5/13/2021 2:00:00 AM 7.9 46.22 0.028 6.44 3.03 11.68
5/13/2021 2:15:00 AM 7.82 46.076 0.028 6.44 2.96 11.71
5/13/2021 2:30:00 AM 7.75 45.95 0.028 6.44 3.07 11.73
5/13/2021 2:45:00 AM 7.67 45.806 0.028 6.43 2.96 11.75
5/13/2021 3:00:00 AM 7.6 45.68 0.028 6.45 3.28 11.78
5/13/2021 3:15:00 AM 7.53 45.554 0.028 6.45 2.97 11.79
5/13/2021 3:30:00 AM 7.46 45.428 0.028 6.45 3.04 11.82
5/13/2021 3:45:00 AM 7.39 45.302 0.028 6.44 3.15 11.84
5/13/2021 4:00:00 AM 7.32 45.176 0.028 6.43 3.08 11.86
5/13/2021 4:15:00 AM 7.25 45.05 0.028 6.44 3.04 11.88
5/13/2021 4:30:00 AM 7.18 44.924 0.028 6.44 2.95 11.9
5/13/2021 4:45:00 AM 7.12 44.816 0.028 6.43 3.02 11.92
5/13/2021 5:00:00 AM 7.05 44.69 0.028 6.44 2.86 11.94
5/13/2021 5:15:00 AM 6.99 44.582 0.028 6.44 3.01 11.96
5/13/2021 5:30:00 AM 6.93 44.474 0.028 6.43 2.88 11.99
5/13/2021 5:45:00 AM 6.88 44.384 0.028 6.44 2.99 12
5/13/2021 6:00:00 AM 6.82 44.276 0.028 6.43 2.94 12.01
5/13/2021 6:15:00 AM 6.78 44.204 0.028 6.44 2.88 12.05
5/13/2021 6:30:00 AM 6.73 44.114 0.028 6.44 2.96 12.06
5/13/2021 6:45:00 AM 6.69 44.042 0.028 6.43 3.08 12.08
5/13/2021 7:00:00 AM 6.65 43.97 0.028 6.44 2.9 12.1
5/13/2021 7:15:00 AM 6.62 43.916 0.028 6.45 2.8 12.12
5/13/2021 7:30:00 AM 6.61 43.898 0.028 6.44 2.75 12.14
5/13/2021 7:45:00 AM 6.59 43.862 0.028 6.46 3.64 12.16
5/13/2021 8:00:00 AM 6.59 43.862 0.028 6.45 3.09 12.16
5/13/2021 8:15:00 AM 6.6 43.88 0.028 6.46 3.01 12.17
5/13/2021 8:30:00 AM 6.62 43.916 0.028 6.46 2.74 12.18
5/13/2021 8:45:00 AM 6.66 43.988 0.028 6.47 2.65 12.18
5/13/2021 9:00:00 AM 6.71 44.078 0.028 6.46 2.68 12.18
5/13/2021 9:15:00 AM 6.78 44.204 0.028 6.47 2.64 12.17
5/13/2021 9:30:00 AM 6.87 44.366 0.028 6.47 2.67 12.14
5/13/2021 9:45:00 AM 6.99 44.582 0.028 6.48 2.69 12.13
5/13/2021 10:00:00 AM 7.12 44.816 0.028 6.48 2.58 12.1
5/13/2021 10:15:00 AM 7.26 45.068 0.028 6.49 2.55 12.06
5/13/2021 10:30:00 AM 7.42 45.356 0.028 6.49 2.52 12.02
5/13/2021 10:45:00 AM 7.6 45.68 0.028 6.49 2.54 11.97
5/13/2021 11:00:00 AM 7.65 45.77 0.028 6.49 3.29 11.92
5/13/2021 11:15:00 AM 7.7 45.86 0.028 6.48 2.78 11.89
5/13/2021 11:30:00 AM 7.89 46.202 0.028 6.5 2.76 11.86
5/13/2021 11:45:00 AM 8.06 46.508 0.028 6.5 2.56 11.84
5/13/2021 12:00:00 PM 8.06 46.508 0.028 6.5 2.72 11.8
5/13/2021 12:15:00 PM 8.22 46.796 0.028 6.51 2.69 11.78
5/13/2021 12:30:00 PM 8.32 46.976 0.028 6.51 2.77 11.74
5/13/2021 12:45:00 PM 8.53 47.354 0.028 6.51 2.59 11.7
5/13/2021 1:00:00 PM 8.62 47.516 0.028 6.51 2.7 11.65
5/13/2021 1:15:00 PM 8.7 47.66 0.028 6.51 2.84 11.62
5/13/2021 1:30:00 PM 8.78 47.804 0.028 6.51 3.16 11.59
5/13/2021 1:45:00 PM 8.83 47.894 0.028 6.5 2.64 11.57
5/13/2021 2:00:00 PM 8.89 48.002 0.028 6.51 3.08 11.55
5/13/2021 2:15:00 PM 8.98 48.164 0.028 6.51 2.84 11.53
5/13/2021 2:30:00 PM 9.03 48.254 0.028 6.52 2.62 11.52
5/13/2021 2:45:00 PM 9.09 48.362 0.028 6.52 2.55 11.49
5/13/2021 3:00:00 PM 9.26 48.668 0.028 6.52 2.52 11.48
5/13/2021 3:15:00 PM 9.37 48.866 0.028 6.52 2.49 11.45
5/13/2021 3:30:00 PM 9.4 48.92 0.028 6.52 2.55 11.4
5/13/2021 3:45:00 PM 9.51 49.118 0.028 6.52 2.48 11.37
5/13/2021 4:00:00 PM 9.5 49.1 0.028 6.51 2.42 11.33
5/13/2021 4:15:00 PM 9.54 49.172 0.028 6.52 2.44 11.33
5/13/2021 4:30:00 PM 9.61 49.298 0.028 6.52 2.6 11.33
5/13/2021 4:45:00 PM 9.63 49.334 0.028 6.52 2.44 11.32
5/13/2021 5:00:00 PM 9.62 49.316 0.028 6.51 2.57 11.3
5/13/2021 5:15:00 PM 9.66 49.388 0.028 6.51 3.96 11.28
5/13/2021 5:30:00 PM 9.73 49.514 0.028 6.51 2.7 11.29
5/13/2021 5:45:00 PM 9.67 49.406 0.028 6.49 2.62 11.27
5/13/2021 6:00:00 PM 9.67 49.406 0.028 6.49 2.47 11.23
5/13/2021 6:15:00 PM 9.66 49.388 0.028 6.49 2.49 11.22
5/13/2021 6:30:00 PM 9.63 49.334 0.028 6.48 2.53 11.22
5/13/2021 6:45:00 PM 9.61 49.298 0.028 6.48 2.6 11.23
5/13/2021 7:00:00 PM 9.6 49.28 0.028 6.48 2.52 11.24
5/13/2021 7:15:00 PM 9.6 49.28 0.028 6.48 2.51 11.24
5/13/2021 7:30:00 PM 9.6 49.28 0.028 6.47 2.5 11.23
5/13/2021 7:45:00 PM 9.59 49.262 0.028 6.47 2.61 11.24
5/13/2021 8:00:00 PM 9.57 49.226 0.028 6.47 2.53 11.22
5/13/2021 8:15:00 PM 9.55 49.19 0.028 6.45 2.48 11.21
5/13/2021 8:30:00 PM 9.51 49.118 0.028 6.44 2.48 11.19
5/13/2021 8:45:00 PM 9.47 49.046 0.028 6.44 2.75 11.2
5/13/2021 9:00:00 PM 9.43 48.974 0.028 6.44 2.51 11.2
5/13/2021 9:15:00 PM 9.38 48.884 0.028 6.44 2.64 11.22
5/13/2021 9:30:00 PM 9.33 48.794 0.028 6.44 2.49 11.23
5/13/2021 9:45:00 PM 9.27 48.686 0.028 6.45 2.78 11.24
5/13/2021 10:00:00 PM 9.22 48.596 0.028 6.44 2.55 11.27
5/13/2021 10:15:00 PM 9.17 48.506 0.028 6.45 2.72 11.28
5/13/2021 10:30:00 PM 9.11 48.398 0.028 6.44 2.61 11.29
5/13/2021 10:45:00 PM 9.06 48.308 0.028 6.46 2.55 11.32
5/13/2021 11:00:00 PM 9 48.2 0.028 6.45 2.68 11.34
5/13/2021 11:15:00 PM 8.94 48.092 0.028 6.46 2.63 11.35
5/13/2021 11:30:00 PM 8.89 48.002 0.028 6.46 2.6 11.37
5/13/2021 11:45:00 PM 8.82 47.876 0.028 6.46 2.61 11.38
5/14/2021 12:00:00 AM 8.76 47.768 0.028 6.46 2.72 11.4
5/14/2021 12:15:00 AM 8.7 47.66 0.028 6.47 2.64 11.42
5/14/2021 12:30:00 AM 8.63 47.534 0.028 6.45 2.53 11.44
5/14/2021 12:45:00 AM 8.57 47.426 0.028 6.46 2.62 11.46
5/14/2021 1:00:00 AM 8.5 47.3 0.028 6.47 2.6 11.48
5/14/2021 1:15:00 AM 8.44 47.192 0.028 6.46 2.62 11.5
5/14/2021 1:30:00 AM 8.37 47.066 0.028 6.45 2.78 11.51
5/14/2021 1:45:00 AM 8.31 46.958 0.028 6.45 2.66 11.54
5/14/2021 2:00:00 AM 8.24 46.832 0.028 6.45 2.79 11.55
5/14/2021 2:15:00 AM 8.17 46.706 0.028 6.45 2.77 11.58
5/14/2021 2:30:00 AM 8.11 46.598 0.028 6.45 2.65 11.6
5/14/2021 2:45:00 AM 8.04 46.472 0.028 6.47 2.62 11.61
5/14/2021 3:00:00 AM 7.97 46.346 0.028 6.46 2.68 11.64
5/14/2021 3:15:00 AM -99999.99 -179968 -99999.99 -99999.99 -99999.99 -99999.99
5/14/2021 3:30:00 AM 7.84 46.112 0.028 6.46 2.68 11.67
5/14/2021 3:45:00 AM -99999.99 -179968 -99999.99 -99999.99 -99999.99 -99999.99
5/14/2021 4:00:00 AM -99999.99 -179968 -99999.99 -99999.99 -99999.99 -99999.99
5/14/2021 4:15:00 AM -99999.99 -179968 -99999.99 -99999.99 -99999.99 -99999.99
5/14/2021 4:30:00 AM -99999.99 -179968 -99999.99 -99999.99 -99999.99 -99999.99
5/14/2021 4:45:00 AM -99999.99 -179968 -99999.99 -99999.99 -99999.99 -99999.99
5/14/2021 5:00:00 AM -99999.99 -179968 -99999.99 -99999.99 -99999.99 -99999.99
5/14/2021 5:15:00 AM -99999.99 -179968 -99999.99 -99999.99 -99999.99 -99999.99
5/14/2021 5:30:00 AM 7.32 45.176 0.029 6.46 2.68 11.84
5/14/2021 5:45:00 AM 7.26 45.068 0.029 6.46 2.56 11.86
5/14/2021 6:00:00 AM 7.2 44.96 0.029 6.46 2.59 11.88
5/14/2021 6:15:00 AM 7.15 44.87 0.029 6.46 2.41 11.9
5/14/2021 6:30:00 AM 7.09 44.762 0.029 6.46 2.52 11.93
5/14/2021 6:45:00 AM 7.05 44.69 0.029 6.46 2.43 11.96
5/14/2021 7:00:00 AM 7 44.6 0.029 6.46 2.55 11.99
5/14/2021 7:15:00 AM 6.96 44.528 0.028 6.47 2.52 12.01
5/14/2021 7:30:00 AM 6.94 44.492 0.028 6.47 2.4 12.03
5/14/2021 7:45:00 AM 6.92 44.456 0.028 6.48 2.42 12.05
5/14/2021 8:00:00 AM 6.91 44.438 0.028 6.48 2.42 12.06
5/14/2021 8:15:00 AM 6.92 44.456 0.028 6.48 2.37 12.08
5/14/2021 8:30:00 AM 6.94 44.492 0.028 6.49 2.45 12.08
5/14/2021 8:45:00 AM 6.98 44.564 0.028 6.49 2.36 12.09
5/14/2021 9:00:00 AM 7.03 44.654 0.028 6.49 2.28 12.08
5/14/2021 9:15:00 AM 7.11 44.798 0.028 6.49 2.42 12.07
5/14/2021 9:30:00 AM 7.21 44.978 0.028 6.5 2.29 12.05
5/14/2021 9:45:00 AM 7.32 45.176 0.028 6.51 2.27 12.03
5/14/2021 10:00:00 AM 7.45 45.41 0.028 6.51 2.23 12
5/14/2021 10:15:00 AM 7.6 45.68 0.028 6.52 2.28 11.96
5/14/2021 10:30:00 AM 7.76 45.968 0.028 6.52 2.24 11.93
5/14/2021 10:45:00 AM 7.94 46.292 0.028 6.52 2.3 11.88
5/14/2021 11:00:00 AM 8.14 46.652 0.028 6.52 2.25 11.83
5/14/2021 11:15:00 AM 8.35 47.03 0.028 6.52 2.2 11.78
5/14/2021 11:30:00 AM 8.57 47.426 0.028 6.54 2.56 11.71
5/14/2021 11:45:00 AM 8.81 47.858 0.028 6.52 2.26 11.65
5/14/2021 12:00:00 PM 9.06 48.308 0.028 6.53 2.34 11.59
5/14/2021 12:15:00 PM 9.25 48.65 0.028 6.54 2.18 11.52
5/14/2021 12:30:00 PM 9.47 49.046 0.028 6.54 2.21 11.46
5/14/2021 12:45:00 PM 9.74 49.532 0.028 6.53 2.23 11.4
5/14/2021 1:00:00 PM 9.87 49.766 0.028 6.54 2.23 11.36
5/14/2021 1:15:00 PM 10.12 50.216 0.028 6.54 2.32 11.31
5/14/2021 1:30:00 PM 10.03 50.054 0.028 6.54 2.54 11.28
5/14/2021 1:45:00 PM 10.24 50.432 0.028 6.55 2.38 11.24
5/14/2021 2:00:00 PM 10.33 50.594 0.028 6.54 2.28 11.2
5/14/2021 2:15:00 PM 10.3 50.54 0.028 6.54 2.31 11.18
5/14/2021 2:30:00 PM 10.34 50.612 0.028 6.54 2.17 11.17
5/14/2021 2:45:00 PM 10.32 50.576 0.028 6.53 2.35 11.15
5/14/2021 3:00:00 PM 10.44 50.792 0.028 6.55 2.23 11.11
5/14/2021 3:15:00 PM 10.52 50.936 0.028 6.55 2.26 11.1
5/14/2021 3:30:00 PM 10.59 51.062 0.028 6.54 2.14 11.09
5/14/2021 3:45:00 PM 10.61 51.098 0.028 6.56 2.23 11.08
5/14/2021 4:00:00 PM 10.61 51.098 0.028 6.56 2.14 11.08
5/14/2021 4:15:00 PM 10.65 51.17 0.028 6.56 2.21 11.08
5/14/2021 4:30:00 PM 10.7 51.26 0.028 6.56 2.18 11.07
5/14/2021 4:45:00 PM 10.62 51.116 0.028 6.54 2.26 11.06
5/14/2021 5:00:00 PM 10.58 51.044 0.028 6.54 2.17 11.04
5/14/2021 5:15:00 PM 10.59 51.062 0.028 6.54 2.21 11.03
5/14/2021 5:30:00 PM 10.64 51.152 0.028 6.54 2.32 11.03
5/14/2021 5:45:00 PM 10.62 51.116 0.028 6.55 2.13 11.03
5/14/2021 6:00:00 PM 10.6 51.08 0.028 6.53 2.15 11.02
5/14/2021 6:15:00 PM 10.6 51.08 0.028 6.52 2.15 11.01
5/14/2021 6:30:00 PM 10.58 51.044 0.028 6.52 2.24 10.99
5/14/2021 6:45:00 PM 10.57 51.026 0.028 6.51 2.31 10.99
5/14/2021 7:00:00 PM 10.55 50.99 0.028 6.51 2.24 10.98
5/14/2021 7:15:00 PM 10.53 50.954 0.028 6.49 2.46 10.98
5/14/2021 7:30:00 PM 10.51 50.918 0.028 6.49 2.17 10.98
5/14/2021 7:45:00 PM 10.48 50.864 0.028 6.49 2.2 10.97
5/14/2021 8:00:00 PM 10.45 50.81 0.029 6.49 2.16 10.96
5/14/2021 8:15:00 PM 10.4 50.72 0.029 6.47 2.23 10.95
5/14/2021 8:30:00 PM 10.35 50.63 0.029 6.47 2.14 10.95
5/14/2021 8:45:00 PM 10.3 50.54 0.029 6.46 2.28 10.95
5/14/2021 9:00:00 PM 10.24 50.432 0.029 6.46 2.28 10.97
5/14/2021 9:15:00 PM 10.19 50.342 0.029 6.47 2.4 10.99
5/14/2021 9:30:00 PM 10.13 50.234 0.029 6.47 2.44 10.99
5/14/2021 9:45:00 PM 10.07 50.126 0.029 6.46 2.76 11.01
5/14/2021 10:00:00 PM 10.01 50.018 0.029 6.47 2.54 11.03
5/14/2021 10:15:00 PM 9.95 49.91 0.029 6.47 2.36 11.04
5/14/2021 10:30:00 PM 9.91 49.838 0.029 6.48 2.37 11.06
5/14/2021 10:45:00 PM 9.86 49.748 0.029 6.47 2.51 11.08
5/14/2021 11:00:00 PM 9.81 49.658 0.029 6.46 2.33 11.08
5/14/2021 11:15:00 PM -99999.99 -179968 -99999.99 -99999.99 -99999.99 -99999.99
5/14/2021 11:30:00 PM -99999.99 -179968 -99999.99 -99999.99 -99999.99 -99999.99
5/14/2021 11:45:00 PM -99999.99 -179968 -99999.99 -99999.99 -99999.99 -99999.99
5/15/2021 12:00:00 AM -99999.99 -179968 -99999.99 -99999.99 -99999.99 -99999.99
5/15/2021 12:15:00 AM -99999.99 -179968 -99999.99 -99999.99 -99999.99 -99999.99
5/15/2021 12:30:00 AM -99999.99 -179968 -99999.99 -99999.99 -99999.99 -99999.99
5/15/2021 12:45:00 AM -99999.99 -179968 -99999.99 -99999.99 -99999.99 -99999.99
5/15/2021 1:00:00 AM -99999.99 -179968 -99999.99 -99999.99 -99999.99 -99999.99
5/15/2021 1:15:00 AM -99999.99 -179968 -99999.99 -99999.99 -99999.99 -99999.99
5/15/2021 1:30:00 AM -99999.99 -179968 -99999.99 -99999.99 -99999.99 -99999.99
5/15/2021 1:45:00 AM 9.18 48.524 0.029 6.48 2.41 11.27
5/15/2021 2:00:00 AM 9.12 48.416 0.029 6.47 2.44 11.29
5/15/2021 2:15:00 AM 9.05 48.29 0.029 6.48 2.43 11.31
5/15/2021 2:30:00 AM 8.99 48.182 0.029 6.48 2.33 11.32
5/15/2021 2:45:00 AM 8.92 48.056 0.029 6.47 2.34 11.34
5/15/2021 3:00:00 AM 8.86 47.948 0.029 6.47 3.34 11.35
5/15/2021 3:15:00 AM 8.79 47.822 0.029 6.48 2.35 11.38
5/15/2021 3:30:00 AM 8.72 47.696 0.029 6.49 2.47 11.4
5/15/2021 3:45:00 AM 8.66 47.588 0.029 6.48 5.45 11.42
5/15/2021 4:00:00 AM -99999.99 -179968 -99999.99 -99999.99 -99999.99 -99999.99
5/15/2021 4:15:00 AM -99999.99 -179968 -99999.99 -99999.99 -99999.99 -99999.99
5/15/2021 4:30:00 AM 8.45 47.21 0.029 6.48 2.44 11.48
5/15/2021 4:45:00 AM 8.38 47.084 0.029 6.48 2.35 11.5
5/15/2021 5:00:00 AM 8.31 46.958 0.029 6.47 2.28 11.51
5/15/2021 5:15:00 AM 8.24 46.832 0.029 6.48 2.57 11.54
5/15/2021 5:30:00 AM 8.17 46.706 0.029 6.47 2.39 11.56
5/15/2021 5:45:00 AM 8.1 46.58 0.029 6.48 2.14 11.58
5/15/2021 6:00:00 AM 8.04 46.472 0.029 6.47 2.3 11.6
5/15/2021 6:15:00 AM 7.97 46.346 0.029 6.47 2.32 11.63
5/15/2021 6:30:00 AM 7.91 46.238 0.029 6.48 2.31 11.67
5/15/2021 6:45:00 AM 7.85 46.13 0.029 6.49 2.19 11.69
5/15/2021 7:00:00 AM 7.8 46.04 0.029 6.49 2.34 11.72
5/15/2021 7:15:00 AM 7.75 45.95 0.029 6.49 2.19 11.75
5/15/2021 7:30:00 AM 7.72 45.896 0.029 6.49 2.11 11.78
5/15/2021 7:45:00 AM 7.7 45.86 0.029 6.5 2.34 11.8
5/15/2021 8:00:00 AM 7.68 45.824 0.029 6.5 2.17 11.81
5/15/2021 8:15:00 AM 7.68 45.824 0.029 6.51 2.15 11.83
5/15/2021 8:30:00 AM 7.7 45.86 0.029 6.52 2.3 11.85
5/15/2021 8:45:00 AM 7.72 45.896 0.029 6.53 2.15 11.85
5/15/2021 9:00:00 AM 7.77 45.986 0.029 6.52 2.15 11.84
5/15/2021 9:15:00 AM 7.83 46.094 0.029 6.52 2.2 11.84
5/15/2021 9:30:00 AM 7.92 46.256 0.029 6.53 2 11.83
5/15/2021 9:45:00 AM 8.03 46.454 0.029 6.54 2.06 11.81
5/15/2021 10:00:00 AM 8.16 46.688 0.029 6.53 2.25 11.78
5/15/2021 10:15:00 AM 8.29 46.922 0.029 6.54 2.05 11.75
5/15/2021 10:30:00 AM 8.44 47.192 0.029 6.54 2.03 11.72
5/15/2021 10:45:00 AM 8.61 47.498 0.029 6.55 2.12 11.69
5/15/2021 11:00:00 AM 8.77 47.786 0.029 6.55 2.08 11.65
5/15/2021 11:15:00 AM 8.94 48.092 0.029 6.55 1.98 11.62
5/15/2021 11:30:00 AM 9.14 48.452 0.029 6.55 2.03 11.57
5/15/2021 11:45:00 AM 9.37 48.866 0.029 6.56 2.03 11.51
5/15/2021 12:00:00 PM 9.62 49.316 0.029 6.56 1.98 11.46
5/15/2021 12:15:00 PM 9.78 49.604 0.029 6.56 1.97 11.39
5/15/2021 12:30:00 PM 9.76 49.568 0.029 6.58 2 11.35
5/15/2021 12:45:00 PM 9.86 49.748 0.029 6.57 2.07 11.32
5/15/2021 1:00:00 PM 10.08 50.144 0.029 6.56 1.99 11.29
5/15/2021 1:15:00 PM 10.21 50.378 0.029 6.57 1.97 11.26
5/15/2021 1:30:00 PM 10.4 50.72 0.029 6.57 1.95 11.24
5/15/2021 1:45:00 PM 10.45 50.81 0.029 6.57 1.99 11.19
5/15/2021 2:00:00 PM 10.5 50.9 0.029 6.57 1.93 11.18
5/15/2021 2:15:00 PM 10.71 51.278 0.029 6.58 2.05 11.15
5/15/2021 2:30:00 PM 10.67 51.206 0.029 6.55 2.08 11.11
5/15/2021 2:45:00 PM 10.61 51.098 0.029 6.57 2.03 11.1
5/15/2021 3:00:00 PM 10.68 51.224 0.029 6.57 1.89 11.09
5/15/2021 3:15:00 PM 10.78 51.404 0.029 6.56 1.95 11.08
5/15/2021 3:30:00 PM 10.91 51.638 0.029 6.56 1.92 11.07
5/15/2021 3:45:00 PM 10.97 51.746 0.029 6.58 1.86 11.06
5/15/2021 4:00:00 PM 10.93 51.674 0.029 6.56 2.02 11.04
5/15/2021 4:15:00 PM 10.95 51.71 0.029 6.57 1.87 11.03
5/15/2021 4:30:00 PM 11.02 51.836 0.029 6.56 2.05 11
5/15/2021 4:45:00 PM 11.01 51.818 0.029 6.57 1.93 10.99
5/15/2021 5:00:00 PM 11.04 51.872 0.029 6.56 1.88 10.98
5/15/2021 5:15:00 PM 11.1 51.98 0.029 6.55 2.16 10.97
5/15/2021 5:30:00 PM 11.12 52.016 0.029 6.57 1.93 10.96
5/15/2021 5:45:00 PM 11.06 51.908 0.029 6.56 2.08 10.94
5/15/2021 6:00:00 PM 11.03 51.854 0.029 6.55 1.99 10.93
5/15/2021 6:15:00 PM 11 51.8 0.029 6.54 2.12 10.89
5/15/2021 6:30:00 PM 10.98 51.764 0.029 6.54 2.29 10.88
5/15/2021 6:45:00 PM 10.95 51.71 0.029 6.54 1.91 10.87
5/15/2021 7:00:00 PM 10.89 51.602 0.029 6.53 2.01 10.88
5/15/2021 7:15:00 PM 10.84 51.512 0.029 6.53 2.09 10.89
5/15/2021 7:30:00 PM 10.79 51.422 0.029 6.51 1.99 10.88
5/15/2021 7:45:00 PM 10.75 51.35 0.029 6.5 2.05 10.87
5/15/2021 8:00:00 PM 10.7 51.26 0.029 6.49 2.02 10.87
5/15/2021 8:15:00 PM 10.65 51.17 0.029 6.5 2 10.86
5/15/2021 8:30:00 PM 10.61 51.098 0.029 6.48 2.11 10.86
5/15/2021 8:45:00 PM 10.57 51.026 0.029 6.47 2.1 10.86
5/15/2021 9:00:00 PM 10.53 50.954 0.029 6.49 2 10.87
5/15/2021 9:15:00 PM 10.49 50.882 0.029 6.46 2.03 10.87
5/15/2021 9:30:00 PM 10.46 50.828 0.029 6.46 2.16 10.88
5/15/2021 9:45:00 PM 10.42 50.756 0.029 6.47 2.04 10.89
5/15/2021 10:00:00 PM 10.38 50.684 0.029 6.47 2.11 10.91
5/15/2021 10:15:00 PM 10.34 50.612 0.029 6.47 2.16 10.91
5/15/2021 10:30:00 PM 10.29 50.522 0.029 6.47 2.03 10.92
5/15/2021 10:45:00 PM 10.24 50.432 0.029 6.47 2.1 10.93
5/15/2021 11:00:00 PM 10.19 50.342 0.029 6.48 2.02 10.95
5/15/2021 11:15:00 PM 10.15 50.27 0.029 6.47 2.04 10.96
5/15/2021 11:30:00 PM 10.1 50.18 0.029 6.47 2.21 10.97
5/15/2021 11:45:00 PM 10.06 50.108 0.029 6.47 2.26 10.99
5/16/2021 12:00:00 AM 10.02 50.036 0.03 6.47 2.06 11
5/16/2021 12:15:00 AM 9.99 49.982 0.03 6.47 2.06 11.01
5/16/2021 12:30:00 AM 9.95 49.91 0.03 6.46 2.17 11.02
5/16/2021 12:45:00 AM 9.91 49.838 0.03 6.47 2.11 11.04
5/16/2021 1:00:00 AM 9.87 49.766 0.03 6.46 2.14 11.04
5/16/2021 1:15:00 AM 9.82 49.676 0.03 6.47 2.21 11.06
5/16/2021 1:30:00 AM 9.77 49.586 0.03 6.46 2.02 11.07
5/16/2021 1:45:00 AM 9.72 49.496 0.03 6.46 2.06 11.08
5/16/2021 2:00:00 AM -99999.99 -179968 -99999.99 -99999.99 -99999.99 -99999.99
5/16/2021 2:15:00 AM -99999.99 -179968 -99999.99 -99999.99 -99999.99 -99999.99
5/16/2021 2:30:00 AM 9.58 49.244 0.03 6.47 2.11 11.11
5/16/2021 2:45:00 AM -99999.99 -179968 -99999.99 -99999.99 -99999.99 -99999.99
5/16/2021 3:00:00 AM -99999.99 -179968 -99999.99 -99999.99 -99999.99 -99999.99
5/16/2021 3:15:00 AM -99999.99 -179968 -99999.99 -99999.99 -99999.99 -99999.99
5/16/2021 3:30:00 AM -99999.99 -179968 -99999.99 -99999.99 -99999.99 -99999.99
5/16/2021 3:45:00 AM -99999.99 -179968 -99999.99 -99999.99 -99999.99 -99999.99
5/16/2021 4:00:00 AM 9.29 48.722 0.03 6.46 2.05 11.19
5/16/2021 4:15:00 AM 9.25 48.65 0.03 6.47 2.05 11.2
5/16/2021 4:30:00 AM 9.21 48.578 0.03 6.46 2.07 11.23
5/16/2021 4:45:00 AM 9.16 48.488 0.03 6.45 2.16 11.25
5/16/2021 5:00:00 AM 9.13 48.434 0.03 6.45 2.28 11.25
5/16/2021 5:15:00 AM 9.1 48.38 0.03 6.47 2.05 11.26
5/16/2021 5:30:00 AM 9.06 48.308 0.03 6.46 2.11 11.27
5/16/2021 5:45:00 AM 9.02 48.236 0.03 6.46 2.18 11.28
5/16/2021 6:00:00 AM 8.99 48.182 0.03 6.47 1.99 11.29
5/16/2021 6:15:00 AM 8.96 48.128 0.03 6.47 2.16 11.31
5/16/2021 6:30:00 AM 8.93 48.074 0.03 6.47 2.03 11.33
5/16/2021 6:45:00 AM 8.91 48.038 0.03 6.47 2.22 11.35
5/16/2021 7:00:00 AM 8.89 48.002 0.03 6.47 2.17 11.37
5/16/2021 7:15:00 AM 8.87 47.966 0.03 6.48 2 11.38
5/16/2021 7:30:00 AM 8.85 47.93 0.03 6.48 1.98 11.4
5/16/2021 7:45:00 AM 8.85 47.93 0.03 6.5 1.98 11.42
5/16/2021 8:00:00 AM 8.85 47.93 0.03 6.5 1.95 11.45
5/16/2021 8:15:00 AM 8.87 47.966 0.03 6.51 2.01 11.47
5/16/2021 8:30:00 AM 8.88 47.984 0.03 6.52 1.97 11.49
5/16/2021 8:45:00 AM 8.9 48.02 0.03 6.52 1.91 11.5
5/16/2021 9:00:00 AM 8.93 48.074 0.03 6.52 1.96 11.51
5/16/2021 9:15:00 AM 8.98 48.164 0.029 6.53 1.87 11.51
5/16/2021 9:30:00 AM 9.02 48.236 0.029 6.54 1.89 11.51
5/16/2021 9:45:00 AM 9.08 48.344 0.029 6.54 1.92 11.51
5/16/2021 10:00:00 AM 9.14 48.452 0.029 6.55 1.93 11.51
5/16/2021 10:15:00 AM 9.19 48.542 0.029 6.54 1.8 11.48
5/16/2021 10:30:00 AM 9.24 48.632 0.029 6.55 1.88 11.48
5/16/2021 10:45:00 AM 9.3 48.74 0.029 6.55 1.95 11.46
5/16/2021 11:00:00 AM 9.36 48.848 0.029 6.54 1.91 11.45
5/16/2021 11:15:00 AM 9.45 49.01 0.029 6.55 1.92 11.44
5/16/2021 11:30:00 AM 9.58 49.244 0.029 6.56 1.92 11.44
5/16/2021 11:45:00 AM 9.66 49.388 0.029 6.57 2 11.4
5/16/2021 12:00:00 PM 9.72 49.496 0.029 6.57 2.09 11.38
5/16/2021 12:15:00 PM 9.8 49.64 0.029 6.58 1.99 11.36
5/16/2021 12:30:00 PM 9.85 49.73 0.029 6.58 1.81 11.33
5/16/2021 12:45:00 PM 9.9 49.82 0.029 6.57 1.89 11.31
5/16/2021 1:00:00 PM 9.91 49.838 0.029 6.57 1.96 11.29
5/16/2021 1:15:00 PM 9.92 49.856 0.029 6.56 1.82 11.27
5/16/2021 1:30:00 PM 9.97 49.946 0.029 6.55 1.87 11.26
5/16/2021 1:45:00 PM 10.07 50.126 0.029 6.56 1.88 11.26
5/16/2021 2:00:00 PM 10.16 50.288 0.029 6.57 1.92 11.25
5/16/2021 2:15:00 PM 10.26 50.468 0.029 6.55 1.93 11.24
5/16/2021 2:30:00 PM 10.34 50.612 0.029 6.56 1.85 11.21
5/16/2021 2:45:00 PM 10.36 50.648 0.029 6.56 1.89 11.2
5/16/2021 3:00:00 PM 10.49 50.882 0.029 6.56 1.88 11.18
5/16/2021 3:15:00 PM 10.72 51.296 0.029 6.57 1.81 11.15
5/16/2021 3:30:00 PM 10.88 51.584 0.029 6.57 1.84 11.12
5/16/2021 3:45:00 PM 10.77 51.386 0.029 6.55 1.95 11.08
5/16/2021 4:00:00 PM 10.75 51.35 0.029 6.54 1.91 11.07
5/16/2021 4:15:00 PM 10.75 51.35 0.029 6.56 1.85 11.06
5/16/2021 4:30:00 PM 10.72 51.296 0.029 6.56 1.85 11.05
5/16/2021 4:45:00 PM 10.79 51.422 0.029 6.55 1.83 11.03
5/16/2021 5:00:00 PM 10.85 51.53 0.029 6.56 1.93 11.02
5/16/2021 5:15:00 PM 10.93 51.674 0.029 6.56 1.88 11.02
5/16/2021 5:30:00 PM 10.99 51.782 0.029 6.56 1.84 11
5/16/2021 5:45:00 PM 10.97 51.746 0.029 6.55 1.84 10.99
5/16/2021 6:00:00 PM 10.93 51.674 0.029 6.56 1.91 10.98
5/16/2021 6:15:00 PM 10.9 51.62 0.029 6.56 1.79 10.96
5/16/2021 6:30:00 PM 10.87 51.566 0.029 6.54 1.8 10.94
5/16/2021 6:45:00 PM 10.83 51.494 0.029 6.52 1.82 10.93
5/16/2021 7:00:00 PM 10.79 51.422 0.029 6.54 1.91 10.94
5/16/2021 7:15:00 PM 10.74 51.332 0.029 6.54 1.94 10.93
5/16/2021 7:30:00 PM 10.67 51.206 0.03 6.53 1.8 10.91
5/16/2021 7:45:00 PM 10.6 51.08 0.03 6.52 1.84 10.91
5/16/2021 8:00:00 PM 10.54 50.972 0.03 6.51 1.89 10.91
5/16/2021 8:15:00 PM 10.49 50.882 0.03 6.49 1.88 10.89
5/16/2021 8:30:00 PM 10.45 50.81 0.03 6.49 2.08 10.9
5/16/2021 8:45:00 PM 10.4 50.72 0.03 6.47 1.85 10.89
5/16/2021 9:00:00 PM 10.35 50.63 0.03 6.48 2.01 10.9
5/16/2021 9:15:00 PM 10.3 50.54 0.03 6.48 1.96 10.91
5/16/2021 9:30:00 PM 10.25 50.45 0.03 6.47 1.94 10.92
5/16/2021 9:45:00 PM 10.2 50.36 0.03 6.47 1.96 10.93
5/16/2021 10:00:00 PM 10.15 50.27 0.03 6.47 1.91 10.95
5/16/2021 10:15:00 PM 10.09 50.162 0.03 6.47 1.97 10.97
5/16/2021 10:30:00 PM 10.04 50.072 0.03 6.48 2.1 10.98
5/16/2021 10:45:00 PM 9.98 49.964 0.03 6.47 2.02 10.99
5/16/2021 11:00:00 PM 9.92 49.856 0.03 6.47 1.95 11.02
5/16/2021 11:15:00 PM 9.86 49.748 0.03 6.48 1.95 11.03
5/16/2021 11:30:00 PM 9.8 49.64 0.03 6.47 2 11.05
5/16/2021 11:45:00 PM 9.74 49.532 0.03 6.47 2.02 11.06
5/17/2021 12:00:00 AM 9.69 49.442 0.03 6.47 1.96 11.08
5/17/2021 12:15:00 AM 9.63 49.334 0.03 6.47 1.99 11.1
5/17/2021 12:30:00 AM 9.57 49.226 0.03 6.47 1.98 11.11
5/17/2021 12:45:00 AM 9.51 49.118 0.03 6.48 2 11.14
5/17/2021 1:00:00 AM 9.45 49.01 0.03 6.47 2.04 11.14
5/17/2021 1:15:00 AM 9.39 48.902 0.03 6.48 2.01 11.16
5/17/2021 1:30:00 AM 9.34 48.812 0.03 6.47 2.08 11.18
5/17/2021 1:45:00 AM 9.28 48.704 0.03 6.47 2.03 11.2
5/17/2021 2:00:00 AM 9.22 48.596 0.03 6.46 2.04 11.21
5/17/2021 2:15:00 AM 9.17 48.506 0.03 6.48 2.05 11.23
5/17/2021 2:30:00 AM 9.11 48.398 0.03 6.48 2.11 11.25
5/17/2021 2:45:00 AM 9.05 48.29 0.03 6.47 2.1 11.26
5/17/2021 3:00:00 AM 9 48.2 0.03 6.47 2.08 11.28
5/17/2021 3:15:00 AM 8.94 48.092 0.03 6.46 2.13 11.29
5/17/2021 3:30:00 AM 8.88 47.984 0.03 6.47 2.04 11.31
5/17/2021 3:45:00 AM 8.82 47.876 0.03 6.46 2.05 11.32
5/17/2021 4:00:00 AM 8.76 47.768 0.03 6.47 2.03 11.34
5/17/2021 4:15:00 AM 8.71 47.678 0.03 6.47 2 11.36
5/17/2021 4:30:00 AM 8.65 47.57 0.03 6.47 2.04 11.38
5/17/2021 4:45:00 AM 8.59 47.462 0.03 6.46 2.02 11.39
5/17/2021 5:00:00 AM 8.53 47.354 0.03 6.48 2.04 11.41
5/17/2021 5:15:00 AM 8.47 47.246 0.03 6.47 1.98 11.42
5/17/2021 5:30:00 AM 8.41 47.138 0.03 6.46 2.1 11.44
5/17/2021 5:45:00 AM 8.36 47.048 0.03 6.47 2 11.46
5/17/2021 6:00:00 AM 8.3 46.94 0.03 6.46 2.03 11.48
5/17/2021 6:15:00 AM 8.25 46.85 0.03 6.47 1.97 11.52
5/17/2021 6:30:00 AM 8.2 46.76 0.03 6.48 1.94 11.54
5/17/2021 6:45:00 AM 8.15 46.67 0.03 6.49 1.92 11.57
5/17/2021 7:00:00 AM 8.11 46.598 0.03 6.48 2.21 11.6
5/17/2021 7:15:00 AM 8.07 46.526 0.03 6.49 3.61 11.62
5/17/2021 7:30:00 AM 8.05 46.49 0.03 6.5 1.92 11.66
5/17/2021 7:45:00 AM 8.04 46.472 0.03 6.5 1.86 11.69
5/17/2021 8:00:00 AM 8.04 46.472 0.03 6.5 1.88 11.7
5/17/2021 8:15:00 AM 8.06 46.508 0.03 6.51 1.83 11.72
5/17/2021 8:30:00 AM 8.09 46.562 0.03 6.51 1.86 11.74
5/17/2021 8:45:00 AM 8.14 46.652 0.03 6.51 1.81 11.74
5/17/2021 9:00:00 AM 8.19 46.742 0.03 6.53 1.86 11.73
5/17/2021 9:15:00 AM 8.26 46.868 0.03 6.53 1.93 11.73
5/17/2021 9:30:00 AM 8.36 47.048 0.03 6.53 1.85 11.7
5/17/2021 9:45:00 AM 8.5 47.3 0.03 6.54 1.95 11.7
5/17/2021 10:00:00 AM 8.64 47.552 0.03 6.54 1.78 11.67
5/17/2021 10:15:00 AM 8.79 47.822 0.03 6.54 1.79 11.64
5/17/2021 10:30:00 AM 8.96 48.128 0.03 6.55 1.93 11.61
5/17/2021 10:45:00 AM 9.15 48.47 0.03 6.55 1.79 11.56
5/17/2021 11:00:00 AM 9.35 48.83 0.03 6.56 1.77 11.51
5/17/2021 11:15:00 AM 9.56 49.208 0.03 6.56 1.7 11.46
5/17/2021 11:30:00 AM 9.76 49.568 0.03 6.56 1.75 11.41
5/17/2021 11:45:00 AM 9.93 49.874 0.03 6.56 1.83 11.37
5/17/2021 12:00:00 PM 10.12 50.216 0.03 6.57 1.8 11.31
5/17/2021 12:15:00 PM 10.42 50.756 0.03 6.57 1.79 11.25
5/17/2021 12:30:00 PM 10.59 51.062 0.03 6.57 1.79 11.19
5/17/2021 12:45:00 PM 10.9 51.62 0.03 6.57 1.78 11.13
5/17/2021 1:00:00 PM 11.21 52.178 0.03 6.57 2.23 11.07
5/17/2021 1:15:00 PM 11.27 52.286 0.03 6.59 1.82 11.03
5/17/2021 1:30:00 PM 11.57 52.826 0.03 6.58 1.91 10.98
5/17/2021 1:45:00 PM 11.82 53.276 0.03 6.57 1.67 10.91
5/17/2021 2:00:00 PM 11.75 53.15 0.03 6.59 1.66 10.88
5/17/2021 2:15:00 PM 11.84 53.312 0.03 6.59 1.76 10.88
5/17/2021 2:30:00 PM 11.79 53.222 0.03 6.58 1.68 10.86
5/17/2021 2:45:00 PM 11.93 53.474 0.03 6.57 1.77 10.85
5/17/2021 3:00:00 PM 12.3 54.14 0.03 6.59 1.68 10.8
5/17/2021 3:15:00 PM 12.51 54.518 0.03 6.59 1.75 10.75
5/17/2021 3:30:00 PM 12.56 54.608 0.03 6.6 1.73 10.73
5/17/2021 3:45:00 PM 12.47 54.446 0.03 6.6 1.94 10.72
5/17/2021 4:00:00 PM 12.27 54.086 0.03 6.6 1.8 10.74
5/17/2021 4:15:00 PM 12.11 53.798 0.03 6.59 1.66 10.75
5/17/2021 4:30:00 PM 11.97 53.546 0.03 6.59 1.63 10.75
5/17/2021 4:45:00 PM 11.9 53.42 0.03 6.59 2.01 10.75
5/17/2021 5:00:00 PM 11.86 53.348 0.03 6.59 1.76 10.76
5/17/2021 5:15:00 PM 11.92 53.456 0.03 6.59 1.74 10.78
5/17/2021 5:30:00 PM 11.99 53.582 0.03 6.59 1.77 10.76
5/17/2021 5:45:00 PM 11.97 53.546 0.03 6.59 1.74 10.75
5/17/2021 6:00:00 PM 11.9 53.42 0.03 6.57 1.84 10.74
5/17/2021 6:15:00 PM 11.84 53.312 0.03 6.58 1.87 10.73
5/17/2021 6:30:00 PM 11.8 53.24 0.03 6.58 2.44 10.71
5/17/2021 6:45:00 PM 11.79 53.222 0.03 6.56 1.84 10.69
5/17/2021 7:00:00 PM 11.77 53.186 0.03 6.56 1.86 10.67
5/17/2021 7:15:00 PM 11.72 53.096 0.03 6.55 1.71 10.66
5/17/2021 7:30:00 PM 11.67 53.006 0.03 6.54 1.74 10.65
5/17/2021 7:45:00 PM 11.61 52.898 0.03 6.53 1.71 10.64
5/17/2021 8:00:00 PM 11.55 52.79 0.03 6.52 1.85 10.63
5/17/2021 8:15:00 PM 11.49 52.682 0.03 6.51 1.77 10.63
5/17/2021 8:30:00 PM 11.44 52.592 0.03 6.49 4.18 10.62
5/17/2021 8:45:00 PM 11.39 52.502 0.03 6.49 1.9 10.63
5/17/2021 9:00:00 PM 11.34 52.412 0.03 6.49 1.84 10.63
5/17/2021 9:15:00 PM 11.28 52.304 0.03 6.49 1.9 10.65
5/17/2021 9:30:00 PM 11.22 52.196 0.03 6.47 2.33 10.66
5/17/2021 9:45:00 PM 11.16 52.088 0.03 6.49 1.9 10.68
5/17/2021 10:00:00 PM 11.1 51.98 0.03 6.48 1.83 10.69
5/17/2021 10:15:00 PM 11.04 51.872 0.031 6.49 1.89 10.71
5/17/2021 10:30:00 PM 10.98 51.764 0.03 6.5 2.13 10.73
5/17/2021 10:45:00 PM 10.92 51.656 0.03 6.48 1.83 10.75
5/17/2021 11:00:00 PM 10.86 51.548 0.031 6.49 2.26 10.76
5/17/2021 11:15:00 PM 10.8 51.44 0.031 6.49 1.96 10.78
5/17/2021 11:30:00 PM 10.75 51.35 0.031 6.48 1.89 10.79
5/17/2021 11:45:00 PM 10.69 51.242 0.031 6.49 1.88 10.81
5/18/2021 12:00:00 AM 10.64 51.152 0.031 6.49 2.05 10.83
5/18/2021 12:15:00 AM 10.58 51.044 0.031 6.48 1.89 10.84
5/18/2021 12:30:00 AM 10.52 50.936 0.031 6.48 2.78 10.86
5/18/2021 12:45:00 AM 10.46 50.828 0.031 6.49 1.89 10.88
5/18/2021 1:00:00 AM 10.41 50.738 0.031 6.48 1.93 10.89
5/18/2021 1:15:00 AM 10.35 50.63 0.031 6.48 1.89 10.9
5/18/2021 1:30:00 AM 10.3 50.54 0.031 6.49 1.89 10.91
5/18/2021 1:45:00 AM 10.24 50.432 0.031 6.48 2.04 10.93
5/18/2021 2:00:00 AM 10.18 50.324 0.031 6.48 1.86 10.95
5/18/2021 2:15:00 AM 10.13 50.234 0.031 6.49 2.14 10.96
5/18/2021 2:30:00 AM 10.07 50.126 0.031 6.48 1.86 10.98
5/18/2021 2:45:00 AM 10.02 50.036 0.031 6.48 5.38 10.99
5/18/2021 3:00:00 AM 9.97 49.946 0.031 6.48 2.27 11.01
5/18/2021 3:15:00 AM 9.91 49.838 0.031 6.48 1.99 11.02
5/18/2021 3:30:00 AM 9.86 49.748 0.031 6.47 2.44 11.03
5/18/2021 3:45:00 AM 9.81 49.658 0.031 6.48 2.28 11.05
5/18/2021 4:00:00 AM 9.75 49.55 0.031 6.48 1.89 11.07
5/18/2021 4:15:00 AM 9.69 49.442 0.031 6.47 2.33 11.08
5/18/2021 4:30:00 AM 9.64 49.352 0.031 6.49 2.02 11.09
5/18/2021 4:45:00 AM 9.59 49.262 0.031 6.47 2 11.11
5/18/2021 5:00:00 AM 9.53 49.154 0.031 6.48 5.53 11.12
5/18/2021 5:15:00 AM 9.48 49.064 0.031 6.48 1.87 11.14
5/18/2021 5:30:00 AM 9.42 48.956 0.031 6.48 2.82 11.16
5/18/2021 5:45:00 AM 9.37 48.866 0.031 6.49 4.13 11.18
5/18/2021 6:00:00 AM 9.32 48.776 0.031 6.49 5.02 11.2
5/18/2021 6:15:00 AM 9.27 48.686 0.031 6.48 2.63 11.22
5/18/2021 6:30:00 AM 9.22 48.596 0.031 6.49 1.93 11.26
5/18/2021 6:45:00 AM 9.18 48.524 0.031 6.49 1.82 11.29
5/18/2021 7:00:00 AM 9.14 48.452 0.031 6.5 2.19 11.31
5/18/2021 7:15:00 AM 9.11 48.398 0.031 6.51 3.51 11.34
5/18/2021 7:30:00 AM 9.09 48.362 0.031 6.5 2.41 11.37
5/18/2021 7:45:00 AM 9.08 48.344 0.031 6.52 1.95 11.4
5/18/2021 8:00:00 AM 9.09 48.362 0.031 6.53 1.73 11.42
5/18/2021 8:15:00 AM 9.1 48.38 0.031 6.53 2.25 11.43
5/18/2021 8:30:00 AM 9.13 48.434 0.031 6.53 1.78 11.45
5/18/2021 8:45:00 AM 9.17 48.506 0.031 6.54 2.22 11.45
5/18/2021 9:00:00 AM 9.23 48.614 0.031 6.54 1.96 11.46
5/18/2021 9:15:00 AM 9.3 48.74 0.031 6.54 5.23 11.44
5/18/2021 9:30:00 AM 9.4 48.92 0.03 6.54 1.82 11.44
5/18/2021 9:45:00 AM 9.53 49.154 0.03 6.56 2.08 11.43
5/18/2021 10:00:00 AM 9.66 49.388 0.03 6.56 1.74 11.41
5/18/2021 10:15:00 AM 9.81 49.658 0.03 6.56 1.66 11.38
5/18/2021 10:30:00 AM -99999.99 -179968 -99999.99 -99999.99 -99999.99 -99999.99
5/18/2021 10:45:00 AM 10.16 50.288 0.03 6.57 1.75 11.32
5/18/2021 11:00:00 AM 10.34 50.612 0.03 6.59 1.82 11.28
5/18/2021 11:15:00 AM 10.54 50.972 0.03 6.58 1.84 11.24
5/18/2021 11:30:00 AM 10.75 51.35 0.03 6.59 1.66 11.19
5/18/2021 11:45:00 AM 10.97 51.746 0.03 6.59 1.61 11.14
5/18/2021 12:00:00 PM 11.21 52.178 0.03 6.6 1.75 11.08
5/18/2021 12:15:00 PM 11.48 52.664 0.03 6.6 1.72 11.03
5/18/2021 12:30:00 PM 11.75 53.15 0.03 6.6 1.77 10.97
5/18/2021 12:45:00 PM 12.02 53.636 0.03 6.61 1.74 10.91
5/18/2021 1:00:00 PM 12.28 54.104 0.03 6.61 1.66 10.86
5/18/2021 1:15:00 PM 12.56 54.608 0.03 6.61 1.58 10.79
5/18/2021 1:30:00 PM 12.6 54.68 0.03 6.61 1.66 10.75
5/18/2021 1:45:00 PM 12.92 55.256 0.03 6.62 1.6 10.71
5/18/2021 2:00:00 PM 13.2 55.76 0.03 6.62 1.68 10.63
5/18/2021 2:15:00 PM 13.4 56.12 0.03 6.62 2.8 10.59
5/18/2021 2:30:00 PM 13.6 56.48 0.03 6.63 1.66 10.54
5/18/2021 2:45:00 PM 13.76 56.768 0.03 6.62 1.63 10.49
5/18/2021 3:00:00 PM 13.9 57.02 0.03 6.63 2.22 10.45
5/18/2021 3:15:00 PM 14.02 57.236 0.03 6.63 1.63 10.41
5/18/2021 3:30:00 PM 14.06 57.308 0.03 6.63 1.58 10.39
5/18/2021 3:45:00 PM 14.06 57.308 0.03 6.61 1.59 10.36
5/18/2021 4:00:00 PM 14.1 57.38 0.03 6.62 1.81 10.34
5/18/2021 4:15:00 PM 14.02 57.236 0.03 6.62 1.62 10.33
5/18/2021 4:30:00 PM 14 57.2 0.03 6.62 1.72 10.32
5/18/2021 4:45:00 PM 13.93 57.074 0.03 6.61 1.59 10.3
5/18/2021 5:00:00 PM 13.87 56.966 0.03 6.61 2.48 10.31
5/18/2021 5:15:00 PM 13.8 56.84 0.03 6.61 3.32 10.32
5/18/2021 5:30:00 PM 13.68 56.624 0.03 6.61 1.78 10.31
5/18/2021 5:45:00 PM 13.58 56.444 0.03 6.6 1.77 10.32
5/18/2021 6:00:00 PM 13.52 56.336 0.03 6.59 1.62 10.32
5/18/2021 6:15:00 PM 13.44 56.192 0.03 6.59 1.68 10.33
5/18/2021 6:30:00 PM 13.37 56.066 0.03 6.59 1.65 10.33
5/18/2021 6:45:00 PM 13.29 55.922 0.031 6.57 1.71 10.32
5/18/2021 7:00:00 PM 13.21 55.778 0.031 6.57 1.71 10.32
5/18/2021 7:15:00 PM 13.13 55.634 0.031 6.56 2.04 10.3
5/18/2021 7:30:00 PM 13.05 55.49 0.031 6.55 1.55 10.29
5/18/2021 7:45:00 PM 12.96 55.328 0.031 6.54 1.65 10.29
5/18/2021 8:00:00 PM 12.88 55.184 0.031 6.52 5.84 10.29
5/18/2021 8:15:00 PM 12.81 55.058 0.031 6.51 2.47 10.29
5/18/2021 8:30:00 PM 12.74 54.932 0.031 6.51 1.73 10.29
5/18/2021 8:45:00 PM 12.67 54.806 0.031 6.5 8.81 10.29
5/18/2021 9:00:00 PM 12.61 54.698 0.031 6.5 1.7 10.29
5/18/2021 9:15:00 PM 12.54 54.572 0.031 6.49 2.99 10.3
5/18/2021 9:30:00 PM 12.48 54.464 0.031 6.5 2.46 10.32
5/18/2021 9:45:00 PM 12.42 54.356 0.031 6.49 1.97 10.33
5/18/2021 10:00:00 PM 12.35 54.23 0.031 6.49 3.58 10.35
5/18/2021 10:15:00 PM 12.29 54.122 0.031 6.5 1.98 10.37
5/18/2021 10:30:00 PM 12.22 53.996 0.031 6.5 1.97 10.39
5/18/2021 10:45:00 PM 12.16 53.888 0.031 6.5 1.81 10.4
5/18/2021 11:00:00 PM 12.09 53.762 0.031 6.5 3.59 10.41
5/18/2021 11:15:00 PM 12.03 53.654 0.031 6.5 1.79 10.43
5/18/2021 11:30:00 PM 11.96 53.528 0.031 6.49 1.85 10.46
5/18/2021 11:45:00 PM 11.89 53.402 0.031 6.49 1.82 10.48
5/19/2021 12:00:00 AM 11.82 53.276 0.031 6.49 1.84 10.5
5/19/2021 12:15:00 AM 11.76 53.168 0.031 6.5 1.88 10.52
5/19/2021 12:30:00 AM 11.69 53.042 0.031 6.49 1.82 10.53
5/19/2021 12:45:00 AM 11.62 52.916 0.031 6.49 2.53 10.55
5/19/2021 1:00:00 AM 11.55 52.79 0.031 6.5 3.1 10.56
5/19/2021 1:15:00 AM 11.48 52.664 0.031 6.5 1.91 10.58
5/19/2021 1:30:00 AM 11.42 52.556 0.031 6.49 1.87 10.6
5/19/2021 1:45:00 AM 11.35 52.43 0.031 6.5 2.13 10.61
5/19/2021 2:00:00 AM 11.28 52.304 0.031 6.49 1.85 10.63
5/19/2021 2:15:00 AM 11.22 52.196 0.031 6.49 1.88 10.65
5/19/2021 2:30:00 AM 11.15 52.07 0.031 6.5 1.88 10.66
5/19/2021 2:45:00 AM 11.09 51.962 0.031 6.49 1.88 10.69
5/19/2021 3:00:00 AM 11.02 51.836 0.031 6.49 1.86 10.7
5/19/2021 3:15:00 AM 10.96 51.728 0.031 6.49 1.84 10.72
5/19/2021 3:30:00 AM 10.89 51.602 0.031 6.49 1.92 10.73
5/19/2021 3:45:00 AM 10.83 51.494 0.031 6.5 1.91 10.75
5/19/2021 4:00:00 AM 10.77 51.386 0.031 6.49 1.77 10.77
5/19/2021 4:15:00 AM 10.71 51.278 0.031 6.49 1.95 10.79
5/19/2021 4:30:00 AM 10.65 51.17 0.031 6.49 1.84 10.8
5/19/2021 4:45:00 AM 10.59 51.062 0.031 6.49 1.8 10.82
5/19/2021 5:00:00 AM 10.53 50.954 0.031 6.5 1.74 10.84
5/19/2021 5:15:00 AM 10.47 50.846 0.031 6.49 1.88 10.86
5/19/2021 5:30:00 AM 10.41 50.738 0.031 6.49 1.87 10.87
5/19/2021 5:45:00 AM 10.35 50.63 0.031 6.48 1.92 10.89
5/19/2021 6:00:00 AM 10.29 50.522 0.031 6.48 1.86 10.92
5/19/2021 6:15:00 AM 10.24 50.432 0.031 6.49 1.83 10.95
5/19/2021 6:30:00 AM 10.19 50.342 0.031 6.49 1.77 10.98
5/19/2021 6:45:00 AM 10.15 50.27 0.031 6.51 1.83 11.02
5/19/2021 7:00:00 AM 10.1 50.18 0.031 6.51 1.73 11.05
5/19/2021 7:15:00 AM 10.07 50.126 0.031 6.51 1.69 11.07
5/19/2021 7:30:00 AM 10.05 50.09 0.031 6.5 1.86 11.1
5/19/2021 7:45:00 AM 10.05 50.09 0.031 6.53 2.07 11.13
5/19/2021 8:00:00 AM 10.05 50.09 0.031 6.53 1.89 11.15
5/19/2021 8:15:00 AM 10.07 50.126 0.031 6.54 2.36 11.17
5/19/2021 8:30:00 AM 10.1 50.18 0.031 6.54 1.77 11.18
5/19/2021 8:45:00 AM 10.14 50.252 0.031 6.55 1.83 11.2
5/19/2021 9:00:00 AM 10.2 50.36 0.031 6.55 1.66 11.2
5/19/2021 9:15:00 AM 10.27 50.486 0.031 6.56 1.74 11.19
5/19/2021 9:30:00 AM 10.37 50.666 0.031 6.55 1.81 11.18
5/19/2021 9:45:00 AM 10.49 50.882 0.031 6.56 1.84 11.18
5/19/2021 10:00:00 AM 10.62 51.116 0.031 6.57 1.66 11.16
5/19/2021 10:15:00 AM 10.77 51.386 0.031 6.57 1.78 11.14
5/19/2021 10:30:00 AM 10.92 51.656 0.031 6.58 1.74 11.11
5/19/2021 10:45:00 AM 11.1 51.98 0.031 6.59 1.72 11.09
5/19/2021 11:00:00 AM 11.28 52.304 0.031 6.6 1.77 11.05
5/19/2021 11:15:00 AM 11.49 52.682 0.031 6.59 1.72 11.01
5/19/2021 11:30:00 AM 11.69 53.042 0.031 6.6 1.91 10.97
5/19/2021 11:45:00 AM 11.92 53.456 0.031 6.61 1.62 10.91
5/19/2021 12:00:00 PM 12.16 53.888 0.031 6.61 1.64 10.87
5/19/2021 12:15:00 PM 12.41 54.338 0.031 6.63 1.76 10.82
5/19/2021 12:30:00 PM 12.67 54.806 0.031 6.62 1.6 10.77
5/19/2021 12:45:00 PM 12.93 55.274 0.031 6.63 1.59 10.72
5/19/2021 1:00:00 PM 13.21 55.778 0.031 6.62 1.71 10.66
5/19/2021 1:15:00 PM 13.48 56.264 0.031 6.64 1.66 10.6
5/19/2021 1:30:00 PM 13.73 56.714 0.031 6.65 1.62 10.55
5/19/2021 1:45:00 PM 13.96 57.128 0.031 6.65 3.09 10.5
5/19/2021 2:00:00 PM 14.14 57.452 0.031 6.66 1.69 10.46
5/19/2021 2:15:00 PM 14.32 57.776 0.031 6.65 1.61 10.41
5/19/2021 2:30:00 PM 14.46 58.028 0.031 6.67 2.06 10.37
5/19/2021 2:45:00 PM 14.62 58.316 0.031 6.66 1.53 10.33
5/19/2021 3:00:00 PM 14.72 58.496 0.031 6.67 1.94 10.3
5/19/2021 3:15:00 PM 14.82 58.676 0.031 6.66 1.65 10.26
5/19/2021 3:30:00 PM 14.88 58.784 0.031 6.66 1.62 10.23
5/19/2021 3:45:00 PM 14.94 58.892 0.031 6.66 1.83 10.21
5/19/2021 4:00:00 PM 14.96 58.928 0.031 6.66 1.78 10.18
5/19/2021 4:15:00 PM 14.98 58.964 0.031 6.66 1.98 10.17
5/19/2021 4:30:00 PM 14.95 58.91 0.031 6.66 1.46 10.16
5/19/2021 4:45:00 PM 14.91 58.838 0.031 6.64 1.82 10.15
5/19/2021 5:00:00 PM 14.86 58.748 0.031 6.64 2.05 10.14
5/19/2021 5:15:00 PM 14.8 58.64 0.031 6.64 1.75 10.14
5/19/2021 5:30:00 PM 14.74 58.532 0.031 6.63 1.57 10.14
5/19/2021 5:45:00 PM 14.69 58.442 0.031 6.63 1.72 10.14
5/19/2021 6:00:00 PM 14.64 58.352 0.031 6.63 1.64 10.14
5/19/2021 6:15:00 PM 14.56 58.208 0.031 6.62 1.77 10.13
5/19/2021 6:30:00 PM 14.49 58.082 0.031 6.61 1.8 10.13
5/19/2021 6:45:00 PM 14.41 57.938 0.031 6.61 1.73 10.13
5/19/2021 7:00:00 PM 14.31 57.758 0.031 6.61 1.81 10.13
5/19/2021 7:15:00 PM 14.21 57.578 0.031 6.58 1.61 10.12
5/19/2021 7:30:00 PM 14.11 57.398 0.031 6.57 1.65 10.09
5/19/2021 7:45:00 PM 14.02 57.236 0.031 6.55 1.64 10.07
5/19/2021 8:00:00 PM 13.94 57.092 0.032 6.54 1.59 10.05
5/19/2021 8:15:00 PM 13.86 56.948 0.032 6.53 1.56 10.04
5/19/2021 8:30:00 PM 13.77 56.786 0.032 6.53 1.53 10.04
5/19/2021 8:45:00 PM 13.69 56.642 0.032 6.51 1.53 10.04
5/19/2021 9:00:00 PM 13.61 56.498 0.032 6.5 1.58 10.05
5/19/2021 9:15:00 PM 13.55 56.39 0.032 6.51 1.85 10.06
5/19/2021 9:30:00 PM 13.48 56.264 0.032 6.49 1.87 10.07
5/19/2021 9:45:00 PM 13.41 56.138 0.032 6.5 1.81 10.08
5/19/2021 10:00:00 PM 13.35 56.03 0.032 6.5 4.39 10.1
5/19/2021 10:15:00 PM 13.29 55.922 0.032 6.51 1.67 10.12
5/19/2021 10:30:00 PM 13.23 55.814 0.032 6.49 1.86 10.13
5/19/2021 10:45:00 PM 13.16 55.688 0.032 6.49 1.75 10.15
5/19/2021 11:00:00 PM 13.11 55.598 0.032 6.5 2.38 10.17
5/19/2021 11:15:00 PM 13.04 55.472 0.032 6.5 1.73 10.18
5/19/2021 11:30:00 PM 12.98 55.364 0.032 6.49 1.88 10.2
5/19/2021 11:45:00 PM 12.92 55.256 0.032 6.5 1.7 10.21
5/20/2021 12:00:00 AM 12.86 55.148 0.032 6.49 1.73 10.23
5/20/2021 12:15:00 AM 12.8 55.04 0.032 6.5 1.88 10.24
5/20/2021 12:30:00 AM 12.73 54.914 0.032 6.49 1.71 10.26
5/20/2021 12:45:00 AM 12.67 54.806 0.032 6.5 1.76 10.28
5/20/2021 1:00:00 AM 12.61 54.698 0.032 6.49 1.82 10.28
5/20/2021 1:15:00 AM 12.55 54.59 0.032 6.51 1.71 10.32
5/20/2021 1:30:00 AM 12.48 54.464 0.032 6.49 1.74 10.32
5/20/2021 1:45:00 AM 12.41 54.338 0.032 6.5 2 10.34
5/20/2021 2:00:00 AM 12.35 54.23 0.032 6.5 2.01 10.35
5/20/2021 2:15:00 AM 12.28 54.104 0.032 6.5 1.74 10.37
5/20/2021 2:30:00 AM 12.22 53.996 0.032 6.5 2.08 10.39
5/20/2021 2:45:00 AM 12.16 53.888 0.032 6.5 1.85 10.42
5/20/2021 3:00:00 AM 12.1 53.78 0.032 6.5 2.63 10.44
5/20/2021 3:15:00 AM 12.04 53.672 0.032 6.5 2.13 10.45
5/20/2021 3:30:00 AM 11.97 53.546 0.032 6.49 1.7 10.46
5/20/2021 3:45:00 AM 11.91 53.438 0.032 6.5 1.84 10.48
5/20/2021 4:00:00 AM 11.86 53.348 0.032 6.5 2.17 10.49
5/20/2021 4:15:00 AM 11.81 53.258 0.032 6.5 1.84 10.5
5/20/2021 4:30:00 AM 11.76 53.168 0.032 6.5 1.84 10.52
5/20/2021 4:45:00 AM 11.7 53.06 0.032 6.5 2.46 10.53
5/20/2021 5:00:00 AM 11.65 52.97 0.032 6.5 2.6 10.55
5/20/2021 5:15:00 AM 11.6 52.88 0.032 6.49 1.96 10.55
5/20/2021 5:30:00 AM 11.55 52.79 0.032 6.5 1.83 10.58
5/20/2021 5:45:00 AM 11.49 52.682 0.032 6.5 4.56 10.59
5/20/2021 6:00:00 AM 11.44 52.592 0.032 6.5 2.05 10.6
5/20/2021 6:15:00 AM 11.39 52.502 0.032 6.5 1.81 10.64
5/20/2021 6:30:00 AM 11.35 52.43 0.032 6.5 1.68 10.67
5/20/2021 6:45:00 AM 11.31 52.358 0.032 6.51 1.88 10.71
5/20/2021 7:00:00 AM 11.28 52.304 0.032 6.52 1.83 10.74
5/20/2021 7:15:00 AM 11.24 52.232 0.032 6.52 1.69 10.76
5/20/2021 7:30:00 AM 11.23 52.214 0.032 6.54 1.95 10.81
5/20/2021 7:45:00 AM 11.24 52.232 0.032 6.54 2.53 10.84
5/20/2021 8:00:00 AM 11.25 52.25 0.032 6.56 1.88 10.88
5/20/2021 8:15:00 AM 11.27 52.286 0.032 6.56 2.45 10.88
5/20/2021 8:30:00 AM 11.29 52.322 0.032 6.55 1.65 10.9
5/20/2021 8:45:00 AM 11.33 52.394 0.032 6.56 1.99 10.9
5/20/2021 9:00:00 AM 11.38 52.484 0.032 6.56 3 10.91
5/20/2021 9:15:00 AM 11.46 52.628 0.032 6.57 1.63 10.91
5/20/2021 9:30:00 AM 11.55 52.79 0.032 6.57 1.81 10.9
5/20/2021 9:45:00 AM 11.66 52.988 0.032 6.58 1.87 10.91
5/20/2021 10:00:00 AM 11.78 53.204 0.032 6.59 2.54 10.89
5/20/2021 10:15:00 AM 11.92 53.456 0.032 6.59 1.78 10.88
5/20/2021 10:30:00 AM 12.06 53.708 0.032 6.61 1.63 10.85
5/20/2021 10:45:00 AM 12.22 53.996 0.032 6.61 1.61 10.83
5/20/2021 11:00:00 AM 12.4 54.32 0.032 6.61 2.26 10.79
5/20/2021 11:15:00 AM 12.59 54.662 0.032 6.62 1.58 10.76
5/20/2021 11:30:00 AM 12.79 55.022 0.032 6.61 1.67 10.72
5/20/2021 11:45:00 AM 13.01 55.418 0.032 6.63 2.12 10.68
5/20/2021 12:00:00 PM 13.26 55.868 0.032 6.64 2.21 10.63
5/20/2021 12:15:00 PM 13.52 56.336 0.032 6.64 2.88 10.58
5/20/2021 12:30:00 PM 13.79 56.822 0.032 6.64 1.69 10.53
5/20/2021 12:45:00 PM 14.06 57.308 0.032 6.65 1.7 10.48
5/20/2021 1:00:00 PM 14.33 57.794 0.032 6.65 1.52 10.42
5/20/2021 1:15:00 PM 14.59 58.262 0.031 6.67 1.45 10.37
5/20/2021 1:30:00 PM 14.85 58.73 0.031 6.66 6.28 10.33
5/20/2021 1:45:00 PM 15.11 59.198 0.031 6.67 2.6 10.27
5/20/2021 2:00:00 PM 15.34 59.612 0.031 6.66 2.43 10.22
5/20/2021 2:15:00 PM 15.53 59.954 0.031 6.68 1.57 10.18
5/20/2021 2:30:00 PM 15.68 60.224 0.031 6.68 1.41 10.14
5/20/2021 2:45:00 PM 15.83 60.494 0.031 6.68 3.29 10.1
5/20/2021 3:00:00 PM 15.92 60.656 0.031 6.67 1.55 10.07
5/20/2021 3:15:00 PM 16.01 60.818 0.031 6.69 1.77 10.04
5/20/2021 3:30:00 PM 16.03 60.854 0.031 6.69 2.18 10.03
5/20/2021 3:45:00 PM 16.07 60.926 0.031 6.68 7.17 10
5/20/2021 4:00:00 PM 16.11 60.998 0.031 6.69 1.5 9.97
5/20/2021 4:15:00 PM 16.11 60.998 0.031 6.68 1.52 9.95
5/20/2021 4:30:00 PM 16.09 60.962 0.031 6.7 1.43 9.94
5/20/2021 4:45:00 PM 16.07 60.926 0.031 6.7 1.68 9.94
5/20/2021 5:00:00 PM 16.04 60.872 0.032 6.69 1.5 9.92
5/20/2021 5:15:00 PM 15.96 60.728 0.032 6.67 4.37 9.91
5/20/2021 5:30:00 PM 15.89 60.602 0.032 6.66 1.74 9.89
5/20/2021 5:45:00 PM 15.81 60.458 0.032 6.63 2.4 9.87
5/20/2021 6:00:00 PM 15.72 60.296 0.032 6.64 1.67 9.88
5/20/2021 6:15:00 PM 15.63 60.134 0.032 6.63 1.6 9.87
5/20/2021 6:30:00 PM 15.53 59.954 0.032 6.62 1.45 9.88
5/20/2021 6:45:00 PM 15.43 59.774 0.032 6.61 1.55 9.87
5/20/2021 7:00:00 PM 15.32 59.576 0.032 6.63 1.51 9.87
5/20/2021 7:15:00 PM 15.22 59.396 0.032 6.6 1.63 9.85
5/20/2021 7:30:00 PM 15.12 59.216 0.032 6.6 1.77 9.84
5/20/2021 7:45:00 PM 15.01 59.018 0.032 6.59 1.48 9.84
5/20/2021 8:00:00 PM 14.89 58.802 0.032 6.55 7.9 9.83
5/20/2021 8:15:00 PM 14.78 58.604 0.032 6.56 1.65 9.83
5/20/2021 8:30:00 PM 14.68 58.424 0.032 6.53 1.49 9.82
5/20/2021 8:45:00 PM 14.58 58.244 0.033 6.54 1.58 9.82
5/20/2021 9:00:00 PM 14.48 58.064 0.033 6.51 1.78 9.82
5/20/2021 9:15:00 PM 14.4 57.92 0.033 6.52 1.77 9.84
5/20/2021 9:30:00 PM 14.32 57.776 0.033 6.52 1.59 9.86
5/20/2021 9:45:00 PM 14.25 57.65 0.033 6.52 6.71 9.89
5/20/2021 10:00:00 PM 14.18 57.524 0.033 6.51 1.61 9.89
5/20/2021 10:15:00 PM 14.1 57.38 0.033 6.51 1.77 9.91
5/20/2021 10:30:00 PM 14.03 57.254 0.033 6.51 2.49 9.93
5/20/2021 10:45:00 PM 13.97 57.146 0.033 6.49 2.57 9.95
5/20/2021 11:00:00 PM 13.9 57.02 0.033 6.51 2.04 9.96
5/20/2021 11:15:00 PM 13.83 56.894 0.033 6.5 1.94 9.97
5/20/2021 11:30:00 PM 13.77 56.786 0.033 6.5 1.66 9.99
5/20/2021 11:45:00 PM 13.7 56.66 0.033 6.51 1.94 10.01
5/21/2021 12:00:00 AM 13.64 56.552 0.033 6.5 2.14 10.01
5/21/2021 12:15:00 AM 13.58 56.444 0.033 6.49 1.65 10.04
5/21/2021 12:30:00 AM 13.52 56.336 0.033 6.51 1.68 10.07
5/21/2021 12:45:00 AM 13.45 56.21 0.033 6.51 1.61 10.07
5/21/2021 1:00:00 AM 13.39 56.102 0.033 6.51 2.25 10.09
5/21/2021 1:15:00 AM 13.34 56.012 0.033 6.49 4.59 10.1
5/21/2021 1:30:00 AM 13.28 55.904 0.033 6.52 1.75 10.13
5/21/2021 1:45:00 AM 13.21 55.778 0.033 6.5 1.83 10.14
5/21/2021 2:00:00 AM 13.15 55.67 0.033 6.5 10.06 10.16
5/21/2021 2:15:00 AM 13.08 55.544 0.033 6.51 1.68 10.18
5/21/2021 2:30:00 AM 13.02 55.436 0.033 6.51 2.21 10.19
5/21/2021 2:45:00 AM 12.96 55.328 0.033 6.52 1.91 10.21
5/21/2021 3:00:00 AM 12.9 55.22 0.033 6.5 1.75 10.21
5/21/2021 3:15:00 AM 12.84 55.112 0.033 6.51 1.69 10.23
5/21/2021 3:30:00 AM 12.77 54.986 0.033 6.51 1.67 10.25
5/21/2021 3:45:00 AM 12.71 54.878 0.033 6.49 1.66 10.25
5/21/2021 4:00:00 AM 12.65 54.77 0.033 6.48 2.72 10.27
5/21/2021 4:15:00 AM 12.59 54.662 0.033 6.49 1.8 10.3
5/21/2021 4:30:00 AM 12.53 54.554 0.033 6.51 1.73 10.31
5/21/2021 4:45:00 AM 12.47 54.446 0.033 6.5 1.95 10.33
5/21/2021 5:00:00 AM 12.41 54.338 0.033 6.5 1.86 10.34
5/21/2021 5:15:00 AM 12.35 54.23 0.033 6.5 1.92 10.35
5/21/2021 5:30:00 AM 12.3 54.14 0.033 6.51 2.6 10.38
5/21/2021 5:45:00 AM 12.24 54.032 0.033 6.5 1.72 10.39
5/21/2021 6:00:00 AM 12.19 53.942 0.033 6.51 2.8 10.4
5/21/2021 6:15:00 AM 12.13 53.834 0.033 6.53 1.67 10.45
5/21/2021 6:30:00 AM 12.09 53.762 0.033 6.52 1.73 10.47
5/21/2021 6:45:00 AM 12.05 53.69 0.033 6.52 2.41 10.52
5/21/2021 7:00:00 AM 12.01 53.618 0.033 6.5 1.66 10.53
5/21/2021 7:15:00 AM 11.98 53.564 0.033 6.52 1.56 10.57
5/21/2021 7:30:00 AM 11.98 53.564 0.033 6.55 1.55 10.61
5/21/2021 7:45:00 AM 11.98 53.564 0.033 6.53 1.64 10.64
5/21/2021 8:00:00 AM 11.98 53.564 0.033 6.54 1.71 10.65
5/21/2021 8:15:00 AM 12.01 53.618 0.033 6.58 1.7 10.7
5/21/2021 8:30:00 AM 12.04 53.672 0.033 6.56 1.66 10.71
5/21/2021 8:45:00 AM 12.07 53.726 0.033 6.56 2.72 10.73
5/21/2021 9:00:00 AM 12.13 53.834 0.033 6.58 1.5 10.73
5/21/2021 9:15:00 AM 12.19 53.942 0.033 6.58 1.73 10.73
5/21/2021 9:30:00 AM 12.29 54.122 0.033 6.58 1.78 10.71
5/21/2021 9:45:00 AM 12.4 54.32 0.033 6.59 6.01 10.73
5/21/2021 10:00:00 AM 12.52 54.536 0.032 6.6 1.72 10.72
5/21/2021 10:15:00 AM 12.66 54.788 0.032 6.62 1.59 10.71
5/21/2021 10:30:00 AM 12.81 55.058 0.032 6.6 2.3 10.68
5/21/2021 10:45:00 AM 12.98 55.364 0.032 6.61 3.56 10.66
5/21/2021 11:00:00 AM 13.17 55.706 0.032 6.63 3.95 10.63
5/21/2021 11:15:00 AM 13.37 56.066 0.032 6.64 1.52 10.6
5/21/2021 11:30:00 AM 13.6 56.48 0.032 6.66 2.77 10.56
5/21/2021 11:45:00 AM 13.82 56.876 0.032 6.63 1.75 10.5
5/21/2021 12:00:00 PM 14.07 57.326 0.032 6.66 1.66 10.47
5/21/2021 12:15:00 PM 14.31 57.758 0.032 6.63 3.7 10.41
5/21/2021 12:30:00 PM 14.59 58.262 0.032 6.66 1.5 10.37
5/21/2021 12:45:00 PM 14.85 58.73 0.032 6.67 2.39 10.33
5/21/2021 1:00:00 PM 15.12 59.216 0.032 6.66 84.49 10.28
5/21/2021 1:15:00 PM 15.37 59.666 0.032 6.66 1.7 10.24
5/21/2021 1:30:00 PM 15.63 60.134 0.032 6.69 24.67 10.2
5/21/2021 1:45:00 PM 15.91 60.638 0.032 6.68 3.73 10.15
5/21/2021 2:00:00 PM 16.16 61.088 0.032 6.67 1.42 10.1
5/21/2021 2:15:00 PM 16.35 61.43 0.032 6.69 1.5 10.05
5/21/2021 2:30:00 PM 16.54 61.772 0.032 6.67 4.61 10.01
5/21/2021 2:45:00 PM 16.7 62.06 0.032 6.67 1.4 9.98
5/21/2021 3:00:00 PM 16.74 62.132 0.032 6.7 1.38 9.93
5/21/2021 3:15:00 PM 16.66 61.988 0.032 6.67 1.85 9.9
5/21/2021 3:30:00 PM 16.67 62.006 0.032 6.67 1.51 9.88
5/21/2021 3:45:00 PM 16.59 61.862 0.032 6.66 1.33 9.87
5/21/2021 4:00:00 PM 16.67 62.006 0.032 6.68 4.55 9.88
5/21/2021 4:15:00 PM 16.73 62.114 0.032 6.67 1.45 9.85
5/21/2021 4:30:00 PM 16.63 61.934 0.032 6.68 2.92 9.83
5/21/2021 4:45:00 PM 16.6 61.88 0.032 6.67 2.79 9.82
5/21/2021 5:00:00 PM 16.56 61.808 0.032 6.67 1.32 9.84
5/21/2021 5:15:00 PM 16.52 61.736 0.032 6.65 3.36 9.82
5/21/2021 5:30:00 PM 16.45 61.61 0.032 6.67 1.45 9.81
5/21/2021 5:45:00 PM 16.32 61.376 0.033 6.63 1.43 9.75
5/21/2021 6:00:00 PM 16.23 61.214 0.033 6.65 1.46 9.75
5/21/2021 6:15:00 PM 16.17 61.106 0.033 6.66 1.38 9.76
5/21/2021 6:30:00 PM 16.12 61.016 0.033 6.63 1.38 9.74
5/21/2021 6:45:00 PM 16.02 60.836 0.033 6.58 4.88 9.72
5/21/2021 7:00:00 PM 15.92 60.656 0.033 6.59 1.39 9.69
5/21/2021 7:15:00 PM 15.81 60.458 0.033 6.59 1.48 9.7
5/21/2021 7:30:00 PM 15.7 60.26 0.033 6.58 1.49 9.69
5/21/2021 7:45:00 PM 15.59 60.062 0.033 6.54 1.43 9.66
5/21/2021 8:00:00 PM 15.49 59.882 0.033 6.57 1.53 9.67
5/21/2021 8:15:00 PM 15.37 59.666 0.033 6.52 1.47 9.65
5/21/2021 8:30:00 PM 15.27 59.486 0.033 6.52 1.82 9.65
5/21/2021 8:45:00 PM 15.17 59.306 0.033 6.5 1.62 9.64
5/21/2021 9:00:00 PM 15.09 59.162 0.033 6.52 1.73 9.67
5/21/2021 9:15:00 PM 14.99 58.982 0.034 6.5 1.6 9.68
5/21/2021 9:30:00 PM 14.91 58.838 0.034 6.49 1.49 9.69
5/21/2021 9:45:00 PM 14.84 58.712 0.033 6.52 1.66 9.72
5/21/2021 10:00:00 PM 14.76 58.568 0.034 6.51 5.77 9.73
5/21/2021 10:15:00 PM 14.68 58.424 0.034 6.5 2.53 9.74
5/21/2021 10:30:00 PM 14.62 58.316 0.034 6.51 2.15 9.76
5/21/2021 10:45:00 PM 14.55 58.19 0.034 6.49 7.63 9.77
5/21/2021 11:00:00 PM 14.48 58.064 0.034 6.51 5.34 9.8
5/21/2021 11:15:00 PM 14.43 57.974 0.034 6.5 3.21 9.8
5/21/2021 11:30:00 PM 14.36 57.848 0.034 6.5 2.13 9.81
5/21/2021 11:45:00 PM 14.32 57.776 0.034 6.49 4.46 9.83
5/22/2021 12:00:00 AM 14.26 57.668 0.034 6.52 1.99 9.85
5/22/2021 12:15:00 AM 14.21 57.578 0.034 6.5 1.72 9.85
5/22/2021 12:30:00 AM 14.15 57.47 0.034 6.52 1.57 9.88
5/22/2021 12:45:00 AM 14.08 57.344 0.034 6.48 1.99 9.86
5/22/2021 1:00:00 AM 14.02 57.236 0.034 6.51 1.57 9.89
5/22/2021 1:15:00 AM 13.97 57.146 0.034 6.52 7.67 9.92
5/22/2021 1:30:00 AM 13.9 57.02 0.034 6.48 1.54 9.89
5/22/2021 1:45:00 AM 13.85 56.93 0.034 6.5 1.76 9.92
5/22/2021 2:00:00 AM 13.8 56.84 0.034 6.51 1.58 9.95
5/22/2021 2:15:00 AM 13.75 56.75 0.034 6.52 3.81 9.98
5/22/2021 2:30:00 AM 13.68 56.624 0.034 6.5 1.68 9.97
5/22/2021 2:45:00 AM 13.63 56.534 0.034 6.51 3.67 9.99
5/22/2021 3:00:00 AM 13.57 56.426 0.034 6.52 2.48 10
5/22/2021 3:15:00 AM 13.51 56.318 0.034 6.48 1.75 10
5/22/2021 3:30:00 AM 13.46 56.228 0.034 6.51 1.71 10.03
5/22/2021 3:45:00 AM 13.41 56.138 0.033 6.53 1.77 10.06
5/22/2021 4:00:00 AM 13.33 55.994 0.034 6.49 1.52 10.04
5/22/2021 4:15:00 AM 13.28 55.904 0.034 6.47 2.65 10.05
5/22/2021 4:30:00 AM 13.22 55.796 0.034 6.49 2.09 10.08
5/22/2021 4:45:00 AM 13.17 55.706 0.034 6.5 1.66 10.08
5/22/2021 5:00:00 AM 13.11 55.598 0.034 6.48 1.65 10.09
5/22/2021 5:15:00 AM 13.06 55.508 0.034 6.51 1.61 10.12
5/22/2021 5:30:00 AM 13 55.4 0.034 6.5 1.65 10.14
5/22/2021 5:45:00 AM 12.95 55.31 0.034 6.5 2.62 10.15
5/22/2021 6:00:00 AM 12.9 55.22 0.034 6.5 3.42 10.17
5/22/2021 6:15:00 AM 12.85 55.13 0.034 6.52 1.64 10.2
5/22/2021 6:30:00 AM 12.81 55.058 0.033 6.53 2.86 10.26
5/22/2021 6:45:00 AM 12.78 55.004 0.033 6.55 1.7 10.32
5/22/2021 7:00:00 AM 12.77 54.986 0.033 6.56 1.57 10.37
5/22/2021 7:15:00 AM 12.74 54.932 0.034 6.53 1.54 10.37
5/22/2021 7:30:00 AM 12.73 54.914 0.033 6.57 1.49 10.41
5/22/2021 7:45:00 AM 12.7 54.86 0.033 6.58 2.39 10.43
5/22/2021 8:00:00 AM 12.71 54.878 0.033 6.57 1.68 10.45
5/22/2021 8:15:00 AM 12.73 54.914 0.033 6.58 1.74 10.5
5/22/2021 8:30:00 AM 12.79 55.022 0.033 6.59 4.78 10.54
5/22/2021 8:45:00 AM 12.81 55.058 0.033 6.59 7.32 10.54
5/22/2021 9:00:00 AM 12.83 55.094 0.033 6.58 2.29 10.53
5/22/2021 9:15:00 AM 12.87 55.166 0.033 6.58 1.48 10.55
5/22/2021 9:30:00 AM 12.92 55.256 0.033 6.62 1.53 10.57
5/22/2021 9:45:00 AM 13.02 55.436 0.033 6.63 1.42 10.59
5/22/2021 10:00:00 AM 13.13 55.634 0.033 6.62 3.92 10.58
5/22/2021 10:15:00 AM 13.23 55.814 0.033 6.63 1.41 10.58
5/22/2021 10:30:00 AM 13.33 55.994 0.033 6.64 1.45 10.58
5/22/2021 10:45:00 AM 13.41 56.138 0.033 6.64 1.77 10.55
5/22/2021 11:00:00 AM 13.52 56.336 0.033 6.65 1.5 10.55
5/22/2021 11:15:00 AM 13.68 56.624 0.033 6.65 1.5 10.53
5/22/2021 11:30:00 AM 13.84 56.912 0.033 6.69 6.13 10.5
5/22/2021 11:45:00 AM 14.05 57.29 0.033 6.66 1.48 10.46
5/22/2021 12:00:00 PM 14.29 57.722 0.033 6.69 1.83 10.43
5/22/2021 12:15:00 PM 14.46 58.028 0.033 6.7 1.4 10.4
5/22/2021 12:30:00 PM 14.51 58.118 0.033 6.7 2.17 10.37
5/22/2021 12:45:00 PM 14.51 58.118 0.033 6.7 1.54 10.33
5/22/2021 1:00:00 PM 14.62 58.316 0.033 6.67 1.43 10.31
5/22/2021 1:15:00 PM 14.78 58.604 0.033 6.71 4.65 10.32
5/22/2021 1:30:00 PM 15.08 59.144 0.033 6.7 1.33 10.27
5/22/2021 1:45:00 PM 15.21 59.378 0.033 6.74 1.45 10.25
5/22/2021 2:00:00 PM 15.33 59.594 0.033 6.69 9.12 10.19
5/22/2021 2:15:00 PM 15.35 59.63 0.033 6.69 2.08 10.17
5/22/2021 2:30:00 PM 15.37 59.666 0.033 6.75 1.67 10.14
5/22/2021 2:45:00 PM 15.4 59.72 0.033 6.72 1.5 10.14
5/22/2021 3:00:00 PM 15.35 59.63 0.033 6.69 1.43 10.08
5/22/2021 3:15:00 PM 15.34 59.612 0.033 6.69 1.42 10.06
5/22/2021 3:30:00 PM 15.4 59.72 0.033 6.72 1.44 10.07
5/22/2021 3:45:00 PM 15.47 59.846 0.033 6.69 1.46 10.07
5/22/2021 4:00:00 PM 15.51 59.918 0.033 6.71 1.89 10.06
5/22/2021 4:15:00 PM 15.55 59.99 0.033 6.68 1.37 10.03
5/22/2021 4:30:00 PM 15.58 60.044 0.033 6.69 5.17 10.04
5/22/2021 4:45:00 PM 15.68 60.224 0.033 6.69 1.42 10.03
5/22/2021 5:00:00 PM 15.68 60.224 0.033 6.71 1.97 10
5/22/2021 5:15:00 PM 15.62 60.116 0.033 6.7 2.17 9.96
5/22/2021 5:30:00 PM 15.55 59.99 0.033 6.69 1.44 9.92
5/22/2021 5:45:00 PM 15.49 59.882 0.033 6.69 3.22 9.88
5/22/2021 6:00:00 PM 15.44 59.792 0.033 6.64 1.45 9.87
5/22/2021 6:15:00 PM 15.43 59.774 0.033 6.63 5.27 9.87
5/22/2021 6:30:00 PM 15.42 59.756 0.033 6.64 1.38 9.88
5/22/2021 6:45:00 PM 15.42 59.756 0.033 6.63 1.39 9.85
5/22/2021 7:00:00 PM 15.37 59.666 0.033 6.64 1.58 9.79
5/22/2021 7:15:00 PM 15.31 59.558 0.033 6.59 1.69 9.72
5/22/2021 7:30:00 PM 15.26 59.468 0.033 6.6 9.73 9.71
5/22/2021 7:45:00 PM 15.22 59.396 0.033 6.59 1.58 9.72
5/22/2021 8:00:00 PM 15.15 59.27 0.034 6.61 1.38 9.69
5/22/2021 8:15:00 PM 15.1 59.18 0.034 6.57 8.32 9.68
5/22/2021 8:30:00 PM 15.05 59.09 0.034 6.59 2.22 9.66
5/22/2021 8:45:00 PM 14.99 58.982 0.034 6.57 1.37 9.64
5/22/2021 9:00:00 PM 14.94 58.892 0.034 6.55 6.88 9.63
5/22/2021 9:15:00 PM 14.88 58.784 0.034 6.54 1.69 9.62
5/22/2021 9:30:00 PM 14.84 58.712 0.034 6.52 2.33 9.64
5/22/2021 9:45:00 PM 14.79 58.622 0.034 6.53 1.55 9.64
5/22/2021 10:00:00 PM 14.76 58.568 0.034 6.56 1.59 9.67
5/22/2021 10:15:00 PM 14.7 58.46 0.034 6.51 1.43 9.66
5/22/2021 10:30:00 PM 14.66 58.388 0.034 6.51 1.75 9.66
5/22/2021 10:45:00 PM 14.62 58.316 0.034 6.5 1.49 9.68
5/22/2021 11:00:00 PM 14.58 58.244 0.034 6.51 1.63 9.69
5/22/2021 11:15:00 PM 14.53 58.154 0.034 6.52 1.48 9.7
5/22/2021 11:30:00 PM 14.47 58.046 0.034 6.49 1.82 9.7
5/22/2021 11:45:00 PM 14.42 57.956 0.034 6.49 1.48 9.71
5/23/2021 12:00:00 AM 14.39 57.902 0.034 6.48 1.59 9.71
5/23/2021 12:15:00 AM 14.36 57.848 0.034 6.47 3.74 9.71
5/23/2021 12:30:00 AM 14.33 57.794 0.034 6.49 1.55 9.74
5/23/2021 12:45:00 AM 14.29 57.722 0.034 6.49 1.75 9.74
5/23/2021 1:00:00 AM 14.25 57.65 0.034 6.47 3.46 9.75
5/23/2021 1:15:00 AM 14.2 57.56 0.034 6.47 4.94 9.75
5/23/2021 1:30:00 AM 14.16 57.488 0.034 6.5 1.48 9.78
5/23/2021 1:45:00 AM 14.1 57.38 0.034 6.48 4.26 9.78
5/23/2021 2:00:00 AM 14.07 57.326 0.034 6.5 2.7 9.8
5/23/2021 2:15:00 AM 14.03 57.254 0.034 6.48 3.01 9.8
5/23/2021 2:30:00 AM 14.01 57.218 0.034 6.5 1.5 9.81
5/23/2021 2:45:00 AM 13.97 57.146 0.034 6.48 2.02 9.8
5/23/2021 3:00:00 AM 13.95 57.11 0.034 6.49 3.42 9.82
5/23/2021 3:15:00 AM 13.91 57.038 0.034 6.48 1.72 9.82
5/23/2021 3:30:00 AM 13.88 56.984 0.034 6.48 8.9 9.82
5/23/2021 3:45:00 AM 13.84 56.912 0.034 6.51 3.24 9.85
5/23/2021 4:00:00 AM 13.79 56.822 0.034 6.49 1.51 9.85
5/23/2021 4:15:00 AM 13.75 56.75 0.034 6.5 3.97 9.86
5/23/2021 4:30:00 AM 13.71 56.678 0.034 6.48 1.67 9.85
5/23/2021 4:45:00 AM 13.67 56.606 0.034 6.49 1.9 9.86
5/23/2021 5:00:00 AM 13.64 56.552 0.034 6.49 3.51 9.88
5/23/2021 5:15:00 AM 13.6 56.48 0.034 6.51 1.58 9.9
5/23/2021 5:30:00 AM 13.56 56.408 0.034 6.49 2.27 9.89
5/23/2021 5:45:00 AM 13.52 56.336 0.034 6.5 1.77 9.9
5/23/2021 6:00:00 AM 13.49 56.282 0.034 6.52 1.83 9.93
5/23/2021 6:15:00 AM 13.46 56.228 0.034 6.51 1.45 9.94
5/23/2021 6:30:00 AM 13.43 56.174 0.034 6.51 3.53 9.99
5/23/2021 6:45:00 AM 13.41 56.138 0.034 6.53 1.54 10.02
5/23/2021 7:00:00 AM 13.38 56.084 0.034 6.54 1.48 10.04
5/23/2021 7:15:00 AM 13.38 56.084 0.034 6.54 1.45 10.09
5/23/2021 7:30:00 AM 13.37 56.066 0.034 6.55 1.91 10.12
5/23/2021 7:45:00 AM 13.38 56.084 0.034 6.57 1.57 10.14
5/23/2021 8:00:00 AM 13.39 56.102 0.034 6.6 1.53 10.19
5/23/2021 8:15:00 AM 13.41 56.138 0.034 6.57 1.46 10.18
5/23/2021 8:30:00 AM 13.45 56.21 0.034 6.6 2.73 10.22
5/23/2021 8:45:00 AM 13.48 56.264 0.034 6.59 1.58 10.23
5/23/2021 9:00:00 AM 13.53 56.354 0.034 6.61 1.89 10.24
5/23/2021 9:15:00 AM 13.59 56.462 0.034 6.61 1.84 10.25
5/23/2021 9:30:00 AM 13.67 56.606 0.034 6.61 2.59 10.25
5/23/2021 9:45:00 AM 13.8 56.84 0.034 6.61 3.09 10.26
5/23/2021 10:00:00 AM 13.93 57.074 0.034 6.6 1.59 10.26
5/23/2021 10:15:00 AM 14.11 57.398 0.034 6.65 1.41 10.27
5/23/2021 10:30:00 AM 14.27 57.686 0.033 6.68 1.93 10.27
5/23/2021 10:45:00 AM 14.42 57.956 0.034 6.68 2.52 10.24
5/23/2021 11:00:00 AM 14.55 58.19 0.034 6.62 1.38 10.18
5/23/2021 11:15:00 AM 14.69 58.442 0.033 6.68 1.49 10.19
5/23/2021 11:30:00 AM 14.82 58.676 0.034 6.68 1.4 10.17
5/23/2021 11:45:00 AM 14.98 58.964 0.033 6.68 1.45 10.16
5/23/2021 12:00:00 PM 15.15 59.27 0.033 6.7 1.42 10.14
5/23/2021 12:15:00 PM 15.23 59.414 0.033 6.67 2.13 10.09
5/23/2021 12:30:00 PM 15.31 59.558 0.033 6.69 1.51 10.07
5/23/2021 12:45:00 PM 15.51 59.918 0.033 6.68 1.54 10.06
5/23/2021 1:00:00 PM 15.61 60.098 0.033 6.68 2.92 10.01
5/23/2021 1:15:00 PM 15.93 60.674 0.033 6.72 2.61 10
5/23/2021 1:30:00 PM 16.02 60.836 0.033 6.71 2.62 9.96
5/23/2021 1:45:00 PM 16.18 61.124 0.033 6.72 2.56 9.94
5/23/2021 2:00:00 PM 16.26 61.268 0.033 6.69 2.09 9.89
5/23/2021 2:15:00 PM 16.35 61.43 0.033 6.69 7.03 9.84
5/23/2021 2:30:00 PM 16.32 61.376 0.033 6.7 3.63 9.78
5/23/2021 2:45:00 PM 16.28 61.304 0.033 6.67 1.99 9.78
5/23/2021 3:00:00 PM 16.56 61.808 0.033 6.67 4.31 9.84
5/23/2021 3:15:00 PM 16.77 62.186 0.033 6.73 2.71 9.81
5/23/2021 3:30:00 PM 16.73 62.114 0.033 6.67 4.23 9.76
5/23/2021 3:45:00 PM 16.8 62.24 0.033 6.71 5.29 9.76
5/23/2021 4:00:00 PM 16.84 62.312 0.033 6.73 8.99 9.77
5/23/2021 4:15:00 PM 16.91 62.438 0.033 6.69 2.34 9.74
5/23/2021 4:30:00 PM 16.92 62.456 0.033 6.71 1.35 9.74
5/23/2021 4:45:00 PM 16.94 62.492 0.033 6.71 2.45 9.74
5/23/2021 5:00:00 PM 16.98 62.564 0.033 6.76 2.43 9.74
5/23/2021 5:15:00 PM 16.91 62.438 0.034 6.7 1.58 9.7
5/23/2021 5:30:00 PM 16.9 62.42 0.033 6.7 1.76 9.69
5/23/2021 5:45:00 PM 16.85 62.33 0.034 6.69 1.62 9.65
5/23/2021 6:00:00 PM 16.82 62.276 0.034 6.67 3.75 9.62
5/23/2021 6:15:00 PM 16.74 62.132 0.034 6.65 3.13 9.57
5/23/2021 6:30:00 PM 16.65 61.97 0.034 6.66 1.73 9.53
5/23/2021 6:45:00 PM 16.58 61.844 0.034 6.66 5.61 9.56
5/23/2021 7:00:00 PM 16.49 61.682 0.034 6.62 2.93 9.53
5/23/2021 7:15:00 PM 16.4 61.52 0.034 6.64 1.78 9.47
5/23/2021 7:30:00 PM 16.32 61.376 0.034 6.6 3.44 9.42
5/23/2021 7:45:00 PM 16.24 61.232 0.034 6.58 6.48 9.4
5/23/2021 8:00:00 PM 16.15 61.07 0.034 6.59 1.36 9.41
5/23/2021 8:15:00 PM 16.07 60.926 0.035 6.53 3.94 9.37
5/23/2021 8:30:00 PM 16.02 60.836 0.035 6.51 5.38 9.35
5/23/2021 8:45:00 PM 15.97 60.746 0.034 6.56 4.77 9.36
5/23/2021 9:00:00 PM 15.91 60.638 0.035 6.57 3.54 9.37
5/23/2021 9:15:00 PM 15.84 60.512 0.035 6.55 4.95 9.35
5/23/2021 9:30:00 PM 15.76 60.368 0.035 6.53 3.11 9.35
5/23/2021 9:45:00 PM 15.71 60.278 0.035 6.54 3.63 9.38
5/23/2021 10:00:00 PM 15.65 60.17 0.035 6.54 2.3 9.4
5/23/2021 10:15:00 PM 15.6 60.08 0.035 6.54 2.58 9.42
5/23/2021 10:30:00 PM 15.55 59.99 0.035 6.55 2.06 9.44
5/23/2021 10:45:00 PM 15.5 59.9 0.035 6.54 2.82 9.43
5/23/2021 11:00:00 PM 15.45 59.81 0.035 6.55 2.48 9.46
5/23/2021 11:15:00 PM 15.4 59.72 0.035 6.54 6.08 9.47
5/23/2021 11:30:00 PM 15.36 59.648 0.035 6.54 3.13 9.47
5/23/2021 11:45:00 PM 15.31 59.558 0.035 6.52 7.5 9.46
5/24/2021 12:00:00 AM 15.28 59.504 0.035 6.52 3.71 9.47
5/24/2021 12:15:00 AM 15.23 59.414 0.035 6.55 2.23 9.51
5/24/2021 12:30:00 AM 15.16 59.288 0.035 6.5 2.17 9.48
5/24/2021 12:45:00 AM 15.12 59.216 0.035 6.55 2.37 9.53
5/24/2021 1:00:00 AM 15.05 59.09 0.035 6.55 8.57 9.53
5/24/2021 1:15:00 AM 15 59 0.035 6.53 1.68 9.54
5/24/2021 1:30:00 AM 14.96 58.928 0.035 6.55 1.71 9.56
5/24/2021 1:45:00 AM 14.91 58.838 0.035 6.53 1.6 9.57
5/24/2021 2:00:00 AM 14.86 58.748 0.035 6.54 1.95 9.59
5/24/2021 2:15:00 AM 14.82 58.676 0.035 6.56 6.55 9.61
5/24/2021 2:30:00 AM 14.77 58.586 0.035 6.52 3.51 9.59
5/24/2021 2:45:00 AM 14.72 58.496 0.035 6.56 2.27 9.62
5/24/2021 3:00:00 AM 14.66 58.388 0.035 6.56 1.85 9.65
5/24/2021 3:15:00 AM 14.59 58.262 0.035 6.55 6.03 9.65
5/24/2021 3:30:00 AM 14.53 58.154 0.035 6.52 1.89 9.65
5/24/2021 3:45:00 AM 14.48 58.064 0.035 6.51 4 9.65
5/24/2021 4:00:00 AM 14.44 57.992 0.035 6.53 3.59 9.69
5/24/2021 4:15:00 AM 14.38 57.884 0.035 6.5 1.64 9.68
5/24/2021 4:30:00 AM 14.33 57.794 0.035 6.49 3.58 9.68
5/24/2021 4:45:00 AM 14.3 57.74 0.035 6.51 4.72 9.69
5/24/2021 5:00:00 AM 14.24 57.632 0.035 6.52 4.85 9.71
5/24/2021 5:15:00 AM 14.19 57.542 0.035 6.53 2.19 9.72
5/24/2021 5:30:00 AM 14.13 57.434 0.035 6.52 2.07 9.75
5/24/2021 5:45:00 AM 14.07 57.326 0.035 6.54 5.03 9.76
5/24/2021 6:00:00 AM 14 57.2 0.035 6.54 1.66 9.76
5/24/2021 6:15:00 AM 13.96 57.128 0.035 6.54 9.14 9.79
5/24/2021 6:30:00 AM 13.91 57.038 0.035 6.52 3.09 9.83
5/24/2021 6:45:00 AM 13.87 56.966 0.035 6.53 1.7 9.87
5/24/2021 7:00:00 AM 13.85 56.93 0.034 6.55 1.95 9.93
5/24/2021 7:15:00 AM 13.82 56.876 0.035 6.59 8.96 10.01
5/24/2021 7:30:00 AM 13.8 56.84 0.034 6.59 1.78 10.04
5/24/2021 7:45:00 AM 13.8 56.84 0.034 6.58 1.63 10.12
5/24/2021 8:00:00 AM 13.81 56.858 0.034 6.58 7.16 10.17
5/24/2021 8:15:00 AM 13.81 56.858 0.034 6.62 1.78 10.2
5/24/2021 8:30:00 AM 13.84 56.912 0.034 6.66 2.24 10.25
5/24/2021 8:45:00 AM 13.86 56.948 0.034 6.67 1.87 10.29
5/24/2021 9:00:00 AM 13.89 57.002 0.034 6.63 2.03 10.3
5/24/2021 9:15:00 AM 13.93 57.074 0.034 6.69 1.62 10.34
5/24/2021 9:30:00 AM 13.95 57.11 0.034 6.67 56.96 10.31
5/24/2021 9:45:00 AM 14.03 57.254 0.034 6.7 2.27 10.36
5/24/2021 10:00:00 AM 14.1 57.38 0.034 6.67 1.88 10.34
5/24/2021 10:15:00 AM 14.2 57.56 0.034 6.68 1.98 10.35
5/24/2021 10:30:00 AM 14.28 57.704 0.034 6.69 2.38 10.36
5/24/2021 10:45:00 AM 14.35 57.83 0.034 6.74 1.8 10.35
5/24/2021 11:00:00 AM 14.45 58.01 0.034 6.68 1.71 10.31
5/24/2021 11:15:00 AM 14.45 58.01 0.034 6.67 1.93 10.29
5/24/2021 11:30:00 AM 14.46 58.028 0.034 6.71 3.48 10.27
5/24/2021 11:45:00 AM 14.49 58.082 0.034 6.69 1.58 10.26
5/24/2021 12:00:00 PM 14.51 58.118 0.034 6.73 2.15 10.26
5/24/2021 12:15:00 PM 14.64 58.352 0.034 6.68 2.52 10.28
5/24/2021 12:30:00 PM 14.78 58.604 0.034 6.69 3.43 10.27
5/24/2021 12:45:00 PM 14.95 58.91 0.034 6.71 2.75 10.28
5/24/2021 1:00:00 PM 15.06 59.108 0.033 6.71 5.65 10.26
5/24/2021 1:15:00 PM 15.08 59.144 0.033 6.78 3.7 10.25
5/24/2021 1:30:00 PM 15.12 59.216 0.034 6.75 2.85 10.23
5/24/2021 1:45:00 PM 15.12 59.216 0.034 6.72 3.99 10.19
5/24/2021 2:00:00 PM 15.1 59.18 0.033 6.75 2.49 10.16
5/24/2021 2:15:00 PM 15.09 59.162 0.034 6.73 1.63 10.13
5/24/2021 2:30:00 PM 15.11 59.198 0.034 6.68 2.67 10.13
5/24/2021 2:45:00 PM 15.13 59.234 0.034 6.69 2.16 10.14
5/24/2021 3:00:00 PM 15.13 59.234 0.034 6.69 2.17 10.1
5/24/2021 3:15:00 PM 15.1 59.18 0.034 6.69 2.84 10.08
5/24/2021 3:30:00 PM 15.03 59.054 0.034 6.67 3.37 10.02
5/24/2021 3:45:00 PM 14.99 58.982 0.034 6.62 1.77 10.01
5/24/2021 4:00:00 PM 14.95 58.91 0.034 6.67 3.56 9.97
5/24/2021 4:15:00 PM 14.94 58.892 0.034 6.6 1.77 9.95
5/24/2021 4:30:00 PM 15 59 0.034 6.62 10.04 10
5/24/2021 4:45:00 PM 15.04 59.072 0.034 6.63 1.98 10.04
5/24/2021 5:00:00 PM 15.04 59.072 0.034 6.62 2.51 10.03
5/24/2021 5:15:00 PM 14.99 58.982 0.034 6.64 2.85 9.99
5/24/2021 5:30:00 PM 14.96 58.928 0.034 6.61 2.07 9.96
5/24/2021 5:45:00 PM 14.92 58.856 0.034 6.66 1.78 9.99
5/24/2021 6:00:00 PM 14.9 58.82 0.034 6.62 1.94 9.96
5/24/2021 6:15:00 PM 14.87 58.766 0.034 6.63 1.54 9.97
5/24/2021 6:30:00 PM 14.83 58.694 0.034 6.63 2.29 9.96
5/24/2021 6:45:00 PM 14.8 58.64 0.034 6.63 2.02 9.91
5/24/2021 7:00:00 PM 14.74 58.532 0.034 6.62 2.34 9.85
5/24/2021 7:15:00 PM 14.7 58.46 0.034 6.59 2.02 9.83
5/24/2021 7:30:00 PM 14.65 58.37 0.034 6.58 1.98 9.79
5/24/2021 7:45:00 PM 14.61 58.298 0.034 6.58 2 9.75
5/24/2021 8:00:00 PM 14.56 58.208 0.035 6.56 2.18 9.74
5/24/2021 8:15:00 PM 14.52 58.136 0.035 6.54 1.87 9.71
5/24/2021 8:30:00 PM 14.48 58.064 0.035 6.54 2.44 9.69
5/24/2021 8:45:00 PM 14.45 58.01 0.035 6.59 1.64 9.72
5/24/2021 9:00:00 PM 14.4 57.92 0.035 6.51 2.04 9.69
5/24/2021 9:15:00 PM 14.37 57.866 0.035 6.55 1.52 9.71
5/24/2021 9:30:00 PM 14.34 57.812 0.035 6.59 1.98 9.74
5/24/2021 9:45:00 PM 14.29 57.722 0.035 6.59 3.7 9.73
5/24/2021 10:00:00 PM 14.26 57.668 0.035 6.56 1.53 9.74
5/24/2021 10:15:00 PM 14.22 57.596 0.035 6.53 1.45 9.74
5/24/2021 10:30:00 PM 14.2 57.56 0.035 6.56 2.71 9.76
5/24/2021 10:45:00 PM 14.15 57.47 0.035 6.56 1.57 9.74
5/24/2021 11:00:00 PM 14.13 57.434 0.035 6.57 3.56 9.76
5/24/2021 11:15:00 PM 14.09 57.362 0.035 6.5 4.23 9.75
5/24/2021 11:30:00 PM 14.07 57.326 0.035 6.58 1.59 9.8
5/24/2021 11:45:00 PM 14.04 57.272 0.035 6.55 1.98 9.78
5/25/2021 12:00:00 AM 14.01 57.218 0.035 6.52 1.85 9.78
5/25/2021 12:15:00 AM 13.99 57.182 0.035 6.54 1.96 9.79
5/25/2021 12:30:00 AM 13.96 57.128 0.035 6.54 1.94 9.8
5/25/2021 12:45:00 AM 13.93 57.074 0.035 6.52 1.49 9.79
5/25/2021 1:00:00 AM 13.9 57.02 0.035 6.51 1.8 9.81
5/25/2021 1:15:00 AM 13.87 56.966 0.035 6.54 1.94 9.8
5/25/2021 1:30:00 AM 13.87 56.966 0.035 6.53 1.5 9.81
5/25/2021 1:45:00 AM 13.84 56.912 0.035 6.52 1.66 9.82
5/25/2021 2:00:00 AM 13.82 56.876 0.035 6.5 1.97 9.81
5/25/2021 2:15:00 AM 13.81 56.858 0.035 6.53 1.63 9.84
5/25/2021 2:30:00 AM 13.79 56.822 0.035 6.56 3.31 9.85
5/25/2021 2:45:00 AM 13.78 56.804 0.035 6.58 1.45 9.87
5/25/2021 3:00:00 AM 13.73 56.714 0.035 6.48 2.06 9.8
5/25/2021 3:15:00 AM 13.73 56.714 0.035 6.55 2.41 9.86
5/25/2021 3:30:00 AM 13.72 56.696 0.035 6.56 2.37 9.87
5/25/2021 3:45:00 AM 13.69 56.642 0.035 6.54 1.61 9.86
5/25/2021 4:00:00 AM 13.67 56.606 0.035 6.55 1.95 9.86
5/25/2021 4:15:00 AM 13.65 56.57 0.035 6.53 1.57 9.88
5/25/2021 4:30:00 AM 13.64 56.552 0.035 6.55 1.88 9.88
5/25/2021 4:45:00 AM 13.62 56.516 0.035 6.54 1.84 9.88
5/25/2021 5:00:00 AM 13.61 56.498 0.035 6.54 4.8 9.87
5/25/2021 5:15:00 AM 13.57 56.426 0.035 6.53 1.61 9.85
5/25/2021 5:30:00 AM 13.57 56.426 0.035 6.51 2.73 9.87
5/25/2021 5:45:00 AM 13.55 56.39 0.035 6.52 2.07 9.88
5/25/2021 6:00:00 AM 13.54 56.372 0.035 6.55 1.41 9.9
5/25/2021 6:15:00 AM 13.52 56.336 0.035 6.53 1.97 9.93
5/25/2021 6:30:00 AM 13.52 56.336 0.035 6.53 1.76 9.94
5/25/2021 6:45:00 AM 13.5 56.3 0.035 6.53 1.75 9.94
5/25/2021 7:00:00 AM 13.5 56.3 0.035 6.55 2.35 10
5/25/2021 7:15:00 AM 13.49 56.282 0.035 6.53 1.77 9.99
5/25/2021 7:30:00 AM 13.49 56.282 0.035 6.55 2.44 10.05
5/25/2021 7:45:00 AM 13.49 56.282 0.035 6.55 2.86 10.09
5/25/2021 8:00:00 AM 13.5 56.3 0.035 6.54 2.84 10.09
5/25/2021 8:15:00 AM 13.53 56.354 0.035 6.58 3.09 10.18
5/25/2021 8:30:00 AM 13.55 56.39 0.035 6.59 3.85 10.23
5/25/2021 8:45:00 AM 13.57 56.426 0.035 6.59 2.91 10.22
5/25/2021 9:00:00 AM 13.6 56.48 0.035 6.61 1.41 10.27
5/25/2021 9:15:00 AM 13.65 56.57 0.034 6.7 1.46 10.31
5/25/2021 9:30:00 AM 13.68 56.624 0.034 6.63 3.06 10.32
5/25/2021 9:45:00 AM 13.74 56.732 0.034 6.63 1.92 10.35
5/25/2021 10:00:00 AM 13.79 56.822 0.034 6.63 3.04 10.36
5/25/2021 10:15:00 AM 13.85 56.93 0.034 6.68 1.38 10.39
5/25/2021 10:30:00 AM 13.92 57.056 0.034 6.67 2.19 10.38
5/25/2021 10:45:00 AM 14.04 57.272 0.034 6.64 2.73 10.38
5/25/2021 11:00:00 AM 14.18 57.524 0.034 6.72 2.83 10.39
5/25/2021 11:15:00 AM 14.26 57.668 0.034 6.67 9.44 10.36
5/25/2021 11:30:00 AM 14.38 57.884 0.034 6.71 2.31 10.37
5/25/2021 11:45:00 AM 14.5 58.1 0.034 6.77 4.91 10.37
5/25/2021 12:00:00 PM 14.56 58.208 0.034 6.71 2.55 10.34
5/25/2021 12:15:00 PM 14.71 58.478 0.034 6.74 3.26 10.34
5/25/2021 12:30:00 PM 14.86 58.748 0.034 6.75 2.36 10.3
5/25/2021 12:45:00 PM 15.02 59.036 0.034 6.66 2.06 10.25
5/25/2021 1:00:00 PM 15.32 59.576 0.034 6.75 2.15 10.22
5/25/2021 1:15:00 PM 15.62 60.116 0.034 6.67 2.58 10.16
5/25/2021 1:30:00 PM 15.94 60.692 0.034 6.65 4.47 10.09
5/25/2021 1:45:00 PM 16.26 61.268 0.034 6.7 3.56 10.06
5/25/2021 2:00:00 PM 16.53 61.754 0.034 6.79 2.31 10.02
5/25/2021 2:15:00 PM 16.67 62.006 0.034 6.79 2.1 9.97
5/25/2021 2:30:00 PM 16.56 61.808 0.034 6.66 2.02 9.89
5/25/2021 2:45:00 PM 16.69 62.042 0.034 6.7 2.16 9.89
5/25/2021 3:00:00 PM 16.72 62.096 0.034 6.69 2.14 9.82
5/25/2021 3:15:00 PM 16.78 62.204 0.034 6.68 2.07 9.87
5/25/2021 3:30:00 PM 16.7 62.06 0.034 6.73 3.15 9.82
5/25/2021 3:45:00 PM 16.61 61.898 0.034 6.74 2.9 9.75
5/25/2021 4:00:00 PM 16.59 61.862 0.034 6.74 2.91 9.77
5/25/2021 4:15:00 PM 16.56 61.808 0.034 6.75 1.67 9.75
5/25/2021 4:30:00 PM 16.66 61.988 0.034 6.73 2.03 9.77
5/25/2021 4:45:00 PM 16.69 62.042 0.034 6.75 2.24 9.76
5/25/2021 5:00:00 PM 16.62 61.916 0.034 6.65 1.8 9.61
5/25/2021 5:15:00 PM 16.57 61.826 0.034 6.65 1.58 9.53
5/25/2021 5:30:00 PM 16.52 61.736 0.034 6.68 1.58 9.56
5/25/2021 5:45:00 PM 16.5 61.7 0.035 6.63 1.69 9.58
5/25/2021 6:00:00 PM 16.55 61.79 0.034 6.69 1.49 9.69
5/25/2021 6:15:00 PM 16.55 61.79 0.034 6.7 1.49 9.65
5/25/2021 6:30:00 PM 16.51 61.718 0.034 6.72 1.36 9.64
5/25/2021 6:45:00 PM 16.47 61.646 0.034 6.68 1.52 9.61
5/25/2021 7:00:00 PM 16.45 61.61 0.034 6.71 1.37 9.63
5/25/2021 7:15:00 PM 16.39 61.502 0.035 6.63 1.52 9.55
5/25/2021 7:30:00 PM 16.33 61.394 0.035 6.65 1.32 9.51
5/25/2021 7:45:00 PM 16.25 61.25 0.035 6.62 1.52 9.45
5/25/2021 8:00:00 PM 16.15 61.07 0.035 6.62 1.84 9.42
5/25/2021 8:15:00 PM 16.09 60.962 0.035 6.6 1.85 9.39
5/25/2021 8:30:00 PM 16.02 60.836 0.035 6.61 1.44 9.38
5/25/2021 8:45:00 PM 15.94 60.692 0.035 6.57 1.44 9.33
5/25/2021 9:00:00 PM 15.87 60.566 0.035 6.57 1.68 9.32
5/25/2021 9:15:00 PM 15.81 60.458 0.035 6.58 1.55 9.35
5/25/2021 9:30:00 PM 15.75 60.35 0.035 6.57 1.89 9.36
5/25/2021 9:45:00 PM 15.69 60.242 0.035 6.55 1.84 9.35
5/25/2021 10:00:00 PM 15.63 60.134 0.035 6.54 1.59 9.36
5/25/2021 10:15:00 PM 15.58 60.044 0.035 6.56 1.53 9.38
5/25/2021 10:30:00 PM 15.51 59.918 0.035 6.55 1.76 9.39
5/25/2021 10:45:00 PM 15.46 59.828 0.035 6.56 1.67 9.42
5/25/2021 11:00:00 PM 15.39 59.702 0.036 6.54 1.67 9.4
5/25/2021 11:15:00 PM 15.33 59.594 0.036 6.54 1.8 9.42
5/25/2021 11:30:00 PM 15.27 59.486 0.036 6.53 1.75 9.43
5/25/2021 11:45:00 PM 15.22 59.396 0.036 6.55 1.77 9.45
5/26/2021 12:00:00 AM 15.16 59.288 0.036 6.55 1.94 9.46
5/26/2021 12:15:00 AM 15.12 59.216 0.036 6.54 1.64 9.47
5/26/2021 12:30:00 AM 15.08 59.144 0.036 6.58 2.06 9.51
5/26/2021 12:45:00 AM 15.03 59.054 0.036 6.54 1.61 9.5
5/26/2021 1:00:00 AM 14.98 58.964 0.036 6.56 1.75 9.53
5/26/2021 1:15:00 AM 14.93 58.874 0.036 6.54 1.68 9.52
5/26/2021 1:30:00 AM 14.87 58.766 0.036 6.55 1.84 9.53
5/26/2021 1:45:00 AM 14.84 58.712 0.036 6.56 1.66 9.56
5/26/2021 2:00:00 AM 14.8 58.64 0.036 6.55 1.88 9.56
5/26/2021 2:15:00 AM 14.75 58.55 0.036 6.54 1.69 9.55
5/26/2021 2:30:00 AM 14.71 58.478 0.036 6.56 1.79 9.57
5/26/2021 2:45:00 AM 14.68 58.424 0.036 6.57 1.97 9.6
5/26/2021 3:00:00 AM 14.64 58.352 0.036 6.55 1.65 9.59
5/26/2021 3:15:00 AM 14.62 58.316 0.036 6.56 2.1 9.59
5/26/2021 3:30:00 AM 14.58 58.244 0.036 6.53 2.43 9.59
5/26/2021 3:45:00 AM 14.56 58.208 0.036 6.54 1.9 9.62
5/26/2021 4:00:00 AM 14.54 58.172 0.036 6.56 1.82 9.62
5/26/2021 4:15:00 AM 14.51 58.118 0.036 6.57 1.94 9.63
5/26/2021 4:30:00 AM 14.47 58.046 0.035 6.55 12.98 9.64
5/26/2021 4:45:00 AM 14.43 57.974 0.036 6.54 1.91 9.63
5/26/2021 5:00:00 AM 14.4 57.92 0.036 6.56 1.74 9.65
5/26/2021 5:15:00 AM 14.36 57.848 0.035 6.57 1.71 9.68
5/26/2021 5:30:00 AM 14.33 57.794 0.036 6.57 1.68 9.67
5/26/2021 5:45:00 AM 14.3 57.74 0.035 6.57 280.55 9.7
5/26/2021 6:00:00 AM 14.28 57.704 0.036 6.56 2.05 9.68
5/26/2021 6:15:00 AM 14.26 57.668 0.036 6.55 1.63 9.71
5/26/2021 6:30:00 AM 14.25 57.65 0.035 6.56 12.37 9.74
5/26/2021 6:45:00 AM 14.23 57.614 0.035 6.6 1.56 9.8
5/26/2021 7:00:00 AM 14.22 57.596 0.035 6.58 1.53 9.83
5/26/2021 7:15:00 AM 14.23 57.614 0.035 6.59 1.74 9.89
5/26/2021 7:30:00 AM 14.24 57.632 0.035 6.63 2.14 9.95
5/26/2021 7:45:00 AM 14.23 57.614 0.035 6.6 2.02 9.96
5/26/2021 8:00:00 AM 14.27 57.686 0.035 6.65 1.98 10
5/26/2021 8:15:00 AM 14.29 57.722 0.035 6.67 2.16 10.06
5/26/2021 8:30:00 AM 14.31 57.758 0.035 6.66 2.21 10.06
5/26/2021 8:45:00 AM 14.34 57.812 0.035 6.67 1.6 10.1
5/26/2021 9:00:00 AM 14.36 57.848 0.035 6.68 1.54 10.1
5/26/2021 9:15:00 AM 14.4 57.92 0.035 6.7 2.02 10.12
5/26/2021 9:30:00 AM 14.49 58.082 0.035 6.7 1.71 10.11
5/26/2021 9:45:00 AM 14.59 58.262 0.035 6.69 1.57 10.13
5/26/2021 10:00:00 AM 14.72 58.496 0.035 6.72 1.7 10.14
5/26/2021 10:15:00 AM 14.84 58.712 0.035 6.75 2.68 10.17
5/26/2021 10:30:00 AM 14.97 58.946 0.035 6.72 1.74 10.15
5/26/2021 10:45:00 AM 15.12 59.216 0.035 6.73 1.68 10.11
5/26/2021 11:00:00 AM 15.28 59.504 0.035 6.76 2.05 10.14
5/26/2021 11:15:00 AM 15.47 59.846 0.034 6.78 1.51 10.12
5/26/2021 11:30:00 AM 15.66 60.188 0.035 6.77 1.48 10.1
5/26/2021 11:45:00 AM 15.78 60.404 0.034 6.79 13.55 10.04
5/26/2021 12:00:00 PM 15.95 60.71 0.034 6.81 2.68 9.99
5/26/2021 12:15:00 PM 16.16 61.088 0.034 6.82 1.92 9.93
5/26/2021 12:30:00 PM 16.18 61.124 0.035 6.77 5.59 9.86
5/26/2021 12:45:00 PM 16.22 61.196 0.035 6.75 2.66 9.71
5/26/2021 1:00:00 PM 16.26 61.268 0.035 6.73 2.13 9.72
5/26/2021 1:15:00 PM 16.28 61.304 0.035 6.71 2 9.72
5/26/2021 1:30:00 PM 16.51 61.718 0.035 6.75 1.57 9.8
5/26/2021 1:45:00 PM 16.66 61.988 0.034 6.77 2.43 9.77
5/26/2021 2:00:00 PM 16.63 61.934 0.035 6.76 3 9.65
5/26/2021 2:15:00 PM 16.54 61.772 0.035 6.68 2.44 9.45
5/26/2021 2:30:00 PM 16.54 61.772 0.035 6.67 7.88 9.49
5/26/2021 2:45:00 PM 16.83 62.294 0.035 6.72 5.96 9.64
5/26/2021 3:00:00 PM 16.93 62.474 0.035 6.77 17.92 9.68
5/26/2021 3:15:00 PM 17.14 62.852 0.035 6.72 3.42 9.68
5/26/2021 3:30:00 PM 17.3 63.14 0.035 6.76 3.68 9.7
5/26/2021 3:45:00 PM 17.39 63.302 0.035 6.78 3.35 9.66
5/26/2021 4:00:00 PM 17.37 63.266 0.035 6.76 1.87 9.58
5/26/2021 4:15:00 PM 17.28 63.104 0.035 6.74 2.33 9.61
5/26/2021 4:30:00 PM 17.26 63.068 0.035 6.81 2.04 9.64
5/26/2021 4:45:00 PM 17.26 63.068 0.035 6.74 5.87 9.6
5/26/2021 5:00:00 PM 17.17 62.906 0.035 6.77 11.18 9.46
5/26/2021 5:15:00 PM 17.12 62.816 0.035 6.72 2.81 9.43
5/26/2021 5:30:00 PM 17.12 62.816 0.035 6.73 9.57 9.48
5/26/2021 5:45:00 PM 17.1 62.78 0.035 6.75 5.58 9.47
5/26/2021 6:00:00 PM 17.06 62.708 0.035 6.75 7.49 9.4
5/26/2021 6:15:00 PM 16.97 62.546 0.035 6.67 11.82 9.29
5/26/2021 6:30:00 PM 16.89 62.402 0.036 6.63 2.45 9.24
5/26/2021 6:45:00 PM 16.84 62.312 0.036 6.68 4.81 9.23
5/26/2021 7:00:00 PM 16.75 62.15 0.036 6.62 2.5 9.17
5/26/2021 7:15:00 PM 16.7 62.06 0.036 6.64 2.44 9.15
5/26/2021 7:30:00 PM 16.63 61.934 0.036 6.62 5.58 9.13
5/26/2021 7:45:00 PM 16.56 61.808 0.036 6.62 11.66 9.12
5/26/2021 8:00:00 PM 16.47 61.646 0.036 6.6 7.93 9.11
5/26/2021 8:15:00 PM 16.38 61.484 0.036 6.57 1.85 9.11
5/26/2021 8:30:00 PM 16.32 61.376 0.036 6.57 6.45 9.09
5/26/2021 8:45:00 PM 16.24 61.232 0.036 6.57 2.49 9.14
5/26/2021 9:00:00 PM 16.16 61.088 0.036 6.55 1.81 9.16
5/26/2021 9:15:00 PM 16.09 60.962 0.036 6.56 3.16 9.18
5/26/2021 9:30:00 PM 16.01 60.818 0.036 6.55 2.67 9.19
5/26/2021 9:45:00 PM 15.94 60.692 0.036 6.56 2.46 9.21
5/26/2021 10:00:00 PM 15.88 60.584 0.036 6.55 2.36 9.23
5/26/2021 10:15:00 PM 15.82 60.476 0.036 6.53 2.35 9.23
5/26/2021 10:30:00 PM 15.76 60.368 0.036 6.54 2.65 9.25
5/26/2021 10:45:00 PM 15.72 60.296 0.036 6.56 1.98 9.29
5/26/2021 11:00:00 PM 15.65 60.17 0.036 6.53 1.88 9.28
5/26/2021 11:15:00 PM 15.61 60.098 0.036 6.55 5.39 9.29
5/26/2021 11:30:00 PM 15.55 59.99 0.037 6.54 1.8 9.3
5/26/2021 11:45:00 PM 15.53 59.954 0.036 6.59 2.47 9.35
5/27/2021 12:00:00 AM 15.48 59.864 0.036 6.6 1.64 9.36
5/27/2021 12:15:00 AM 15.43 59.774 0.036 6.58 1.88 9.35
5/27/2021 12:30:00 AM 15.36 59.648 0.036 6.56 1.97 9.36
5/27/2021 12:45:00 AM 15.33 59.594 0.036 6.55 1.64 9.37
5/27/2021 1:00:00 AM 15.29 59.522 0.036 6.58 2.67 9.41
5/27/2021 1:15:00 AM 15.25 59.45 0.036 6.59 2.48 9.42
5/27/2021 1:30:00 AM 15.21 59.378 0.036 6.59 1.67 9.42
5/27/2021 1:45:00 AM 15.17 59.306 0.036 6.59 2.61 9.43
5/27/2021 2:00:00 AM 15.14 59.252 0.036 6.6 1.79 9.45
5/27/2021 2:15:00 AM 15.09 59.162 0.036 6.58 1.66 9.46
5/27/2021 2:30:00 AM 15.04 59.072 0.036 6.6 2.5 9.46
5/27/2021 2:45:00 AM 15 59 0.036 6.57 2.81 9.46
5/27/2021 3:00:00 AM 14.97 58.946 0.036 6.57 1.64 9.47
5/27/2021 3:15:00 AM 14.93 58.874 0.036 6.57 1.47 9.48
5/27/2021 3:30:00 AM 14.9 58.82 0.036 6.59 1.47 9.5
5/27/2021 3:45:00 AM 14.85 58.73 0.036 6.58 1.54 9.5
5/27/2021 4:00:00 AM 14.81 58.658 0.036 6.58 1.75 9.51
5/27/2021 4:15:00 AM 14.79 58.622 0.036 6.59 1.61 9.53
5/27/2021 4:30:00 AM 14.75 58.55 0.036 6.58 1.56 9.54
5/27/2021 4:45:00 AM 14.71 58.478 0.036 6.53 1.81 9.51
5/27/2021 5:00:00 AM 14.68 58.424 0.036 6.56 1.52 9.53
5/27/2021 5:15:00 AM 14.64 58.352 0.036 6.58 2.09 9.49
5/27/2021 5:30:00 AM 14.61 58.298 0.036 6.57 2.06 9.51
5/27/2021 5:45:00 AM 14.56 58.208 0.036 6.58 1.65 9.53
5/27/2021 6:00:00 AM 14.48 58.064 0.036 6.59 1.96 9.59
5/27/2021 6:15:00 AM 14.43 57.974 0.036 6.58 1.83 9.62
5/27/2021 6:30:00 AM 14.38 57.884 0.036 6.59 1.59 9.61
5/27/2021 6:45:00 AM 14.32 57.776 0.036 6.61 1.84 9.72
5/27/2021 7:00:00 AM 14.27 57.686 0.036 6.61 1.92 9.76
5/27/2021 7:15:00 AM 14.24 57.632 0.036 6.61 1.56 9.8
5/27/2021 7:30:00 AM 14.21 57.578 0.036 6.62 1.56 9.84
5/27/2021 7:45:00 AM 14.2 57.56 0.036 6.63 2.52 9.87
5/27/2021 8:00:00 AM 14.2 57.56 0.036 6.63 1.8 9.9
5/27/2021 8:15:00 AM 14.21 57.578 0.036 6.65 1.59 9.93
5/27/2021 8:30:00 AM 14.22 57.596 0.035 6.67 1.73 9.96
5/27/2021 8:45:00 AM 14.23 57.614 0.036 6.66 1.45 9.98
5/27/2021 9:00:00 AM 14.23 57.614 0.036 6.67 1.78 9.99
5/27/2021 9:15:00 AM 14.24 57.632 0.035 6.7 2.12 10.03
5/27/2021 9:30:00 AM 14.3 57.74 0.035 6.71 4 10.04
5/27/2021 9:45:00 AM 14.37 57.866 0.035 6.7 1.61 10.06
5/27/2021 10:00:00 AM 14.46 58.028 0.035 6.73 1.56 10.08
5/27/2021 10:15:00 AM 14.54 58.172 0.035 6.75 1.54 10.11
5/27/2021 10:30:00 AM 14.63 58.334 0.035 6.73 2.05 10.1
5/27/2021 10:45:00 AM 14.74 58.532 0.035 6.73 1.75 10.1
5/27/2021 11:00:00 AM 14.85 58.73 0.035 6.74 1.61 10.06
5/27/2021 11:15:00 AM 14.96 58.928 0.035 6.77 1.52 10.11
5/27/2021 11:30:00 AM 15.1 59.18 0.035 6.76 1.74 10.08
5/27/2021 11:45:00 AM 15.24 59.432 0.035 6.75 1.92 10.05
5/27/2021 12:00:00 PM 15.41 59.738 0.035 6.74 1.87 10.04
5/27/2021 12:15:00 PM 15.59 60.062 0.035 6.78 1.66 10.04
5/27/2021 12:30:00 PM 15.79 60.422 0.035 6.77 11.76 9.99
5/27/2021 12:45:00 PM 16.03 60.854 0.035 6.77 1.38 9.96
5/27/2021 1:00:00 PM 16.26 61.268 0.035 6.75 1.39 9.94
5/27/2021 1:15:00 PM 16.42 61.556 0.035 6.7 1.41 9.89
5/27/2021 1:30:00 PM 16.65 61.97 0.035 6.79 1.36 9.93
5/27/2021 1:45:00 PM 16.8 62.24 0.035 6.82 1.64 9.93
5/27/2021 2:00:00 PM 16.93 62.474 0.035 6.8 1.8 9.91
5/27/2021 2:15:00 PM 16.98 62.564 0.035 6.84 2.38 9.89
5/27/2021 2:30:00 PM 16.94 62.492 0.035 6.84 1.26 9.89
5/27/2021 2:45:00 PM 16.85 62.33 0.035 6.86 1.43 9.89
5/27/2021 3:00:00 PM 16.75 62.15 0.035 6.88 1.49 9.87
5/27/2021 3:15:00 PM 16.84 62.312 0.035 6.84 1.57 9.9
5/27/2021 3:30:00 PM 16.89 62.402 0.035 6.85 1.33 9.88
5/27/2021 3:45:00 PM 16.93 62.474 0.035 6.84 1.26 9.76
5/27/2021 4:00:00 PM 16.99 62.582 0.035 6.84 1.37 9.75
5/27/2021 4:15:00 PM 16.9 62.42 0.035 6.85 1.34 9.75
5/27/2021 4:30:00 PM 16.75 62.15 0.035 6.76 2.01 9.72
5/27/2021 4:45:00 PM 16.68 62.024 0.035 6.88 1.43 9.77
5/27/2021 5:00:00 PM 16.64 61.952 0.035 6.77 1.37 9.74
5/27/2021 5:15:00 PM 16.6 61.88 0.035 6.82 1.55 9.75
5/27/2021 5:30:00 PM 16.5 61.7 0.035 6.8 1.48 9.68
5/27/2021 5:45:00 PM 16.43 61.574 0.035 6.79 1.56 9.66
5/27/2021 6:00:00 PM 16.36 61.448 0.035 6.76 1.33 9.63
5/27/2021 6:15:00 PM 16.31 61.358 0.035 6.75 1.25 9.63
5/27/2021 6:30:00 PM 16.22 61.196 0.035 6.76 1.27 9.61
5/27/2021 6:45:00 PM 16.14 61.052 0.036 6.68 1.33 9.52
5/27/2021 7:00:00 PM 16.06 60.908 0.035 6.67 1.38 9.5
5/27/2021 7:15:00 PM 15.97 60.746 0.035 6.72 3.01 9.52
5/27/2021 7:30:00 PM 15.89 60.602 0.036 6.69 2.38 9.45
5/27/2021 7:45:00 PM 15.8 60.44 0.036 6.66 1.74 9.49
5/27/2021 8:00:00 PM 15.71 60.278 0.036 6.62 2.93 9.41
5/27/2021 8:15:00 PM 15.63 60.134 0.036 6.64 2.57 9.38
5/27/2021 8:30:00 PM 15.52 59.936 0.036 6.66 6.06 9.41
5/27/2021 8:45:00 PM 15.4 59.72 0.036 6.66 1.18 9.41
5/27/2021 9:00:00 PM 15.29 59.522 0.036 6.63 1.27 9.42
5/27/2021 9:15:00 PM 15.16 59.288 0.036 6.63 1.35 9.42
5/27/2021 9:30:00 PM 15.05 59.09 0.036 6.62 1.34 9.44
5/27/2021 9:45:00 PM 14.94 58.892 0.036 6.64 1.37 9.47
5/27/2021 10:00:00 PM 14.83 58.694 0.036 6.63 1.58 9.5
5/27/2021 10:15:00 PM 14.72 58.496 0.036 6.61 1.33 9.51
5/27/2021 10:30:00 PM 14.6 58.28 0.036 6.61 2.06 9.54
5/27/2021 10:45:00 PM 14.51 58.118 0.036 6.62 1.44 9.56
5/27/2021 11:00:00 PM 14.41 57.938 0.036 6.62 1.4 9.59
5/27/2021 11:15:00 PM 14.33 57.794 0.036 6.61 1.37 9.62
5/27/2021 11:30:00 PM 14.25 57.65 0.036 6.63 1.36 9.64
5/27/2021 11:45:00 PM 14.16 57.488 0.036 6.61 1.32 9.66
5/28/2021 12:00:00 AM 14.07 57.326 0.036 6.61 1.4 9.67
5/28/2021 12:15:00 AM 14 57.2 0.036 6.63 1.38 9.69
5/28/2021 12:30:00 AM 13.92 57.056 0.036 6.61 1.35 9.72
5/28/2021 12:45:00 AM 13.86 56.948 0.036 6.6 1.34 9.72
5/28/2021 1:00:00 AM 13.78 56.804 0.037 6.62 1.35 9.74
5/28/2021 1:15:00 AM 13.71 56.678 0.036 6.62 1.38 9.77
5/28/2021 1:30:00 AM 13.65 56.57 0.036 6.6 1.4 9.79
5/28/2021 1:45:00 AM 13.57 56.426 0.036 6.61 1.34 9.8
5/28/2021 2:00:00 AM 13.5 56.3 0.037 6.61 2.85 9.8
5/28/2021 2:15:00 AM 13.45 56.21 0.036 6.61 1.45 9.83
5/28/2021 2:30:00 AM 13.38 56.084 0.036 6.61 1.47 9.85
5/28/2021 2:45:00 AM 13.32 55.976 0.036 6.58 1.6 9.83
5/28/2021 3:00:00 AM 13.25 55.85 0.036 6.61 1.35 9.87
5/28/2021 3:15:00 AM 13.18 55.724 0.037 6.57 1.38 9.85
5/28/2021 3:30:00 AM 13.12 55.616 0.037 6.59 1.35 9.89
5/28/2021 3:45:00 AM 13.06 55.508 0.036 6.61 1.38 9.92
5/28/2021 4:00:00 AM 12.98 55.364 0.036 6.62 1.43 9.95
5/28/2021 4:15:00 AM 12.91 55.238 0.036 6.61 1.42 9.95
5/28/2021 4:30:00 AM 12.84 55.112 0.036 6.61 1.59 9.97
5/28/2021 4:45:00 AM 12.76 54.968 0.036 6.59 1.51 9.98
5/28/2021 5:00:00 AM 12.7 54.86 0.036 6.62 1.42 10.01
5/28/2021 5:15:00 AM 12.63 54.734 0.036 6.59 1.51 10
5/28/2021 5:30:00 AM 12.57 54.626 0.036 6.62 1.46 10.03
5/28/2021 5:45:00 AM 12.52 54.536 0.036 6.61 3.39 10.05
5/28/2021 6:00:00 AM 12.47 54.446 0.036 6.61 1.4 10.07
5/28/2021 6:15:00 AM 12.43 54.374 0.036 6.6 3.66 10.06
5/28/2021 6:30:00 AM 12.39 54.302 0.036 6.62 1.36 10.12
5/28/2021 6:45:00 AM 12.36 54.248 0.036 6.63 1.33 10.18
5/28/2021 7:00:00 AM 12.33 54.194 0.036 6.59 1.32 10.2
5/28/2021 7:15:00 AM 12.31 54.158 0.036 6.64 1.39 10.27
5/28/2021 7:30:00 AM 12.3 54.14 0.036 6.66 1.29 10.31
5/28/2021 7:45:00 AM 12.28 54.104 0.036 6.66 1.38 10.31
5/28/2021 8:00:00 AM 12.25 54.05 0.036 6.65 1.29 10.3
5/28/2021 8:15:00 AM 12.24 54.032 0.036 6.64 1.48 10.31
5/28/2021 8:30:00 AM 12.22 53.996 0.036 6.64 1.35 10.32
5/28/2021 8:45:00 AM 12.22 53.996 0.036 6.66 1.36 10.36
5/28/2021 9:00:00 AM 12.21 53.978 0.036 6.67 1.42 10.39
5/28/2021 9:15:00 AM 12.22 53.996 0.036 6.68 1.37 10.43